Provisional Data: Conodoguinet Creek near Schlusser, PA


Please select a monitoring station.
Please select start date.
Please select start date.

Toggle Unit: C/F Toggle Unit: C/F
Sample Time Temperature (C) Temperature (F) Specific Conductivity (mS/cm) pH   Turbidity (NTU+) DO (mg/L)
12/11/2021 12:00:00 AM 5.06 41.108 0.453 3.7 24.3 12.13
12/11/2021 12:15:00 AM 5.08 41.144 0.454 3.63 22.79 12.04
12/11/2021 12:30:00 AM 5.1 41.18 0.454 3.65 23.13 12.1
12/11/2021 12:45:00 AM 5.11 41.198 0.454 3.63 23.17 12.12
12/11/2021 1:00:00 AM 5.12 41.216 0.454 3.35 23.01 12.11
12/11/2021 1:15:00 AM 5.13 41.234 0.454 3.38 22.75 12.12
12/11/2021 1:30:00 AM 5.15 41.27 0.411 3.31 22.73 12.11
12/11/2021 1:45:00 AM 5.16 41.288 0.417 3.07 22.75 12.12
12/11/2021 2:00:00 AM 5.17 41.306 0.454 3.37 4157 12.06
12/11/2021 2:15:00 AM 5.19 41.342 0.447 3.4 93.44 12.12
12/11/2021 2:30:00 AM 5.2 41.36 0.454 3.38 22.76 12.14
12/11/2021 2:45:00 AM 5.22 41.396 0.404 3.32 22.59 12.11
12/11/2021 3:00:00 AM 5.23 41.414 0.454 3.4 22.71 12.14
12/11/2021 3:15:00 AM 5.25 41.45 0.455 3.43 22.63 12.16
12/11/2021 3:30:00 AM 5.26 41.468 0.454 3.45 25.77 11.99
12/11/2021 3:45:00 AM 5.28 41.504 0.455 3.5 21.18 12.08
12/11/2021 4:00:00 AM 5.3 41.54 0.436 3.6 20.94 12.11
12/11/2021 4:15:00 AM 5.32 41.576 0.432 3.97 19.33 12.1
12/11/2021 4:30:00 AM 5.34 41.612 0.43 3.95 19.55 12.07
12/11/2021 4:45:00 AM 5.36 41.648 0.45 3.95 19.06 12.15
12/11/2021 5:00:00 AM 5.38 41.684 0.455 3.97 19.13 12.13
12/11/2021 5:15:00 AM 5.4 41.72 0.455 4.09 17.94 12.14
12/11/2021 5:30:00 AM 5.42 41.756 0.455 4.08 18.13 12.19
12/11/2021 5:45:00 AM 5.43 41.774 0.455 4.17 17.87 12.18
12/11/2021 6:00:00 AM 5.45 41.81 0.446 3.93 17.7 12.16
12/11/2021 6:15:00 AM 5.48 41.864 0.436 3.9 17.64 12.21
12/11/2021 6:30:00 AM 5.49 41.882 0.444 3.98 17.69 12.18
12/11/2021 6:45:00 AM 5.52 41.936 0.439 4.11 17.38 12.2
12/11/2021 7:00:00 AM 5.54 41.972 0.445 4.11 17.41 12.17
12/11/2021 7:15:00 AM 5.54 41.972 0.453 4.05 17.74 12.21
12/11/2021 7:30:00 AM 5.58 42.044 0.451 4.12 17.55 12.18
12/11/2021 7:45:00 AM 5.59 42.062 0.442 4.23 17.4 12.18
12/11/2021 8:00:00 AM 5.61 42.098 0.444 3.97 17.26 12.18
12/11/2021 8:15:00 AM 5.64 42.152 0.431 3.91 17.57 12.24
12/11/2021 8:30:00 AM 5.66 42.188 0.447 4.03 17.42 12.27
12/11/2021 8:45:00 AM 5.69 42.242 0.434 3.95 17.19 12.25
12/11/2021 9:00:00 AM 5.72 42.296 0.434 3.92 17.34 12.28
12/11/2021 9:15:00 AM 5.76 42.368 0.441 3.83 17.36 12.4
12/11/2021 9:30:00 AM 5.8 42.44 0.439 3.71 17.05 12.44
12/11/2021 9:45:00 AM 5.83 42.494 0.443 3.77 16.91 12.48
12/11/2021 10:00:00 AM 5.87 42.566 0.446 3.66 17.03 12.56
12/11/2021 10:15:00 AM 5.91 42.638 0.43 3.74 17.12 12.62
12/11/2021 10:30:00 AM 5.94 42.692 0.433 3.71 17.13 12.71
12/11/2021 10:45:00 AM 5.98 42.764 0.432 3.78 17.17 12.78
12/11/2021 11:00:00 AM 6.03 42.854 0.429 3.76 16.87 12.85
12/11/2021 11:15:00 AM 6.06 42.908 0.412 3.86 16.78 12.87
12/11/2021 11:30:00 AM 6.09 42.962 0.424 3.86 16.79 12.94
12/11/2021 11:45:00 AM 6.13 43.034 0.429 3.73 16.66 12.99
12/11/2021 12:00:00 PM 6.16 43.088 0.449 3.8 16.96 13.02
12/11/2021 12:15:00 PM 6.18 43.124 0.446 3.77 16.74 13.02
12/11/2021 12:30:00 PM 6.22 43.196 0.446 3.74 16.7 13.02
12/11/2021 12:45:00 PM 6.25 43.25 0.449 3.83 16.73 13.08
12/11/2021 1:00:00 PM 6.29 43.322 0.448 3.86 16.66 13.1
12/11/2021 1:15:00 PM 6.32 43.376 0.449 3.93 16.52 13.12
12/11/2021 1:30:00 PM 6.33 43.394 0.449 4.04 16.31 13.03
12/11/2021 1:45:00 PM 6.33 43.394 0.449 4.04 16.38 12.98
12/11/2021 2:00:00 PM 6.35 43.43 0.445 4.09 16.26 12.96
12/11/2021 2:15:00 PM 6.35 43.43 0.445 4.25 16.22 12.94
12/11/2021 2:30:00 PM 6.37 43.466 0.44 4.32 16.37 12.85
12/11/2021 2:45:00 PM 6.39 43.502 0.438 4.33 15.91 12.83
12/11/2021 3:00:00 PM 6.39 43.502 0.382 4.41 16.06 12.82
12/11/2021 3:15:00 PM 6.4 43.52 0.386 4.49 15.97 12.78
12/11/2021 3:30:00 PM 6.42 43.556 0.405 4.67 15.63 12.7
12/11/2021 3:45:00 PM 6.41 43.538 0.408 4.7 15.77 12.72
12/11/2021 4:00:00 PM 6.4 43.52 0.403 4.69 15.47 12.66
12/11/2021 4:15:00 PM 6.4 43.52 0.389 4.96 15.27 12.61
12/11/2021 4:30:00 PM 6.39 43.502 0.394 5.02 15.24 12.5
12/11/2021 4:45:00 PM 6.38 43.484 0.406 5.09 15.23 12.5
12/11/2021 5:00:00 PM 6.38 43.484 0.453 5.1 14.72 12.38
12/11/2021 5:15:00 PM 6.37 43.466 0.453 5.01 1245 12.23
12/11/2021 5:30:00 PM 6.35 43.43 0.454 5.06 14.24 12.1
12/11/2021 5:45:00 PM 6.34 43.412 0.454 5.01 14.28 11.99
12/11/2021 6:00:00 PM 6.35 43.43 0.454 5.01 14.22 11.91
12/11/2021 6:15:00 PM 6.34 43.412 0.454 5 13.83 11.8
12/11/2021 6:30:00 PM 6.34 43.412 0.455 5.19 13.91 11.72
12/11/2021 6:45:00 PM 6.34 43.412 0.455 5.25 13.98 11.64
12/11/2021 7:00:00 PM 6.35 43.43 0.453 5.33 14.31 11.61
12/11/2021 7:15:00 PM 6.37 43.466 0.455 5.29 14.2 11.51
12/11/2021 7:30:00 PM 6.42 43.556 0.455 4.96 167.5 11.48
12/11/2021 7:45:00 PM 6.45 43.61 0.456 5.1 13.85 11.48
12/11/2021 8:00:00 PM 6.48 43.664 0.448 5.24 13.85 11.46
12/11/2021 8:15:00 PM 6.49 43.682 0.456 5.4 3829 11.42
12/11/2021 8:30:00 PM 6.49 43.682 0.424 5.59 12.92 11.44
12/11/2021 8:45:00 PM 6.48 43.664 0.456 5.78 4002 11.43
12/11/2021 9:00:00 PM 6.48 43.664 0.457 5.92 13 11.39
12/11/2021 9:15:00 PM 6.46 43.628 0.457 5.96 11.93 11.4
12/11/2021 9:30:00 PM 6.43 43.574 0.457 6.02 11.94 11.35
12/11/2021 9:45:00 PM 6.38 43.484 0.457 6.06 12.27 11.36
12/11/2021 10:00:00 PM 6.35 43.43 0.457 6.09 25.77 11.36
12/11/2021 10:15:00 PM 6.29 43.322 0.457 6.11 262.4 11.38
12/11/2021 10:30:00 PM 6.25 43.25 0.457 6.08 124.4 11.37
12/11/2021 10:45:00 PM 6.22 43.196 0.458 6.06 108.4 11.29
12/11/2021 11:00:00 PM 6.18 43.124 0.458 6.09 3266 11.32
12/11/2021 11:15:00 PM 6.13 43.034 0.457 6.13 4117 11.36
12/11/2021 11:30:00 PM 6.1 42.98 0.457 6.16 10.63 11.38
12/11/2021 11:45:00 PM 6.08 42.944 0.456 6.19 10.64 11.39
12/12/2021 12:00:00 AM 6.07 42.926 0.457 6.21 10.37 11.39
12/12/2021 12:15:00 AM 6.05 42.89 0.439 6.22 10.12 11.37
12/12/2021 12:30:00 AM 6.04 42.872 0.455 6.26 9.86 11.41
12/12/2021 12:45:00 AM 6.03 42.854 0.456 6.27 9.97 11.43
12/12/2021 1:00:00 AM 6.03 42.854 0.457 6.28 4157 11.42
12/12/2021 1:15:00 AM 6.02 42.836 0.457 6.3 10.8 11.36
12/12/2021 1:30:00 AM 6 42.8 0.457 6.32 1803 11.41
12/12/2021 1:45:00 AM 6.01 42.818 0.457 6.35 14.5 11.39
12/12/2021 2:00:00 AM 6 42.8 0.457 6.33 4157 11.4
12/12/2021 2:15:00 AM 6 42.8 0.456 6.35 28.02 11.45
12/12/2021 2:30:00 AM 5.98 42.764 0.457 6.34 18.44 11.43
12/12/2021 2:45:00 AM 5.97 42.746 0.456 6.37 1407 11.44
12/12/2021 3:00:00 AM 5.93 42.674 0.456 6.42 404 11.43
12/12/2021 3:15:00 AM 5.91 42.638 0.456 6.45 188.8 11.37
12/12/2021 3:30:00 AM 5.87 42.566 0.446 6.48 2895 11.42
12/12/2021 3:45:00 AM 5.84 42.512 0.45 6.53 8.87 11.47
12/12/2021 4:00:00 AM 5.81 42.458 0.455 6.54 4143 11.49
12/12/2021 4:15:00 AM 5.78 42.404 0.442 6.57 1845 11.49
12/12/2021 4:30:00 AM 5.75 42.35 0.456 6.54 4157 11.53
12/12/2021 4:45:00 AM 5.72 42.296 0.4 6.54 4157 11.54
12/12/2021 5:00:00 AM 5.71 42.278 0.455 6.56 2837 11.56
12/12/2021 5:15:00 AM 5.69 42.242 0.458 6.6 8.38 11.53
12/12/2021 5:30:00 AM 5.68 42.224 0.404 6.63 8.46 11.57
12/12/2021 5:45:00 AM 5.66 42.188 0.458 6.62 8.17 11.57
12/12/2021 6:00:00 AM 5.66 42.188 0.458 6.65 8.07 11.49
12/12/2021 6:15:00 AM 5.65 42.17 0.447 6.67 8.52 11.56
12/12/2021 6:30:00 AM 5.66 42.188 0.401 6.7 8.26 11.64
12/12/2021 6:45:00 AM 5.64 42.152 0.459 6.73 8.32 11.61
12/12/2021 7:00:00 AM 5.63 42.134 0.46 6.72 8.32 11.61
12/12/2021 7:15:00 AM 5.63 42.134 0.459 6.76 8.32 11.65
12/12/2021 7:30:00 AM 5.63 42.134 0.459 6.81 8.27 11.68
12/12/2021 7:45:00 AM 5.65 42.17 0.459 6.86 8.18 11.73
12/12/2021 8:00:00 AM 5.66 42.188 0.459 6.9 8.06 11.72
12/12/2021 8:15:00 AM 5.66 42.188 0.458 6.83 8.15 11.8
12/12/2021 8:30:00 AM 5.66 42.188 0.458 6.73 8 11.82
12/12/2021 8:45:00 AM 5.69 42.242 0.457 6.65 8.06 11.93
12/12/2021 9:00:00 AM 5.72 42.296 0.457 6.55 7.91 11.97
12/12/2021 9:15:00 AM 5.77 42.386 0.457 6.5 8.27 12.12
12/12/2021 9:30:00 AM 5.81 42.458 0.457 6.47 7.7 12.24
12/12/2021 9:45:00 AM 5.86 42.548 0.456 6.41 7.68 12.26
12/12/2021 10:00:00 AM 5.9 42.62 0.456 6.35 7.74 12.45
12/12/2021 10:15:00 AM 5.95 42.71 0.456 6.29 7.89 12.56
12/12/2021 10:30:00 AM 6.02 42.836 0.455 6.26 7.51 12.65
12/12/2021 10:45:00 AM 6.1 42.98 0.443 6.22 7.67 12.76
12/12/2021 11:00:00 AM 6.19 43.142 0.437 6.25 7.66 12.86
12/12/2021 11:15:00 AM 6.32 43.376 0.437 6.2 7.74 12.91
12/12/2021 11:30:00 AM 6.45 43.61 0.436 6.08 7.57 13.01
12/12/2021 11:45:00 AM 6.61 43.898 0.434 5.85 7.46 13.13
12/12/2021 12:00:00 PM 6.77 44.186 0.428 5.69 7.41 13.23
12/12/2021 12:15:00 PM 6.91 44.438 0.45 5.65 7.57 13.23
12/12/2021 12:30:00 PM 7.12 44.816 0.442 5.71 7.54 13.33
12/12/2021 12:45:00 PM 7.27 45.086 0.449 5.81 7.67 13.35
12/12/2021 1:00:00 PM 7.36 45.248 0.45 6.23 7.47 13.39
12/12/2021 1:15:00 PM 7.47 45.446 0.417 6.78 7.44 13.37
12/12/2021 1:30:00 PM 7.54 45.572 0.428 7.23 7.49 13.4
12/12/2021 1:45:00 PM 7.59 45.662 0.428 7.62 7.41 13.36
12/12/2021 2:00:00 PM 7.62 45.716 0.428 7.91 7.54 13.39
12/12/2021 2:15:00 PM 7.59 45.662 0.437 8.08 7.37 13.39
12/12/2021 2:30:00 PM 7.56 45.608 0.435 8.18 7.38 13.38
12/12/2021 2:45:00 PM 7.47 45.446 0.447 8.23 7.1 13.33
12/12/2021 3:00:00 PM 7.4 45.32 0.447 8.27 7.44 13.32
12/12/2021 3:15:00 PM 7.2 44.96 0.433 8.31 7.28 13.3
12/12/2021 3:30:00 PM 7.04 44.672 0.386 8.33 7.28 13.17
12/12/2021 3:45:00 PM 6.92 44.456 0.39 8.33 7.19 13.09
12/12/2021 4:00:00 PM 6.8 44.24 0.425 8.23 7.17 12.99
12/12/2021 4:15:00 PM 6.64 43.952 0.433 8.08 7.18 12.87
12/12/2021 4:30:00 PM 6.55 43.79 0.419 7.94 7 12.78
12/12/2021 4:45:00 PM 6.46 43.628 0.448 7.81 6.93 12.66
12/12/2021 5:00:00 PM 6.35 43.43 0.436 7.75 7.21 12.46
12/12/2021 5:15:00 PM 6.25 43.25 0.456 7.71 6.88 12.36
12/12/2021 5:30:00 PM 6.17 43.106 0.456 7.67 6.97 12.26
12/12/2021 5:45:00 PM 6.12 43.016 0.456 7.62 7.37 12.13
12/12/2021 6:00:00 PM 6.05 42.89 0.457 7.57 7.62 12.03
12/12/2021 6:15:00 PM 5.99 42.782 0.457 7.57 7.43 11.9
12/12/2021 6:30:00 PM 5.94 42.692 0.458 7.6 7.67 11.85
12/12/2021 6:45:00 PM 5.9 42.62 0.458 7.62 11.9 11.8
12/12/2021 7:00:00 PM 5.85 42.53 0.458 7.65 6.55 11.71
12/12/2021 7:15:00 PM 5.82 42.476 0.458 7.69 6.04 11.66
12/12/2021 7:30:00 PM 5.77 42.386 0.458 7.7 5.85 11.67
12/12/2021 7:45:00 PM 5.74 42.332 0.458 7.71 30.85 11.67
12/12/2021 8:00:00 PM 5.7 42.26 0.459 7.74 7.71 11.68
12/12/2021 8:15:00 PM 5.67 42.206 0.459 7.77 6.52 11.66
12/12/2021 8:30:00 PM 5.63 42.134 0.459 7.69 7.85 11.66
12/12/2021 8:45:00 PM 5.6 42.08 0.453 7.69 6.18 11.68
12/12/2021 9:00:00 PM 5.58 42.044 0.457 7.58 16.94 11.66
12/12/2021 9:15:00 PM 5.54 41.972 0.459 7.62 364.7 11.67
12/12/2021 9:30:00 PM 5.52 41.936 0.454 7.77 81.45 11.68
12/12/2021 9:45:00 PM 5.49 41.882 0.459 7.76 5.55 11.67
12/12/2021 10:00:00 PM 5.47 41.846 0.458 7.76 5.39 11.68
12/12/2021 10:15:00 PM 5.44 41.792 0.459 7.78 5.64 11.65
12/12/2021 10:30:00 PM 5.41 41.738 0.459 7.77 5.36 11.69
12/12/2021 10:45:00 PM 5.39 41.702 0.459 7.77 5.45 11.62
12/12/2021 11:00:00 PM 5.36 41.648 0.459 7.79 5.8 11.72
12/12/2021 11:15:00 PM 5.32 41.576 0.459 7.81 26.2 11.74
12/12/2021 11:30:00 PM 5.3 41.54 0.458 7.81 6.31 11.69
12/12/2021 11:45:00 PM 5.27 41.486 0.458 7.83 5.36 11.73
12/13/2021 12:00:00 AM 5.24 41.432 0.458 7.81 5.07 11.74
12/13/2021 12:15:00 AM 5.22 41.396 0.458 7.79 26.3 11.77
12/13/2021 12:30:00 AM 5.19 41.342 0.458 7.81 5.95 11.74
12/13/2021 12:45:00 AM 5.17 41.306 0.458 7.81 161.4 11.76
12/13/2021 1:00:00 AM 5.15 41.27 0.459 7.8 5.36 11.79
12/13/2021 1:15:00 AM 5.13 41.234 0.379 7.8 5.18 11.79
12/13/2021 1:30:00 AM 5.1 41.18 0.459 7.79 5.61 11.8
12/13/2021 1:45:00 AM 5.08 41.144 0.459 7.78 4.99 11.8
12/13/2021 2:00:00 AM 5.07 41.126 0.459 7.77 4.68 11.83
12/13/2021 2:15:00 AM 5.05 41.09 0.46 7.77 5.21 11.84
12/13/2021 2:30:00 AM 5.03 41.054 0.453 7.78 5.3 11.85
12/13/2021 2:45:00 AM 5.01 41.018 0.459 7.79 4.59 11.85
12/13/2021 3:00:00 AM 4.99 40.982 0.46 7.77 261.5 11.86
12/13/2021 3:15:00 AM 4.99 40.982 0.405 7.76 4.75 11.88
12/13/2021 3:30:00 AM 4.99 40.982 0.46 7.78 5.13 11.9
12/13/2021 3:45:00 AM 5 41 0.459 7.76 6.75 11.92
12/13/2021 4:00:00 AM 5.01 41.018 0.459 7.74 6.35 11.96
12/13/2021 4:15:00 AM 5.01 41.018 0.46 7.7 5.66 11.96
12/13/2021 4:30:00 AM 5 41 0.46 7.73 4.7 11.97
12/13/2021 4:45:00 AM 5 41 0.46 7.75 4.42 11.97
12/13/2021 5:00:00 AM 5 41 0.46 7.75 4.61 12
12/13/2021 5:15:00 AM 5.01 41.018 0.46 7.74 4.47 12.01
12/13/2021 5:30:00 AM 5.01 41.018 0.45 7.73 4.45 12.01
12/13/2021 5:45:00 AM 5 41 0.389 7.74 4.37 12.04
12/13/2021 6:00:00 AM 4.99 40.982 0.46 7.75 4.3 12.05
12/13/2021 6:15:00 AM 4.98 40.964 0.46 7.75 5.26 12.06
12/13/2021 6:30:00 AM 4.97 40.946 0.459 7.74 2756 12.09
12/13/2021 6:45:00 AM 4.95 40.91 0.459 7.76 4.75 12.1
12/13/2021 7:00:00 AM 4.92 40.856 0.459 7.78 11.79 12.11
12/13/2021 7:15:00 AM 4.9 40.82 0.449 7.76 4.66 12.15
12/13/2021 7:30:00 AM 4.88 40.784 0.459 7.77 4.47 12.19
12/13/2021 7:45:00 AM 4.86 40.748 0.459 7.77 4.35 12.22
12/13/2021 8:00:00 AM 4.84 40.712 0.459 7.75 4.62 12.29
12/13/2021 8:15:00 AM 4.83 40.694 0.459 7.74 5.03 12.34
12/13/2021 8:30:00 AM 4.83 40.694 0.459 7.73 4157 12.38
12/13/2021 8:45:00 AM 4.83 40.694 0.459 7.7 6.26 12.45
12/13/2021 9:00:00 AM 4.85 40.73 0.458 7.67 4.55 12.54
12/13/2021 9:15:00 AM 4.88 40.784 0.458 7.64 4.81 12.67
12/13/2021 9:30:00 AM 4.93 40.874 0.458 7.31 4.69 12.76
12/13/2021 9:45:00 AM 4.97 40.946 0.458 7.25 4.4 12.88
12/13/2021 10:00:00 AM 5.02 41.036 0.457 7.36 4.32 12.96
12/13/2021 10:15:00 AM 5.08 41.144 0.457 7.38 235.6 13.07
12/13/2021 10:30:00 AM 5.15 41.27 0.456 7.74 4.77 13.14
12/13/2021 10:45:00 AM 5.22 41.396 0.457 7.7 5.81 13.26
12/13/2021 11:00:00 AM 5.32 41.576 0.456 7.65 4.67 13.35
12/13/2021 11:15:00 AM 5.47 41.846 0.456 7.55 4.44 13.46
12/13/2021 11:30:00 AM 5.62 42.116 0.455 7.42 4.54 13.55
12/13/2021 11:45:00 AM 5.77 42.386 0.455 7.2 4.43 13.66
12/13/2021 12:00:00 PM 5.94 42.692 0.454 6.92 4.31 13.7
12/13/2021 12:15:00 PM 6.1 42.98 0.454 6.51 4.3 13.73
12/13/2021 12:30:00 PM 6.28 43.304 0.455 6.14 4.21 13.83
12/13/2021 12:45:00 PM 6.41 43.538 0.454 6.02 4.34 13.82
12/13/2021 1:00:00 PM 6.55 43.79 0.453 6.36 4.46 13.84
12/13/2021 1:15:00 PM 6.65 43.97 0.454 6.89 4.25 13.85
12/13/2021 1:30:00 PM 6.74 44.132 0.455 7.33 4.35 13.88
12/13/2021 1:45:00 PM 6.77 44.186 0.455 7.81 4.32 13.87
12/13/2021 2:00:00 PM 6.79 44.222 0.455 8.29 4.33 13.86
12/13/2021 2:15:00 PM 6.79 44.222 0.379 8.44 4.46 13.86
12/13/2021 2:30:00 PM 6.75 44.15 0.429 8.49 11.5 13.87
12/13/2021 2:45:00 PM 6.64 43.952 0.372 8.51 6.09 13.84
12/13/2021 3:00:00 PM 6.56 43.808 0.38 8.53 4.13 13.78
12/13/2021 3:15:00 PM 6.45 43.61 0.44 8.54 4.39 13.73
12/13/2021 3:30:00 PM 6.24 43.232 0.437 8.53 4.7 13.62
12/13/2021 3:45:00 PM 6.14 43.052 0.43 8.51 4.39 13.56
12/13/2021 4:00:00 PM 5.98 42.764 0.429 8.45 4.09 13.48
12/13/2021 4:15:00 PM 5.87 42.566 0.457 8.39 4.35 13.38
12/13/2021 4:30:00 PM 5.75 42.35 0.445 8.28 5.02 13.3
12/13/2021 4:45:00 PM 5.62 42.116 0.385 8.17 4.22 13.16
12/13/2021 5:00:00 PM 5.49 41.882 0.426 8.03 4.26 13.02
12/13/2021 5:15:00 PM 5.4 41.72 0.459 7.91 4.12 12.92
12/13/2021 5:30:00 PM 5.29 41.522 0.46 7.82 4.43 12.77
12/13/2021 5:45:00 PM 5.2 41.36 0.46 7.71 4.37 12.66
12/13/2021 6:00:00 PM 5.12 41.216 0.46 7.62 4.4 12.56
12/13/2021 6:15:00 PM 5.06 41.108 0.46 7.55 4.37 12.47
12/13/2021 6:30:00 PM 4.99 40.982 0.459 7.5 4.38 12.38
12/13/2021 6:45:00 PM 4.94 40.892 0.46 7.49 4.34 12.34
12/13/2021 7:00:00 PM 4.89 40.802 0.461 7.44 4.78 12.27
12/13/2021 7:15:00 PM 4.85 40.73 0.461 7.39 4.11 12.26
12/13/2021 7:30:00 PM 4.81 40.658 0.46 7.4 4.04 12.24
12/13/2021 7:45:00 PM 4.77 40.586 0.462 7.23 4.22 12.21
12/13/2021 8:00:00 PM 4.74 40.532 0.43 7.2 4.15 12.21
12/13/2021 8:15:00 PM 4.71 40.478 0.452 7.15 4.05 12.17
12/13/2021 8:30:00 PM 4.68 40.424 0.436 7.14 4.82 12.18
12/13/2021 8:45:00 PM 4.66 40.388 0.389 7.14 9.2 12.17
12/13/2021 9:00:00 PM 4.63 40.334 0.46 7.17 3.45 12.19
12/13/2021 9:15:00 PM 4.61 40.298 0.454 7.23 3.74 12.18
12/13/2021 9:30:00 PM 4.59 40.262 0.459 7.24 644.4 12.18
12/13/2021 9:45:00 PM 4.56 40.208 0.463 7.27 4.13 12.17
12/13/2021 10:00:00 PM 4.53 40.154 0.464 7.34 3.82 12.18
12/13/2021 10:15:00 PM 4.5 40.1 0.464 7.37 3.97 12.19
12/13/2021 10:30:00 PM 4.48 40.064 0.431 7.4 3.83 12.21
12/13/2021 10:45:00 PM 4.45 40.01 0.464 7.4 5.55 12.19
12/13/2021 11:00:00 PM 4.43 39.974 0.456 7.39 37.69 12.19
12/13/2021 11:15:00 PM 4.4 39.92 0.44 7.39 3.58 12.2
12/13/2021 11:30:00 PM 4.38 39.884 0.431 7.41 3.56 12.23
12/13/2021 11:45:00 PM 4.37 39.866 0.427 7.4 20.92 12.21
12/14/2021 12:00:00 AM 4.35 39.83 0.465 7.42 3.9 12.23
12/14/2021 12:15:00 AM 4.33 39.794 0.464 7.42 64.65 12.23
12/14/2021 12:30:00 AM 4.32 39.776 0.466 7.44 3.53 12.23
12/14/2021 12:45:00 AM 4.3 39.74 0.466 7.47 3.62 12.24
12/14/2021 1:00:00 AM 4.29 39.722 0.466 7.46 3.48 12.24
12/14/2021 1:15:00 AM 4.27 39.686 0.466 7.46 3.68 12.22
12/14/2021 1:30:00 AM 4.27 39.686 0.463 7.47 3.56 12.27
12/14/2021 1:45:00 AM 4.25 39.65 0.466 7.48 3.55 12.25
12/14/2021 2:00:00 AM 4.24 39.632 0.467 7.51 8.83 12.23
12/14/2021 2:15:00 AM 4.24 39.632 0.467 7.52 3.36 12.15
12/14/2021 2:30:00 AM 4.23 39.614 0.452 7.53 3.46 12.27
12/14/2021 2:45:00 AM 4.22 39.596 0.467 7.56 182.5 12.3
12/14/2021 3:00:00 AM 4.2 39.56 0.467 7.6 20.07 12.3
12/14/2021 3:15:00 AM 4.19 39.542 0.467 7.62 2.36 12.33
12/14/2021 3:30:00 AM 4.2 39.56 0.463 7.61 1.66 12.35
12/14/2021 3:45:00 AM 4.19 39.542 0.467 7.61 1.53 12.35
12/14/2021 4:00:00 AM 4.19 39.542 0.467 7.62 1.13 12.35
12/14/2021 4:15:00 AM 4.18 39.524 0.464 7.63 1.09 12.39
12/14/2021 4:30:00 AM 4.18 39.524 0.467 7.66 1.5 12.38
12/14/2021 4:45:00 AM 4.19 39.542 0.467 7.65 1.39 12.39
12/14/2021 5:00:00 AM 4.19 39.542 0.467 7.66 1.23 12.38
12/14/2021 5:15:00 AM 4.19 39.542 0.467 7.66 1.21 12.33
12/14/2021 5:30:00 AM 4.2 39.56 0.467 7.69 1.22 12.43
12/14/2021 5:45:00 AM 4.2 39.56 0.467 7.71 1.33 12.45
12/14/2021 6:00:00 AM 4.2 39.56 0.467 7.73 1.18 12.48
12/14/2021 6:15:00 AM 4.2 39.56 0.467 7.72 1.1 12.49
12/14/2021 6:30:00 AM 4.2 39.56 0.467 7.75 1.07 12.49
12/14/2021 6:45:00 AM 4.2 39.56 0.467 7.78 1.23 12.51
12/14/2021 7:00:00 AM 4.2 39.56 0.467 7.77 1.11 12.57
12/14/2021 7:15:00 AM 4.19 39.542 0.466 7.8 26.21 12.55
12/14/2021 7:30:00 AM 4.18 39.524 0.466 7.82 1.35 12.56
12/14/2021 7:45:00 AM 4.17 39.506 0.461 7.83 1.09 12.59
12/14/2021 8:00:00 AM 4.17 39.506 0.451 7.82 1.29 12.67
12/14/2021 8:15:00 AM 4.18 39.524 0.424 7.81 1.35 12.73
12/14/2021 8:30:00 AM 4.18 39.524 0.45 7.79 0.75 12.79
12/14/2021 8:45:00 AM 4.2 39.56 0.452 7.74 1.41 12.86
12/14/2021 9:00:00 AM 4.24 39.632 0.453 7.69 0.93 12.93
12/14/2021 9:15:00 AM 4.28 39.704 0.453 7.64 1.03 13.04
12/14/2021 9:30:00 AM 4.35 39.83 0.453 7.58 1.04 13.13
12/14/2021 9:45:00 AM 4.41 39.938 0.458 7.53 1.27 13.2
12/14/2021 10:00:00 AM 4.48 40.064 0.458 7.41 0.97 13.31
12/14/2021 10:15:00 AM 4.55 40.19 0.458 7.3 1.05 13.33
12/14/2021 10:30:00 AM 4.65 40.37 0.458 7.26 0.98 13.46
12/14/2021 10:45:00 AM 4.75 40.55 0.457 7.14 1.61 13.52
12/14/2021 11:00:00 AM 4.87 40.766 0.456 6.99 0.92 13.64
12/14/2021 11:15:00 AM 5.01 41.018 0.456 6.82 1.09 13.76
12/14/2021 11:30:00 AM 5.17 41.306 0.453 6.43 0.91 13.84
12/14/2021 11:45:00 AM 5.35 41.63 0.461 5.97 0.93 13.94
12/14/2021 12:00:00 PM 5.5 41.9 0.461 5.27 1.11 13.94
12/14/2021 12:15:00 PM 5.72 42.296 0.46 4.71 1.21 14.03
12/14/2021 12:30:00 PM 5.92 42.656 0.46 4.91 0.85 14.1
12/14/2021 12:45:00 PM 6.07 42.926 0.46 5.29 1.2 14.14
12/14/2021 1:00:00 PM 6.23 43.214 0.46 5.95 0.88 14.18
12/14/2021 1:15:00 PM 6.35 43.43 0.46 6.81 0.89 14.21
12/14/2021 1:30:00 PM 6.43 43.574 0.46 7.53 1.08 14.17
12/14/2021 1:45:00 PM 6.49 43.682 0.46 8.13 0.99 14.17
12/14/2021 2:00:00 PM 6.53 43.754 0.46 8.39 1.08 14.16
12/14/2021 2:15:00 PM 6.49 43.682 0.46 8.52 1.04 14.16
12/14/2021 2:30:00 PM 6.47 43.646 0.46 8.59 1.2 14.13
12/14/2021 2:45:00 PM 6.37 43.466 0.46 8.59 1.01 14.09
12/14/2021 3:00:00 PM 6.28 43.304 0.46 8.58 1.17 14.08
12/14/2021 3:15:00 PM 6.15 43.07 0.46 8.58 0.82 14.04
12/14/2021 3:30:00 PM 5.97 42.746 0.461 8.58 1.38 13.97
12/14/2021 3:45:00 PM 5.8 42.44 0.461 8.55 0.97 13.91
12/14/2021 4:00:00 PM 5.66 42.188 0.461 8.5 0.99 13.79
12/14/2021 4:15:00 PM 5.58 42.044 0.461 8.44 0.94 13.7
12/14/2021 4:30:00 PM 5.4 41.72 0.462 8.36 1.39 13.6
12/14/2021 4:45:00 PM 5.27 41.486 0.462 8.27 0.99 13.5
12/14/2021 5:00:00 PM 5.15 41.27 0.462 8.14 1.69 13.39
12/14/2021 5:15:00 PM 5.06 41.108 0.463 8.02 1.04 13.26
12/14/2021 5:30:00 PM 4.97 40.946 0.443 7.91 2.2 13.1
12/14/2021 5:45:00 PM 4.86 40.748 0.464 7.8 2.1 13.02
12/14/2021 6:00:00 PM 4.79 40.622 0.464 7.68 1.83 12.93
12/14/2021 6:15:00 PM 4.71 40.478 0.464 7.59 1.35 12.85
12/14/2021 6:30:00 PM 4.65 40.37 0.464 7.51 1.03 12.73
12/14/2021 6:45:00 PM 4.6 40.28 0.465 7.44 1.02 12.67
12/14/2021 7:00:00 PM 4.54 40.172 0.465 7.42 1.05 12.62
12/14/2021 7:15:00 PM 4.5 40.1 0.465 7.39 1.04 12.55
12/14/2021 7:30:00 PM 4.46 40.028 0.466 7.34 1.39 12.54
12/14/2021 7:45:00 PM 4.43 39.974 0.464 7.32 1.35 12.54
12/14/2021 8:00:00 PM 4.38 39.884 0.466 7.3 0.75 12.5
12/14/2021 8:15:00 PM 4.35 39.83 0.466 7.28 0.89 12.5
12/14/2021 8:30:00 PM 4.32 39.776 0.466 7.32 1.28 12.49
12/14/2021 8:45:00 PM 4.28 39.704 0.466 7.29 0.97 12.44
12/14/2021 9:00:00 PM 4.26 39.668 0.466 7.34 0.94 12.45
12/14/2021 9:15:00 PM 4.22 39.596 0.466 7.38 1.22 12.46
12/14/2021 9:30:00 PM 4.2 39.56 0.466 7.38 1.7 12.49
12/14/2021 9:45:00 PM 4.17 39.506 0.46 7.39 1.11 12.48
12/14/2021 10:00:00 PM 4.15 39.47 0.466 7.41 1.24 12.49
12/14/2021 10:15:00 PM 4.13 39.434 0.467 7.42 0.99 12.42
12/14/2021 10:30:00 PM 4.1 39.38 0.467 7.44 0.84 12.46
12/14/2021 10:45:00 PM 4.07 39.326 0.467 7.47 0.88 12.49
12/14/2021 11:00:00 PM 4.05 39.29 0.467 7.48 0.93 12.47
12/14/2021 11:15:00 PM 4.02 39.236 0.467 7.55 1.13 12.49
12/14/2021 11:30:00 PM 3.99 39.182 0.467 7.57 1.06 12.53
12/14/2021 11:45:00 PM 3.97 39.146 0.468 7.59 0.85 12.51
12/15/2021 12:00:00 AM 3.95 39.11 0.467 7.6 1.21 12.47
12/15/2021 12:15:00 AM 3.93 39.074 0.468 7.61 1.12 12.49
12/15/2021 12:30:00 AM 3.9 39.02 0.468 7.62 0.97 12.46
12/15/2021 12:45:00 AM 3.89 39.002 0.468 7.62 1.06 12.5
12/15/2021 1:00:00 AM 3.88 38.984 0.46 7.64 1.03 12.54
12/15/2021 1:15:00 AM 3.86 38.948 0.468 7.51 0.84 12.55
12/15/2021 1:30:00 AM 3.85 38.93 0.468 7.48 0.93 12.52
12/15/2021 1:45:00 AM 3.82 38.876 0.468 7.46 1.12 12.53
12/15/2021 2:00:00 AM 3.81 38.858 0.468 7.46 0.9 12.53
12/15/2021 2:15:00 AM 3.8 38.84 0.468 7.45 1.08 12.55
12/15/2021 2:30:00 AM 3.79 38.822 0.468 7.47 1.13 12.55
12/15/2021 2:45:00 AM 3.77 38.786 0.468 7.46 1.32 12.56
12/15/2021 3:00:00 AM 3.75 38.75 0.468 7.47 2.12 12.6
12/15/2021 3:15:00 AM 3.76 38.768 0.468 7.45 1.49 12.6
12/15/2021 3:30:00 AM 3.75 38.75 0.468 7.44 1.22 12.61
12/15/2021 3:45:00 AM 3.75 38.75 0.468 7.42 0.89 12.64
12/15/2021 4:00:00 AM 3.74 38.732 0.468 7.42 1.01 12.65
12/15/2021 4:15:00 AM 3.74 38.732 0.468 7.43 5.13 12.6
12/15/2021 4:30:00 AM 3.72 38.696 0.468 7.46 1.28 12.56
12/15/2021 4:45:00 AM 3.73 38.714 0.468 7.47 1.05 12.64
12/15/2021 5:00:00 AM 3.72 38.696 0.468 7.43 0.91 12.66
12/15/2021 5:15:00 AM 3.74 38.732 0.469 7.4 1.11 12.64
12/15/2021 5:30:00 AM 3.75 38.75 0.468 7.37 1.15 12.66
12/15/2021 5:45:00 AM 3.76 38.768 0.468 7.16 2.12 12.72
12/15/2021 6:00:00 AM 3.77 38.786 0.468 7.15 1.51 12.59
12/15/2021 6:15:00 AM 3.79 38.822 0.468 7.1 1.16 12.7
12/15/2021 6:30:00 AM 3.82 38.876 0.468 7.09 1.05 12.74
12/15/2021 6:45:00 AM 3.85 38.93 0.468 7.1 1.44 12.77
12/15/2021 7:00:00 AM 3.88 38.984 0.468 7.25 1.22 12.73
12/15/2021 7:15:00 AM 3.9 39.02 0.467 7.24 1.03 12.74
12/15/2021 7:30:00 AM 3.93 39.074 0.447 7.3 0.91 12.79
12/15/2021 7:45:00 AM 3.96 39.128 0.464 7.24 0.88 12.82
12/15/2021 8:00:00 AM 4 39.2 0.467 7.24 1.24 12.77
12/15/2021 8:15:00 AM 4.05 39.29 0.467 6.95 0.97 12.87
12/15/2021 8:30:00 AM 4.08 39.344 0.464 7.24 0.9 12.91
12/15/2021 8:45:00 AM 4.14 39.452 0.466 7.29 1.05 12.96
12/15/2021 9:00:00 AM 4.21 39.578 0.466 7.29 1.07 13.04
12/15/2021 9:15:00 AM 4.28 39.704 0.462 7.24 0.86 13.16
12/15/2021 9:30:00 AM 4.34 39.812 0.463 7.18 1.37 13.32
12/15/2021 9:45:00 AM 4.42 39.956 0.462 6.76 1.09 13.41
12/15/2021 10:00:00 AM 4.49 40.082 0.462 6.87 1.18 13.49
12/15/2021 10:15:00 AM 4.57 40.226 0.461 6.92 0.86 13.59
12/15/2021 10:30:00 AM 4.65 40.37 0.461 6.83 1.03 13.79
12/15/2021 10:45:00 AM 4.73 40.514 0.461 6.73 0.94 13.89
12/15/2021 11:00:00 AM 4.83 40.694 0.46 6.63 1.22 13.95
12/15/2021 11:15:00 AM 4.91 40.838 0.46 6.5 0.98 14.07
12/15/2021 11:30:00 AM 4.99 40.982 0.459 6.34 0.95 14.15
12/15/2021 11:45:00 AM 5.05 41.09 0.459 6.1 0.92 14.22
12/15/2021 12:00:00 PM 5.12 41.216 0.458 5.51 1.38 14.23
12/15/2021 12:15:00 PM 5.24 41.432 0.46 4.99 1.35 14.3
12/15/2021 12:30:00 PM 5.37 41.666 0.449 4.44 1.13 14.33
12/15/2021 12:45:00 PM 5.53 41.954 0.457 4.54 1.22 14.38
12/15/2021 1:00:00 PM 5.65 42.17 0.456 4.42 1.23 14.35
12/15/2021 1:15:00 PM 5.69 42.242 0.46 4.47 1.12 14.41
12/15/2021 1:30:00 PM 5.72 42.296 0.427 4.45 0.9 14.33
12/15/2021 1:45:00 PM 5.76 42.368 0.439 4.29 1.26 14.36
12/15/2021 2:00:00 PM 5.78 42.404 0.423 4.09 1.02 14.34
12/15/2021 2:15:00 PM 5.73 42.314 0.453 4 1.03 14.33
12/15/2021 2:30:00 PM 5.69 42.242 0.442 3.97 0.96 14.29
12/15/2021 2:45:00 PM 5.65 42.17 0.452 3.67 1.04 14.25
12/15/2021 3:00:00 PM 5.61 42.098 0.456 3.09 0.99 14.22
12/15/2021 3:15:00 PM 5.59 42.062 0.454 2.86 1.33 14.12
12/15/2021 3:30:00 PM 5.52 41.936 0.455 2.99 1.01 14.11
12/15/2021 3:45:00 PM 5.45 41.81 0.449 3.07 0.95 14.05
12/15/2021 4:00:00 PM 5.4 41.72 0.455 3.36 1.09 13.9
12/15/2021 4:15:00 PM 5.37 41.666 0.458 3.52 1 13.76
12/15/2021 4:30:00 PM 5.27 41.486 0.456 3.73 1.8 13.67
12/15/2021 4:45:00 PM 5.23 41.414 0.461 3.95 1.3 13.5
12/15/2021 5:00:00 PM 5.18 41.324 0.461 4.05 1.01 13.4
12/15/2021 5:15:00 PM 5.12 41.216 0.462 4.05 1.03 13.3
12/15/2021 5:30:00 PM 5.06 41.108 0.462 3.95 0.97 13.19
12/15/2021 5:45:00 PM 5.03 41.054 0.462 4.21 0.97 13.04
12/15/2021 6:00:00 PM 4.99 40.982 0.462 3.76 0.79 12.92
12/15/2021 6:15:00 PM 4.97 40.946 0.463 3.78 1.82 12.76
12/15/2021 6:30:00 PM 4.95 40.91 0.463 3.68 1.22 12.69
12/15/2021 6:45:00 PM 4.92 40.856 0.463 3.69 1.03 12.67
12/15/2021 7:00:00 PM 4.9 40.82 0.463 3.59 1.47 12.62
12/15/2021 7:15:00 PM 4.88 40.784 0.463 3.62 1.28 12.59
12/15/2021 7:30:00 PM 4.86 40.748 0.463 3.61 1.36 12.53
12/15/2021 7:45:00 PM 4.85 40.73 0.463 3.59 0.96 12.47
12/15/2021 8:00:00 PM 4.83 40.694 0.463 3.69 0.85 12.47
12/15/2021 8:15:00 PM 4.82 40.676 0.463 3.67 0.97 12.45
12/15/2021 8:30:00 PM 4.81 40.658 0.463 3.67 1.03 12.4
12/15/2021 8:45:00 PM 4.79 40.622 0.463 3.64 1.26 12.4
12/15/2021 9:00:00 PM 4.78 40.604 0.463 3.65 1.13 12.44
12/15/2021 9:15:00 PM 4.78 40.604 0.463 3.59 1.13 12.41
12/15/2021 9:30:00 PM 4.77 40.586 0.463 3.54 1.27 12.38
12/15/2021 9:45:00 PM 4.76 40.568 0.463 3.53 1.06 12.38
12/15/2021 10:00:00 PM 4.76 40.568 0.463 3.49 0.82 12.38
12/15/2021 10:15:00 PM 4.75 40.55 0.463 3.47 1.46 12.34
12/15/2021 10:30:00 PM 4.74 40.532 0.463 3.46 0.96 12.31
12/15/2021 10:45:00 PM 4.72 40.496 0.463 3.41 0.89 12.27
12/15/2021 11:00:00 PM 4.71 40.478 0.463 3.54 1.14 12.3
12/15/2021 11:15:00 PM 4.7 40.46 0.463 3.61 2.43 12.36
12/15/2021 11:30:00 PM 4.69 40.442 0.463 3.66 1.04 12.35
12/15/2021 11:45:00 PM 4.68 40.424 0.463 3.68 1.49 12.34
12/16/2021 12:00:00 AM 4.66 40.388 0.463 3.84 0.98 12.34
12/16/2021 12:15:00 AM 4.64 40.352 0.463 4 1.16 12.3
12/16/2021 12:30:00 AM 4.62 40.316 0.463 4.12 0.83 12.37
12/16/2021 12:45:00 AM 4.6 40.28 0.462 4.15 0.92 12.32
12/16/2021 1:00:00 AM 4.59 40.262 0.463 4.02 1.07 12.29
12/16/2021 1:15:00 AM 4.59 40.262 0.463 3.99 0.99 12.35
12/16/2021 1:30:00 AM 4.58 40.244 0.463 3.99 0.99 12.35
12/16/2021 1:45:00 AM 4.58 40.244 0.463 3.93 1.07 12.32
12/16/2021 2:00:00 AM 4.58 40.244 0.454 3.94 1.7 12.21
12/16/2021 2:15:00 AM 4.58 40.244 0.396 3.99 0.9 12.32
12/16/2021 2:30:00 AM 4.58 40.244 0.463 4.04 0.93 12.36
12/16/2021 2:45:00 AM 4.58 40.244 0.462 4.1 1.25 12.33
12/16/2021 3:00:00 AM 4.58 40.244 0.462 4.18 0.95 12.29
12/16/2021 3:15:00 AM 4.59 40.262 0.462 4.28 1.05 12.31
12/16/2021 3:30:00 AM 4.59 40.262 0.462 4.29 1.28 12.28
12/16/2021 3:45:00 AM 4.6 40.28 0.462 4.28 1.14 12.29
12/16/2021 4:00:00 AM 4.6 40.28 0.462 4.35 1.14 12.25
12/16/2021 4:15:00 AM 4.61 40.298 0.462 4.38 1.09 12.32
12/16/2021 4:30:00 AM 4.62 40.316 0.461 4.38 0.85 12.31
12/16/2021 4:45:00 AM 4.64 40.352 0.462 4.43 1.52 12.33
12/16/2021 5:00:00 AM 4.66 40.388 0.462 4.34 1.15 12.31
12/16/2021 5:15:00 AM 4.67 40.406 0.462 4.42 0.92 12.33
12/16/2021 5:30:00 AM 4.69 40.442 0.462 4.41 0.91 12.34
12/16/2021 5:45:00 AM 4.7 40.46 0.462 4.49 0.8 12.34
12/16/2021 6:00:00 AM 4.73 40.514 0.462 4.55 1.15 12.39
12/16/2021 6:15:00 AM 4.74 40.532 0.458 4.84 1.34 12.39
12/16/2021 6:30:00 AM 4.75 40.55 0.461 4.96 0.81 12.38
12/16/2021 6:45:00 AM 4.75 40.55 0.459 5.13 0.82 12.36
12/16/2021 7:00:00 AM 4.76 40.568 0.461 5.32 0.92 12.38
12/16/2021 7:15:00 AM 4.75 40.55 0.458 5.44 0.93 12.37
12/16/2021 7:30:00 AM 4.77 40.586 0.448 5.52 1.06 12.41
12/16/2021 7:45:00 AM 4.8 40.64 0.461 5.46 1.26 12.43
12/16/2021 8:00:00 AM 4.84 40.712 0.454 5.38 1.38 12.49
12/16/2021 8:15:00 AM 4.87 40.766 0.461 5.24 1.27 12.5
12/16/2021 8:30:00 AM 4.91 40.838 0.46 5.25 1.25 12.51
12/16/2021 8:45:00 AM 4.95 40.91 0.445 5.21 1.15 12.58
12/16/2021 9:00:00 AM 4.99 40.982 0.416 5.18 1.13 12.69
12/16/2021 9:15:00 AM 5.07 41.126 0.46 5.07 1.43 12.84
12/16/2021 9:30:00 AM 5.15 41.27 0.46 5.04 1.25 12.96
12/16/2021 9:45:00 AM 5.24 41.432 0.459 4.96 0.8 13.04
12/16/2021 10:00:00 AM 5.3 41.54 0.459 4.89 1.29 13.19
12/16/2021 10:15:00 AM 5.35 41.63 0.459 4.82 1.17 13.31
12/16/2021 10:30:00 AM 5.39 41.702 0.459 4.81 1.15 13.43
12/16/2021 10:45:00 AM 5.47 41.846 0.458 4.55 1.05 13.51
12/16/2021 11:00:00 AM 5.59 42.062 0.458 4.3 1.48 13.55
12/16/2021 11:15:00 AM 5.72 42.296 0.458 4.08 1.41 13.7
12/16/2021 11:30:00 AM 5.86 42.548 0.458 3.97 1.7 13.75
12/16/2021 11:45:00 AM 6.03 42.854 0.457 3.69 1.19 13.77
12/16/2021 12:00:00 PM 6.2 43.16 0.457 3.61 1.01 13.83
12/16/2021 12:15:00 PM 6.4 43.52 0.456 3.82 1.84 13.87
12/16/2021 12:30:00 PM 6.6 43.88 0.456 4.33 1.38 13.96
12/16/2021 12:45:00 PM 6.79 44.222 0.456 5.06 1.24 13.97
12/16/2021 1:00:00 PM 6.98 44.564 0.456 5.88 1.18 14.01
12/16/2021 1:15:00 PM 7.14 44.852 0.455 6.53 1.25 14.06
12/16/2021 1:30:00 PM 7.24 45.032 0.455 7.09 1.03 14.05
12/16/2021 1:45:00 PM 7.32 45.176 0.455 7.4 1.14 14.07
12/16/2021 2:00:00 PM 7.35 45.23 0.455 7.7 1.43 14.03
12/16/2021 2:15:00 PM 7.34 45.212 0.455 7.94 2 14.03
12/16/2021 2:30:00 PM 7.33 45.194 0.455 8.02 1.21 13.98
12/16/2021 2:45:00 PM 7.3 45.14 0.455 8.01 0.97 13.96
12/16/2021 3:00:00 PM 7.26 45.068 0.456 8.07 1.05 13.87
12/16/2021 3:15:00 PM 7.11 44.798 0.456 8.15 0.99 13.83
12/16/2021 3:30:00 PM 7.04 44.672 0.456 8.17 1.31 13.71
12/16/2021 3:45:00 PM 6.96 44.528 0.455 8.13 1.31 13.65
12/16/2021 4:00:00 PM 6.86 44.348 0.456 8.05 1.46 13.56
12/16/2021 4:15:00 PM 6.75 44.15 0.442 7.96 1.11 13.41
12/16/2021 4:30:00 PM 6.67 44.006 0.425 7.85 1.55 13.28
12/16/2021 4:45:00 PM 6.57 43.826 0.457 7.65 1.14 13.17
12/16/2021 5:00:00 PM 6.49 43.682 0.449 7.46 1.48 13.05
12/16/2021 5:15:00 PM 6.43 43.574 0.458 7.29 2.05 12.87
12/16/2021 5:30:00 PM 6.36 43.448 0.458 7.19 1.34 12.72
12/16/2021 5:45:00 PM 6.32 43.376 0.458 7.11 1.08 12.54
12/16/2021 6:00:00 PM 6.27 43.286 0.458 6.97 1.13 12.39
12/16/2021 6:15:00 PM 6.24 43.232 0.459 6.8 1.31 12.22
12/16/2021 6:30:00 PM 6.21 43.178 0.459 6.73 1.38 12.11
12/16/2021 6:45:00 PM 6.19 43.142 0.459 6.66 1.62 12.02
12/16/2021 7:00:00 PM 6.18 43.124 0.46 6.59 1.1 11.93
12/16/2021 7:15:00 PM 6.18 43.124 0.46 6.46 2.77 11.88
12/16/2021 7:30:00 PM 6.17 43.106 0.46 6.38 1.57 11.83
12/16/2021 7:45:00 PM 6.18 43.124 0.46 6.34 1.15 11.84
12/16/2021 8:00:00 PM 6.2 43.16 0.46 6.27 1.23 11.71
12/16/2021 8:15:00 PM 6.2 43.16 0.46 6.31 1.33 11.74
12/16/2021 8:30:00 PM 6.2 43.16 0.461 6.37 1.36 11.72
12/16/2021 8:45:00 PM 6.19 43.142 0.462 6.38 1.09 11.76
12/16/2021 9:00:00 PM 6.2 43.16 0.461 6.38 4.69 11.66
12/16/2021 9:15:00 PM 6.2 43.16 0.461 6.33 1.01 11.71
12/16/2021 9:30:00 PM 6.22 43.196 0.381 6.3 1.03 11.66
12/16/2021 9:45:00 PM 6.24 43.232 0.461 6.23 1.22 11.68
12/16/2021 10:00:00 PM 6.24 43.232 0.462 6.21 1.32 11.62
12/16/2021 10:15:00 PM 6.24 43.232 0.462 6.22 2.61 11.6
12/16/2021 10:30:00 PM 6.25 43.25 0.462 6.24 1.01 11.56
12/16/2021 10:45:00 PM 6.26 43.268 0.463 6.23 1.09 11.61
12/16/2021 11:00:00 PM 6.25 43.25 0.463 6.29 1.59 11.58
12/16/2021 11:15:00 PM 6.25 43.25 0.463 6.3 0.92 11.54
12/16/2021 11:30:00 PM 6.25 43.25 0.463 6.29 1.06 11.59
12/16/2021 11:45:00 PM 6.25 43.25 0.463 6.34 1.16 11.53
12/17/2021 12:00:00 AM 6.27 43.286 0.407 6.3 0.97 11.55
12/17/2021 12:15:00 AM 6.29 43.322 0.459 6.24 1.47 11.46
12/17/2021 12:30:00 AM 6.29 43.322 0.463 6.24 1.47 11.51
12/17/2021 12:45:00 AM 6.28 43.304 0.464 6.29 1.51 11.56
12/17/2021 1:00:00 AM 6.29 43.322 0.466 6.33 1.42 11.52
12/17/2021 1:15:00 AM 6.32 43.376 0.464 6.24 1.65 11.46
12/17/2021 1:30:00 AM 6.34 43.412 0.465 6.01 1.53 11.49
12/17/2021 1:45:00 AM 6.35 43.43 0.465 6.05 1.35 11.4
12/17/2021 2:00:00 AM 6.35 43.43 0.465 6.09 3.17 11.37
12/17/2021 2:15:00 AM 6.35 43.43 0.465 6.21 1.95 11.48
12/17/2021 2:30:00 AM 6.34 43.412 0.465 6.26 1.43 11.45
12/17/2021 2:45:00 AM 6.33 43.394 0.465 6.34 1.25 11.34
12/17/2021 3:00:00 AM 6.31 43.358 0.466 6.4 1.28 11.46
12/17/2021 3:15:00 AM 6.29 43.322 0.465 6.4 9.38 11.48
12/17/2021 3:30:00 AM 6.28 43.304 0.38 6.36 1.11 11.5
12/17/2021 3:45:00 AM 6.28 43.304 0.465 6.24 1.22 11.46
12/17/2021 4:00:00 AM 6.28 43.304 0.465 6.22 1.7 11.51
12/17/2021 4:15:00 AM 6.28 43.304 0.466 6.2 1.12 11.42
12/17/2021 4:30:00 AM 6.28 43.304 0.466 6.16 1.38 11.52
12/17/2021 4:45:00 AM 6.28 43.304 0.466 6.06 1.27 11.54
12/17/2021 5:00:00 AM 6.29 43.322 0.466 6.17 1.43 11.54
12/17/2021 5:15:00 AM 6.3 43.34 0.466 6.17 1.65 11.54
12/17/2021 5:30:00 AM 6.3 43.34 0.466 6.14 2.66 11.5
12/17/2021 5:45:00 AM 6.31 43.358 0.466 6.15 1.32 11.54
12/17/2021 6:00:00 AM 6.31 43.358 0.467 6.2 1.14 11.56
12/17/2021 6:15:00 AM 6.31 43.358 0.466 6.23 1.08 11.59
12/17/2021 6:30:00 AM 6.31 43.358 0.467 6.33 1.58 11.56
12/17/2021 6:45:00 AM 6.3 43.34 0.466 6.48 1.22 11.6
12/17/2021 7:00:00 AM 6.3 43.34 0.469 6.59 1.51 11.52
12/17/2021 7:15:00 AM 6.3 43.34 0.464 6.69 1.2 11.64
12/17/2021 7:30:00 AM 6.3 43.34 0.463 6.74 0.96 11.56
12/17/2021 7:45:00 AM 6.3 43.34 0.464 6.75 1.25 11.64
12/17/2021 8:00:00 AM 6.3 43.34 0.464 6.74 1.14 11.7
12/17/2021 8:15:00 AM 6.33 43.394 0.464 6.58 1.04 11.73
12/17/2021 8:30:00 AM 6.36 43.448 0.464 6.48 1.23 11.83
12/17/2021 8:45:00 AM 6.4 43.52 0.465 6.45 1.52 11.93
12/17/2021 9:00:00 AM 6.43 43.574 0.464 6.46 1.18 12.06
12/17/2021 9:15:00 AM 6.49 43.682 0.463 6.42 1.37 12.17
12/17/2021 9:30:00 AM 6.56 43.808 0.463 6.37 1.41 12.3
12/17/2021 9:45:00 AM 6.63 43.934 0.462 6.41 1.56 12.46
12/17/2021 10:00:00 AM 6.69 44.042 0.464 6.4 1.54 12.59
12/17/2021 10:15:00 AM 6.75 44.15 0.463 6.42 1.54 12.74
12/17/2021 10:30:00 AM 6.82 44.276 0.463 6.41 1.91 12.89
12/17/2021 10:45:00 AM 6.92 44.456 0.462 6.35 1.85 13
12/17/2021 11:00:00 AM 6.98 44.564 0.462 6.24 1.94 13.16
12/17/2021 11:15:00 AM 7.08 44.744 0.461 6.21 1.69 13.24
12/17/2021 11:30:00 AM 7.22 44.996 0.461 6.15 1.89 13.35
12/17/2021 11:45:00 AM 7.35 45.23 0.461 6.12 1.91 13.38
12/17/2021 12:00:00 PM 7.44 45.392 0.461 6.24 1.71 13.47
12/17/2021 12:15:00 PM 7.52 45.536 0.461 6.27 1.28 13.54
12/17/2021 12:30:00 PM 7.62 45.716 0.461 6.34 2.23 13.63
12/17/2021 12:45:00 PM 7.69 45.842 0.46 6.36 1.84 13.67
12/17/2021 1:00:00 PM 7.74 45.932 0.46 6.46 2.51 13.71
12/17/2021 1:15:00 PM 7.79 46.022 0.46 6.49 1.66 13.63
12/17/2021 1:30:00 PM 7.86 46.148 0.46 6.46 1.69 13.75
12/17/2021 1:45:00 PM 7.87 46.166 0.46 6.7 1.43 13.68
12/17/2021 2:00:00 PM 7.88 46.184 0.46 6.71 1.98 13.71
12/17/2021 2:15:00 PM 7.89 46.202 0.46 6.74 1.63 13.66
12/17/2021 2:30:00 PM 7.84 46.112 0.46 6.95 1.56 13.72
12/17/2021 2:45:00 PM 7.82 46.076 0.46 7.01 1.38 13.68
12/17/2021 3:00:00 PM 7.77 45.986 0.459 7.05 1.57 13.62
12/17/2021 3:15:00 PM 7.72 45.896 0.46 7.15 1.7 13.47
12/17/2021 3:30:00 PM 7.64 45.752 0.46 7.13 1.52 13.38
12/17/2021 3:45:00 PM 7.56 45.608 0.46 7.15 1.4 13.35
12/17/2021 4:00:00 PM 7.49 45.482 0.46 7.11 1.32 13.16
12/17/2021 4:15:00 PM 7.42 45.356 0.46 7.08 1.56 13.1
12/17/2021 4:30:00 PM 7.35 45.23 0.46 7.07 1.86 12.89
12/17/2021 4:45:00 PM 7.29 45.122 0.46 7.1 1.87 12.69
12/17/2021 5:00:00 PM 7.24 45.032 0.46 7.03 1.39 12.52
12/17/2021 5:15:00 PM 7.17 44.906 0.461 7 1.76 12.39
12/17/2021 5:30:00 PM 7.12 44.816 0.461 6.99 1.3 12.19
12/17/2021 5:45:00 PM 7.09 44.762 0.462 6.98 3.29 11.82
12/17/2021 6:00:00 PM 7.06 44.708 0.462 6.98 1.33 11.89
12/17/2021 6:15:00 PM 7.02 44.636 0.462 6.97 1.49 11.84
12/17/2021 6:30:00 PM 6.99 44.582 0.462 6.95 1.4 11.76
12/17/2021 6:45:00 PM 6.97 44.546 0.462 6.97 1.36 11.64
12/17/2021 7:00:00 PM 6.94 44.492 0.463 6.97 1.68 11.59
12/17/2021 7:15:00 PM 6.91 44.438 0.46 6.97 1.44 11.54
12/17/2021 7:30:00 PM 6.89 44.402 0.463 6.99 1.26 11.44
12/17/2021 7:45:00 PM 6.88 44.384 0.463 6.99 1.28 11.42
12/17/2021 8:00:00 PM 6.86 44.348 0.463 7 1.89 11.4
12/17/2021 8:15:00 PM 6.85 44.33 0.463 6.97 1.49 11.39
12/17/2021 8:30:00 PM 6.84 44.312 0.462 6.97 1.02 11.35
12/17/2021 8:45:00 PM 6.83 44.294 0.464 6.96 1.14 11.36
12/17/2021 9:00:00 PM 6.82 44.276 0.464 6.96 1.33 11.32
12/17/2021 9:15:00 PM 6.82 44.276 0.464 6.92 1.48 11.29
12/17/2021 9:30:00 PM 6.82 44.276 0.465 6.9 1.32 11.17
12/17/2021 9:45:00 PM 6.82 44.276 0.465 6.88 1.04 6.42
12/17/2021 10:00:00 PM 6.84 44.312 0.465 6.85 1.11 5.48
12/17/2021 10:15:00 PM 6.85 44.33 0.466 6.84 1.14 5.08
12/17/2021 10:30:00 PM 6.87 44.366 0.466 6.82 0.86 4.96
12/17/2021 10:45:00 PM 6.89 44.402 0.454 6.8 2.54 4.32
12/17/2021 11:00:00 PM 6.91 44.438 0.466 6.79 0.88 4.56
12/17/2021 11:15:00 PM 6.93 44.474 0.466 6.78 1.39 4.71
12/17/2021 11:30:00 PM 6.94 44.492 0.466 6.77 1.22 4.73
12/17/2021 11:45:00 PM 6.95 44.51 0.467 6.77 1.41 4.57
12/18/2021 12:00:00 AM 6.96 44.528 0.466 6.79 0.99 5.27
12/18/2021 12:15:00 AM 6.96 44.528 0.465 6.8 0.92 4.77
12/18/2021 12:30:00 AM 6.97 44.546 0.465 6.8 1.3 4.44
12/18/2021 12:45:00 AM 6.98 44.564 0.464 6.79 0.98 5.09
12/18/2021 1:00:00 AM 6.98 44.564 0.466 6.8 0.98 4.78
12/18/2021 1:15:00 AM 6.98 44.564 0.459 6.81 1.05 5.21
12/18/2021 1:30:00 AM 6.98 44.564 0.466 6.8 1.41 4.78
12/18/2021 1:45:00 AM 6.98 44.564 0.466 6.8 1.54 4.58
12/18/2021 2:00:00 AM 6.98 44.564 0.466 6.81 1.33 5.03
12/18/2021 2:15:00 AM 6.98 44.564 0.466 6.8 1.32 4.95
12/18/2021 2:30:00 AM 6.98 44.564 0.417 6.81 1.31 6.19
12/18/2021 2:45:00 AM 6.99 44.582 0.467 6.72 1.14 6.25
12/18/2021 3:00:00 AM 6.99 44.582 0.467 6.7 1.37 6.4
12/18/2021 3:15:00 AM 6.99 44.582 0.467 6.68 1.39 4.92
12/18/2021 3:30:00 AM 7 44.6 0.467 6.69 1.49 4.57
12/18/2021 3:45:00 AM 7 44.6 0.465 6.7 1.79 4.55
12/18/2021 4:00:00 AM 6.99 44.582 0.468 6.71 1.72 4.4
12/18/2021 4:15:00 AM 6.99 44.582 0.468 6.71 1.74 4.81
12/18/2021 4:30:00 AM 6.98 44.564 0.467 6.75 1.84 5.46
12/18/2021 4:45:00 AM 6.98 44.564 0.467 6.77 771.8 4.84
12/18/2021 5:00:00 AM 6.98 44.564 0.443 6.78 4157 4.44
12/18/2021 5:15:00 AM 6.98 44.564 0.464 6.77 3.75 4.53
12/18/2021 5:30:00 AM 6.97 44.546 0.463 6.75 1.23 4.51
12/18/2021 5:45:00 AM 6.97 44.546 0.455 6.78 1.33 5.03
12/18/2021 6:00:00 AM 6.97 44.546 0.465 6.78 1.51 5.11
12/18/2021 6:15:00 AM 6.96 44.528 0.464 6.77 1.5 5.13
12/18/2021 6:30:00 AM 6.96 44.528 0.463 6.79 2.02 5.05
12/18/2021 6:45:00 AM 6.96 44.528 0.463 6.79 1.29 5.77
12/18/2021 7:00:00 AM 6.97 44.546 0.465 6.8 1.44 4.86
12/18/2021 7:15:00 AM 6.98 44.564 0.461 6.8 3.61 4.99
12/18/2021 7:30:00 AM 7 44.6 0.373 6.8 1.81 5.08
12/18/2021 7:45:00 AM 7.01 44.618 0.397 6.81 2.51 4.69
12/18/2021 8:00:00 AM 7.02 44.636 0.393 6.81 1.89 4.46
12/18/2021 8:15:00 AM 7.04 44.672 0.396 6.81 1.97 4.37
12/18/2021 8:30:00 AM 7.06 44.708 0.379 6.81 1.9 3.83
12/18/2021 8:45:00 AM 7.09 44.762 0.381 6.81 1.58 4.64
12/18/2021 9:00:00 AM 7.11 44.798 0.384 6.82 1.6 5.26
12/18/2021 9:15:00 AM 7.13 44.834 0.435 6.81 1.74 4.78
12/18/2021 9:30:00 AM 7.16 44.888 0.41 6.82 1.5 6.04
12/18/2021 9:45:00 AM 7.18 44.924 0.416 6.83 1.39 5.8
12/18/2021 10:00:00 AM 7.21 44.978 0.396 6.82 1.73 7
12/18/2021 10:15:00 AM 7.24 45.032 0.382 6.8 1.79 5.36
12/18/2021 10:30:00 AM 7.27 45.086 0.404 6.8 2.05 4.2
12/18/2021 10:45:00 AM 7.28 45.104 0.38 6.8 1.6 4.31
12/18/2021 11:00:00 AM 7.3 45.14 0.397 6.8 1.85 4.53
12/18/2021 11:15:00 AM 7.32 45.176 0.446 6.78 1.47 4.29
12/18/2021 11:30:00 AM 7.34 45.212 0.431 6.77 1.55 4.85
12/18/2021 11:45:00 AM 7.36 45.248 0.429 6.76 1.27 4.49
12/18/2021 12:00:00 PM 7.4 45.32 0.442 6.73 1.58 5.25
12/18/2021 12:15:00 PM 7.42 45.356 0.438 6.7 2.38 5.76
12/18/2021 12:30:00 PM 7.42 45.356 0.43 6.78 1.4 4.7
12/18/2021 12:45:00 PM 7.43 45.374 0.445 6.67 1.54 4.84
12/18/2021 1:00:00 PM 7.46 45.428 0.439 6.71 1.42 5.18
12/18/2021 1:15:00 PM 7.53 45.554 0.429 6.66 1.54 5.09
12/18/2021 1:30:00 PM 7.56 45.608 0.428 6.65 1.78 5.19
12/18/2021 1:45:00 PM 7.56 45.608 0.425 6.62 1.46 5.92
12/18/2021 2:00:00 PM 7.59 45.662 0.424 6.62 1.51 5.98
12/18/2021 2:15:00 PM 7.64 45.752 0.423 6.54 1.42 6.41
12/18/2021 2:30:00 PM 7.65 45.77 0.398 6.54 1.61 5.97
12/18/2021 2:45:00 PM 7.67 45.806 0.446 6.48 1.39 4.97
12/18/2021 3:00:00 PM 7.7 45.86 0.429 6.45 1.7 4.75
12/18/2021 3:15:00 PM 7.72 45.896 0.38 6.39 1.4 4.76
12/18/2021 3:30:00 PM 7.7 45.86 0.381 6.48 1.32 4.89
12/18/2021 3:45:00 PM 7.7 45.86 0.386 6.46 1.23 4.91
12/18/2021 4:00:00 PM 7.68 45.824 0.395 6.48 1.38 4.62
12/18/2021 4:15:00 PM 7.66 45.788 0.377 6.48 1.24 4.31
12/18/2021 4:30:00 PM 7.62 45.716 0.457 6.49 1.27 3.95
12/18/2021 4:45:00 PM 7.59 45.662 0.391 6.54 1.27 3.94
12/18/2021 5:00:00 PM 7.55 45.59 0.436 6.54 1.42 3.77
12/18/2021 5:15:00 PM 7.53 45.554 0.461 6.5 1.28 7.25
12/18/2021 5:30:00 PM 7.5 45.5 0.461 6.51 1.29 8.43
12/18/2021 5:45:00 PM 7.48 45.464 0.463 6.5 2.88 8.15
12/18/2021 6:00:00 PM 7.45 45.41 0.463 6.51 1.39 8.21
12/18/2021 6:15:00 PM 7.42 45.356 0.463 6.55 1.39 8.41
12/18/2021 6:30:00 PM 7.4 45.32 0.463 6.56 1.53 8.11
12/18/2021 6:45:00 PM 7.39 45.302 0.458 6.56 1.69 7.7
12/18/2021 7:00:00 PM 7.37 45.266 0.463 6.59 1.57 7.19
12/18/2021 7:15:00 PM 7.34 45.212 0.464 6.64 1.49 7.69
12/18/2021 7:30:00 PM 7.32 45.176 0.463 6.65 1.45 7.64
12/18/2021 7:45:00 PM 7.31 45.158 0.464 6.63 1.4 7.71
12/18/2021 8:00:00 PM 7.3 45.14 0.46 6.59 0.92 6.84
12/18/2021 8:15:00 PM 7.29 45.122 0.464 6.59 0.75 6.76
12/18/2021 8:30:00 PM 7.29 45.122 0.461 6.56 1.08 7.17
12/18/2021 8:45:00 PM 7.29 45.122 0.464 6.56 1.1 7.11
12/18/2021 9:00:00 PM 7.3 45.14 0.444 6.55 0.82 6.88
12/18/2021 9:15:00 PM 7.3 45.14 0.464 6.53 1.17 7.28
12/18/2021 9:30:00 PM 7.3 45.14 0.464 6.56 0.91 7.4
12/18/2021 9:45:00 PM 7.3 45.14 0.464 6.57 0.83 7.31
12/18/2021 10:00:00 PM 7.31 45.158 0.464 6.57 0.97 7.63
12/18/2021 10:15:00 PM 7.31 45.158 0.464 6.54 1.09 8.1
12/18/2021 10:30:00 PM 7.31 45.158 0.464 6.55 0.98 8.15
12/18/2021 10:45:00 PM 7.31 45.158 0.464 6.57 1.3 8.06
12/18/2021 11:00:00 PM 7.31 45.158 0.43 6.57 1.22 7.99
12/18/2021 11:15:00 PM 7.31 45.158 0.464 6.58 1.01 7.92
12/18/2021 11:30:00 PM 7.31 45.158 0.464 6.57 1.33 8.29
12/18/2021 11:45:00 PM 7.32 45.176 0.464 6.59 0.85 8.33
12/19/2021 12:00:00 AM 7.31 45.158 0.464 6.59 1.18 7.68
12/19/2021 12:15:00 AM 7.31 45.158 0.422 6.6 1.1 8.23
12/19/2021 12:30:00 AM 7.31 45.158 0.464 6.58 0.95 8.11
12/19/2021 12:45:00 AM 7.31 45.158 0.453 6.59 0.74 8.91
12/19/2021 1:00:00 AM 7.31 45.158 0.464 6.59 0.8 8.62
12/19/2021 1:15:00 AM 7.31 45.158 0.465 6.57 0.9 8.7
12/19/2021 1:30:00 AM 7.31 45.158 0.464 6.52 1.18 8.36
12/19/2021 1:45:00 AM 7.31 45.158 0.464 6.5 0.81 8.35
12/19/2021 2:00:00 AM 7.3 45.14 0.465 6.58 1.27 8.64
12/19/2021 2:15:00 AM 7.29 45.122 0.465 6.53 1.28 8.28
12/19/2021 2:30:00 AM 7.27 45.086 0.465 6.5 0.97 8.38
12/19/2021 2:45:00 AM 7.23 45.014 0.465 6.57 1.63 8.72
12/19/2021 3:00:00 AM 7.2 44.96 0.465 6.59 1.12 8.64
12/19/2021 3:15:00 AM 7.18 44.924 0.465 6.58 1.12 8.64
12/19/2021 3:30:00 AM 7.16 44.888 0.466 6.6 1.48 8.64
12/19/2021 3:45:00 AM 7.14 44.852 0.465 6.6 1.03 8.63
12/19/2021 4:00:00 AM 7.12 44.816 0.461 6.61 1.01 8.5
12/19/2021 4:15:00 AM 7.1 44.78 0.465 6.61 0.79 8.53
12/19/2021 4:30:00 AM 7.06 44.708 0.441 6.65 1.02 8.44
12/19/2021 4:45:00 AM 7.04 44.672 0.467 6.66 1.08 8.49
12/19/2021 5:00:00 AM 7.01 44.618 0.459 6.67 1.06 8.75
12/19/2021 5:15:00 AM 6.99 44.582 0.459 6.69 0.78 8.94
12/19/2021 5:30:00 AM 6.97 44.546 0.417 6.69 1.07 8.48
12/19/2021 5:45:00 AM 6.94 44.492 0.465 6.67 1.1 8.95
12/19/2021 6:00:00 AM 6.91 44.438 0.46 6.74 0.94 9.16
12/19/2021 6:15:00 AM 6.89 44.402 0.455 6.76 1.22 9.26
12/19/2021 6:30:00 AM 6.88 44.384 0.456 6.68 0.83 9.39
12/19/2021 6:45:00 AM 6.82 44.276 0.452 6.78 0.93 8.83
12/19/2021 7:00:00 AM 6.77 44.186 0.463 6.85 0.89 9.04
12/19/2021 7:15:00 AM 6.74 44.132 0.449 6.86 2 9.18
12/19/2021 7:30:00 AM 6.71 44.078 0.456 6.84 1.05 9.18
12/19/2021 7:45:00 AM 6.68 44.024 0.463 6.87 0.9 9.15
12/19/2021 8:00:00 AM 6.69 44.042 0.467 6.82 1.16 9.16
12/19/2021 8:15:00 AM 6.7 44.06 0.462 6.75 1.23 9.09
12/19/2021 8:30:00 AM 6.72 44.096 0.46 6.71 1.11 9.32
12/19/2021 8:45:00 AM 6.72 44.096 0.459 6.77 1.03 9.36
12/19/2021 9:00:00 AM 6.74 44.132 0.458 6.79 1.03 9.41
12/19/2021 9:15:00 AM 6.75 44.15 0.458 6.81 0.87 9.41
12/19/2021 9:30:00 AM 6.77 44.186 0.464 6.81 0.85 9.44
12/19/2021 9:45:00 AM 6.8 44.24 0.471 6.82 1.15 9.6
12/19/2021 10:00:00 AM 6.82 44.276 0.451 6.82 1 9.88
12/19/2021 10:15:00 AM 6.85 44.33 0.456 6.79 1.35 9.72
12/19/2021 10:30:00 AM 6.92 44.456 0.455 6.71 1.24 9.88
12/19/2021 10:45:00 AM 7 44.6 0.469 6.67 1.85 10.38
12/19/2021 11:00:00 AM 7.09 44.762 0.469 6.75 0.99 10.25
12/19/2021 11:15:00 AM 7.2 44.96 0.453 6.77 1.07 10.59
12/19/2021 11:30:00 AM 7.27 45.086 0.456 6.82 1 10.23
12/19/2021 11:45:00 AM 7.33 45.194 0.449 6.85 1.06 10.36
12/19/2021 12:00:00 PM 7.37 45.266 0.462 6.91 0.74 10.33
12/19/2021 12:15:00 PM 7.43 45.374 0.458 6.86 1.12 10.23
12/19/2021 12:30:00 PM 7.54 45.572 0.462 6.92 1.08 10.42
12/19/2021 12:45:00 PM 7.67 45.806 0.458 6.96 1.18 10.35
12/19/2021 1:00:00 PM 7.79 46.022 0.456 7.17 0.88 10.51
12/19/2021 1:15:00 PM 7.88 46.184 0.455 7.3 1.36 10.49
12/19/2021 1:30:00 PM 7.94 46.292 0.457 7.43 1.2 10.36
12/19/2021 1:45:00 PM 8.03 46.454 0.436 7.65 1.13 10.27
12/19/2021 2:00:00 PM 7.99 46.382 0.435 7.77 0.86 9.77
12/19/2021 2:15:00 PM 7.98 46.364 0.445 7.78 0.82 10.07
12/19/2021 2:30:00 PM 7.99 46.382 0.457 7.8 0.93 10.06
12/19/2021 2:45:00 PM 7.91 46.238 0.457 7.9 1.31 10.25
12/19/2021 3:00:00 PM 7.74 45.932 0.455 7.91 0.95 10.41
12/19/2021 3:15:00 PM 7.65 45.77 0.448 7.74 0.96 10.2
12/19/2021 3:30:00 PM 7.5 45.5 0.411 7.78 1 10.43
12/19/2021 3:45:00 PM 7.38 45.284 0.402 7.76 1.03 10.37
12/19/2021 4:00:00 PM 7.27 45.086 0.453 7.59 0.84 9.65
12/19/2021 4:15:00 PM 7.15 44.87 0.459 7.5 0.72 9.99
12/19/2021 4:30:00 PM 7.02 44.636 0.444 7.43 1.13 10.12
12/19/2021 4:45:00 PM 6.92 44.456 0.451 7.37 1 9.83
12/19/2021 5:00:00 PM 6.83 44.294 0.46 7.26 0.88 9.8
12/19/2021 5:15:00 PM 6.75 44.15 0.461 7.26 0.71 9.75
12/19/2021 5:30:00 PM 6.67 44.006 0.462 7.28 1.09 9.91
12/19/2021 5:45:00 PM 6.61 43.898 0.462 7.22 1.03 9.32
12/19/2021 6:00:00 PM 6.56 43.808 0.462 7.19 0.69 9.45
12/19/2021 6:15:00 PM 6.51 43.718 0.462 7.22 0.82 9.11
12/19/2021 6:30:00 PM 6.47 43.646 0.462 7.21 1.03 9.01
12/19/2021 6:45:00 PM 6.44 43.592 0.462 7.11 0.89 9.25
12/19/2021 7:00:00 PM 6.41 43.538 0.463 7.07 2.06 9.08
12/19/2021 7:15:00 PM 6.37 43.466 0.463 6.58 1.12 9.04
12/19/2021 7:30:00 PM 6.35 43.43 0.463 6.97 1.28 8.79
12/19/2021 7:45:00 PM 6.32 43.376 0.463 6.87 0.9 8.39
12/19/2021 8:00:00 PM 6.28 43.304 0.462 7.01 0.89 8.85
12/19/2021 8:15:00 PM 6.25 43.25 0.462 7.24 0.88 8.86
12/19/2021 8:30:00 PM 6.22 43.196 0.462 7.31 1.21 9.24
12/19/2021 8:45:00 PM 6.2 43.16 0.462 7.07 0.85 9.36
12/19/2021 9:00:00 PM 6.18 43.124 0.462 7.36 1.04 8.98
12/19/2021 9:15:00 PM 6.15 43.07 0.462 6.55 1.33 8.71
12/19/2021 9:30:00 PM 6.12 43.016 0.462 6.61 0.89 9.04
12/19/2021 9:45:00 PM 6.1 42.98 0.462 6.66 1.3 9.15
12/19/2021 10:00:00 PM 6.07 42.926 0.463 6.64 1.02 9.32
12/19/2021 10:15:00 PM 6.04 42.872 0.463 6.63 0.8 9.4
12/19/2021 10:30:00 PM 6.01 42.818 0.463 6.46 0.97 8.67
12/19/2021 10:45:00 PM 5.97 42.746 0.463 6.56 0.84 8.86
12/19/2021 11:00:00 PM 5.94 42.692 0.463 6.75 0.84 8.62
12/19/2021 11:15:00 PM 5.89 42.602 0.459 6.78 0.86 8.73
12/19/2021 11:30:00 PM 5.86 42.548 0.463 6.57 0.96 8.99
12/19/2021 11:45:00 PM 5.84 42.512 0.463 6.77 3.78 8.43
12/20/2021 12:00:00 AM 5.82 42.476 0.463 6.64 1.21 8.52
12/20/2021 12:15:00 AM 5.76 42.368 0.463 6.74 0.82 9.37
12/20/2021 12:30:00 AM 5.73 42.314 0.463 6.78 0.93 9.1
12/20/2021 12:45:00 AM 5.7 42.26 0.463 6.81 0.66 8.72
12/20/2021 1:00:00 AM 5.66 42.188 0.463 6.82 1.51 9.02
12/20/2021 1:15:00 AM 5.62 42.116 0.463 6.83 1.31 9.25
12/20/2021 1:30:00 AM 5.59 42.062 0.464 6.86 1.05 9.27
12/20/2021 1:45:00 AM 5.56 42.008 0.464 6.91 0.74 9.64
12/20/2021 2:00:00 AM 5.52 41.936 0.464 6.92 0.95 9.64
12/20/2021 2:15:00 AM 5.49 41.882 0.464 6.92 1.94 9.56
12/20/2021 2:30:00 AM 5.46 41.828 0.464 5.9 0.87 9.56
12/20/2021 2:45:00 AM 5.43 41.774 0.464 5.73 1.11 9.56
12/20/2021 3:00:00 AM 5.39 41.702 0.464 5.6 1.26 9.61
12/20/2021 3:15:00 AM 5.36 41.648 0.464 5.39 1.18 9.34
12/20/2021 3:30:00 AM 5.34 41.612 0.464 5.35 1.89 9.25
12/20/2021 3:45:00 AM 5.32 41.576 0.464 5.19 0.9 9.58
12/20/2021 4:00:00 AM 5.29 41.522 0.464 5.1 1.63 9.36
12/20/2021 4:15:00 AM 5.27 41.486 0.464 5.05 1.11 9.58
12/20/2021 4:30:00 AM 5.25 41.45 0.464 4.97 0.9 9.34
12/20/2021 4:45:00 AM 5.21 41.378 0.466 4.88 1.15 9.32
12/20/2021 5:00:00 AM 5.19 41.342 0.464 5.06 1.01 9.33
12/20/2021 5:15:00 AM 5.16 41.288 0.464 5.12 1.09 9.74
12/20/2021 5:30:00 AM 5.14 41.252 0.465 5.2 1.18 9.71
12/20/2021 5:45:00 AM 5.13 41.234 0.464 5.06 0.91 9.2
12/20/2021 6:00:00 AM 5.11 41.198 0.465 4.98 1.12 9.99
12/20/2021 6:15:00 AM 5.08 41.144 0.465 4.91 1.15 9.81
12/20/2021 6:30:00 AM 5.07 41.126 0.464 5.01 0.95 9.68
12/20/2021 6:45:00 AM 5.05 41.09 0.463 4.93 0.71 10.04
12/20/2021 7:00:00 AM 5.03 41.054 0.464 5.1 1.51 10.01
12/20/2021 7:15:00 AM 5 41 0.464 5.16 0.97 9.89
12/20/2021 7:30:00 AM 4.99 40.982 0.464 4.71 0.9 10.24
12/20/2021 7:45:00 AM 4.96 40.928 0.463 4.56 0.95 9.81
12/20/2021 8:00:00 AM 4.96 40.928 0.463 4.61 1.06 10.01
12/20/2021 8:15:00 AM 4.94 40.892 0.463 4.43 1.04 10.1
12/20/2021 8:30:00 AM 4.92 40.856 0.463 4.36 0.93 10.2
12/20/2021 8:45:00 AM 4.93 40.874 0.462 4.41 0.84 10.68
12/20/2021 9:00:00 AM 4.96 40.928 0.462 4.21 1.01 10.57
12/20/2021 9:15:00 AM 4.97 40.946 0.368 4.01 1.4 10.07
12/20/2021 9:30:00 AM 5.01 41.018 0.372 3.89 2.11 10.17
12/20/2021 9:45:00 AM 5.05 41.09 0.376 2.4 0.96 10.45
12/20/2021 10:00:00 AM 5.09 41.162 0.407 2.15 1.34 10.63
12/20/2021 10:15:00 AM 5.13 41.234 0.45 1.93 1.16 10.76
12/20/2021 10:30:00 AM 5.19 41.342 0.457 1.73 1.34 10.63
12/20/2021 10:45:00 AM 5.26 41.468 0.371 2.51 2.01 10.95
12/20/2021 11:00:00 AM 5.38 41.684 0.373 2.4 2.01 11.38
12/20/2021 11:15:00 AM 5.47 41.846 0.371 1.49 2.02 11.53
12/20/2021 11:30:00 AM 5.57 42.026 0.361 0.82 2.69 11.16
12/20/2021 11:45:00 AM 5.67 42.206 0.363 2.26 1.44 10.51
12/20/2021 12:00:00 PM 5.78 42.404 0.362 1.29 3.42 11.27
12/20/2021 12:15:00 PM 5.91 42.638 0.365 1.83 3.83 11.81
12/20/2021 12:30:00 PM 6.04 42.872 0.365 7.25 2.79 11.11
12/20/2021 12:45:00 PM 6.17 43.106 0.367 7.32 2.31 11.51
12/20/2021 1:00:00 PM 6.29 43.322 0.37 7.31 2.07 11.5
12/20/2021 1:15:00 PM 6.39 43.502 0.38 7.23 2.04 11.61
12/20/2021 1:30:00 PM 6.46 43.628 0.361 7.22 1.6 11.68
12/20/2021 1:45:00 PM 6.5 43.7 0.405 7.26 1.8 11.87
12/20/2021 2:00:00 PM 6.53 43.754 0.374 7.28 1.16 11.7
12/20/2021 2:15:00 PM 6.53 43.754 0.37 7.32 1.22 11.62
12/20/2021 2:30:00 PM 6.46 43.628 0.38 7.4 1.19 11.26
12/20/2021 2:45:00 PM 6.41 43.538 0.375 7.5 1.12 12.01
12/20/2021 3:00:00 PM 6.31 43.358 0.38 7.61 1.29 11.88
12/20/2021 3:15:00 PM 6.17 43.106 0.398 7.74 0.99 11.99
12/20/2021 3:30:00 PM 6.01 42.818 0.392 7.85 0.93 11.59
12/20/2021 3:45:00 PM 5.87 42.566 0.395 7.86 1.12 11.44
12/20/2021 4:00:00 PM 5.71 42.278 0.455 7.72 1.07 11.27
12/20/2021 4:15:00 PM 5.59 42.062 0.444 7.49 0.84 11.33
12/20/2021 4:30:00 PM 5.46 41.828 0.379 7.33 0.77 11.15
12/20/2021 4:45:00 PM 5.34 41.612 0.395 7.29 1.03 11.18
12/20/2021 5:00:00 PM 5.22 41.396 0.455 7.37 1.17 11.03
12/20/2021 5:15:00 PM 5.12 41.216 0.456 7.43 1.44 10.78
12/20/2021 5:30:00 PM 5.02 41.036 0.456 7.45 1 10.57
12/20/2021 5:45:00 PM 4.93 40.874 0.456 7.47 1.11 10.45
12/20/2021 6:00:00 PM 4.87 40.766 0.456 7.32 1.3 10.64
12/20/2021 6:15:00 PM 4.77 40.586 0.455 7.26 1.01 10.21
12/20/2021 6:30:00 PM 4.71 40.478 0.456 7.01 1.21 10.7
12/20/2021 6:45:00 PM 4.64 40.352 0.456 7.01 0.91 10.43
12/20/2021 7:00:00 PM 4.58 40.244 0.456 7.01 0.97 10.2
12/20/2021 7:15:00 PM 4.54 40.172 0.456 6.9 1.05 10.34
12/20/2021 7:30:00 PM 4.47 40.046 0.456 6.97 0.77 10
12/20/2021 7:45:00 PM 4.43 39.974 0.456 6.93 1.43 10.31
12/20/2021 8:00:00 PM 4.37 39.866 0.457 3.94 0.82 10.27
12/20/2021 8:15:00 PM 4.33 39.794 0.457 4.48 1.16 10.06
12/20/2021 8:30:00 PM 4.29 39.722 0.457 4.42 0.88 10.6
12/20/2021 8:45:00 PM 4.24 39.632 0.457 4.79 0.85 10.24
12/20/2021 9:00:00 PM 4.2 39.56 0.457 5.02 1.02 10.23
12/20/2021 9:15:00 PM 4.16 39.488 0.458 5.09 1.17 10.49
12/20/2021 9:30:00 PM 4.13 39.434 0.457 5.26 1.23 9.78
12/20/2021 9:45:00 PM 4.08 39.344 0.457 5.27 0.9 9.9
12/20/2021 10:00:00 PM 4.04 39.272 0.458 5.66 0.88 10.3
12/20/2021 10:15:00 PM 4 39.2 0.458 5.68 0.93 9.3
12/20/2021 10:30:00 PM 3.97 39.146 0.458 5.62 0.92 9.24
12/20/2021 10:45:00 PM 3.92 39.056 0.453 5.54 1.18 8.38
12/20/2021 11:00:00 PM 3.88 38.984 0.458 5.47 1.25 8.89
12/20/2021 11:15:00 PM 3.84 38.912 0.458 5.4 1.04 8
12/20/2021 11:30:00 PM 3.8 38.84 0.457 5.41 1.17 7.95
12/20/2021 11:45:00 PM 3.76 38.768 0.459 5.45 1.12 8.69
12/21/2021 12:00:00 AM 3.73 38.714 0.459 5.45 0.93 7.92
12/21/2021 12:15:00 AM 3.68 38.624 0.459 5.35 1.35 8.67
12/21/2021 12:30:00 AM 3.65 38.57 0.46 5.34 0.86 8.91
12/21/2021 12:45:00 AM 3.61 38.498 0.46 5.33 0.99 8.34
12/21/2021 1:00:00 AM 3.57 38.426 0.46 4.71 1.07 8.17
12/21/2021 1:15:00 AM 3.54 38.372 0.46 4.66 0.74 8.9
12/21/2021 1:30:00 AM 3.52 38.336 0.46 3.64 1.13 9.74
12/21/2021 1:45:00 AM 3.49 38.282 0.461 3.66 1.31 9.81
12/21/2021 2:00:00 AM 3.47 38.246 0.461 3.56 0.89 9.53
12/21/2021 2:15:00 AM 3.46 38.228 0.461 3.5 1.45 9.56
12/21/2021 2:30:00 AM 3.42 38.156 0.461 3.35 0.91 9.28
12/21/2021 2:45:00 AM 3.41 38.138 0.461 3.29 1.07 8.48
12/21/2021 3:00:00 AM 3.39 38.102 0.461 3.1 1.71 8.55
12/21/2021 3:15:00 AM 3.38 38.084 0.462 3.02 0.84 9.04
12/21/2021 3:30:00 AM 3.37 38.066 0.462 2.82 0.87 8.73
12/21/2021 3:45:00 AM 3.36 38.048 0.462 -0.79 1 6.94
12/21/2021 4:00:00 AM 3.35 38.03 0.462 -0.94 0.96 7.21
12/21/2021 4:15:00 AM 3.34 38.012 0.462 -0.91 1.32 7.88
12/21/2021 4:30:00 AM 3.33 37.994 0.462 -1.11 0.87 7.08
12/21/2021 4:45:00 AM 3.31 37.958 0.462 -1.24 0.99 8.56
12/21/2021 5:00:00 AM 3.3 37.94 0.462 -1.23 0.86 9.44
12/21/2021 5:15:00 AM 3.28 37.904 0.462 -1.3 0.79 10.15
12/21/2021 5:30:00 AM 3.27 37.886 0.462 -1.37 1.15 9.88
12/21/2021 5:45:00 AM 3.25 37.85 0.462 -1.36 1.03 9.21
12/21/2021 6:00:00 AM 3.24 37.832 0.462 -1.54 0.86 9.19
12/21/2021 6:15:00 AM 3.23 37.814 0.462 -1.63 1.05 10.5
12/21/2021 6:30:00 AM 3.2 37.76 0.461 -1.62 1.18 10.72
12/21/2021 6:45:00 AM 3.19 37.742 0.462 -1.67 0.99 10.95
12/21/2021 7:00:00 AM 3.18 37.724 0.462 -1.69 0.79 10.99
12/21/2021 7:15:00 AM 3.18 37.724 0.435 -1.6 1.2 11.08
12/21/2021 7:30:00 AM 3.16 37.688 0.462 -1.76 0.97 11.25
12/21/2021 7:45:00 AM 3.15 37.67 0.389 -1.75 0.98 11.14
12/21/2021 8:00:00 AM 3.15 37.67 0.457 -1.79 1.01 11.23
12/21/2021 8:15:00 AM 3.17 37.706 0.447 -1.68 0.95 11.07
12/21/2021 8:30:00 AM 3.17 37.706 0.446 -1.71 1.04 11.29
12/21/2021 8:45:00 AM 3.2 37.76 0.433 -1.63 1.3 11.32
12/21/2021 9:00:00 AM 3.22 37.796 0.46 -1.62 0.83 11.39
12/21/2021 9:15:00 AM 3.26 37.868 0.408 -1.66 0.89 11.44
12/21/2021 9:30:00 AM 3.31 37.958 0.393 -1.58 1.04 11.22
12/21/2021 9:45:00 AM 3.35 38.03 0.392 -2.8 0.76 11.44
12/21/2021 10:00:00 AM 3.41 38.138 0.392 -2.61 0.99 11.51
12/21/2021 10:15:00 AM 3.48 38.264 0.393 6.75 0.91 11.85
12/21/2021 10:30:00 AM 3.55 38.39 0.39 6.49 1.36 12
12/21/2021 10:45:00 AM 3.63 38.534 0.392 6.61 0.94 12.48
12/21/2021 11:00:00 AM 3.71 38.678 0.39 6.62 0.99 12.91
12/21/2021 11:15:00 AM 3.8 38.84 0.39 7.02 1.01 12.99
12/21/2021 11:30:00 AM 3.89 39.002 0.385 6.99 0.93 13.11
12/21/2021 11:45:00 AM 3.97 39.146 0.389 6.94 1.14 13.02
12/21/2021 12:00:00 PM 4.07 39.326 0.389 6.77 1.02 12.77
12/21/2021 12:15:00 PM 4.17 39.506 0.446 6.92 0.85 13.16
12/21/2021 12:30:00 PM 4.26 39.668 0.411 6.77 0.97 13.06
12/21/2021 12:45:00 PM 4.34 39.812 0.407 6.68 1.43 13.1
12/21/2021 1:00:00 PM 4.39 39.902 0.459 6.68 1.11 12.98
12/21/2021 1:15:00 PM 4.42 39.956 0.391 6.61 1.29 13.28
12/21/2021 1:30:00 PM 4.48 40.064 0.391 6.44 1.07 13.18
12/21/2021 1:45:00 PM 4.5 40.1 0.392 6.33 1.02 12.97
12/21/2021 2:00:00 PM 4.5 40.1 0.393 6.26 0.93 12.71
12/21/2021 2:15:00 PM 4.46 40.028 0.387 6.19 1.28 13.06
12/21/2021 2:30:00 PM 4.44 39.992 0.388 6.16 1.2 12.94
12/21/2021 2:45:00 PM 4.4 39.92 0.394 5.83 0.96 13.05
12/21/2021 3:00:00 PM 4.35 39.83 0.453 5.72 1.37 13.06
12/21/2021 3:15:00 PM 4.3 39.74 0.448 5.58 1.49 12.92
12/21/2021 3:30:00 PM 4.2 39.56 0.454 5.53 1.46 13.15
12/21/2021 3:45:00 PM 4.12 39.416 0.424 5.54 1.09 13.04
12/21/2021 4:00:00 PM 4.05 39.29 0.453 5.42 1 12.91
12/21/2021 4:15:00 PM 3.97 39.146 0.457 5.47 1 12.84
12/21/2021 4:30:00 PM 3.88 38.984 0.438 5.46 0.92 12.43
12/21/2021 4:45:00 PM 3.8 38.84 0.448 5.37 0.87 12.41
12/21/2021 5:00:00 PM 3.7 38.66 0.458 5.28 0.86 12.22
12/21/2021 5:15:00 PM 3.61 38.498 0.458 5.18 0.84 12.31
12/21/2021 5:30:00 PM 3.54 38.372 0.459 5.28 0.85 12.2
12/21/2021 5:45:00 PM 3.46 38.228 0.459 5.21 1.03 12.19
12/21/2021 6:00:00 PM 3.38 38.084 0.46 5.49 0.99 11.95
12/21/2021 6:15:00 PM 3.32 37.976 0.46 5.53 1.22 11.8
12/21/2021 6:30:00 PM 3.27 37.886 0.46 5.53 0.95 11.89
12/21/2021 6:45:00 PM 3.24 37.832 0.46 5.36 1.07 11.18
12/21/2021 7:00:00 PM 3.21 37.778 0.461 5.21 1.09 11.49
12/21/2021 7:15:00 PM 3.21 37.778 0.461 5.08 0.92 11.56
12/21/2021 7:30:00 PM 3.2 37.76 0.461 4.93 0.93 11.69
12/21/2021 7:45:00 PM 3.19 37.742 0.461 4.74 0.96 11.46
12/21/2021 8:00:00 PM 3.19 37.742 0.461 4.67 1.16 11.49
12/21/2021 8:15:00 PM 3.19 37.742 0.461 4.68 0.84 11.3
12/21/2021 8:30:00 PM 3.2 37.76 0.461 4.66 1.04 11.14
12/21/2021 8:45:00 PM 3.19 37.742 0.462 4.59 1.06 11.5
12/21/2021 9:00:00 PM 3.18 37.724 0.462 4.58 1.08 11.32
12/21/2021 9:15:00 PM 3.17 37.706 0.462 4.48 1.05 11.31
12/21/2021 9:30:00 PM 3.14 37.652 0.462 4.46 1.11 11.64
12/21/2021 9:45:00 PM 3.11 37.598 0.462 4.52 0.94 11.56
12/21/2021 10:00:00 PM 3.1 37.58 0.462 4.66 1.1 11.54
12/21/2021 10:15:00 PM 3.11 37.598 0.463 4.78 1.32 11
12/21/2021 10:30:00 PM 3.1 37.58 0.463 4.65 0.88 10.67
12/21/2021 10:45:00 PM 3.09 37.562 0.462 4.6 2.79 11.12
12/21/2021 11:00:00 PM 3.09 37.562 0.463 4.44 0.89 11.65
12/21/2021 11:15:00 PM 3.09 37.562 0.463 4.39 0.87 11.5
12/21/2021 11:30:00 PM 3.09 37.562 0.463 4.33 0.9 11.58
12/21/2021 11:45:00 PM 3.09 37.562 0.464 4.22 1.19 11.53
12/22/2021 12:00:00 AM 3.1 37.58 0.464 4.23 1.73 11.51
12/22/2021 12:15:00 AM 3.1 37.58 0.464 4.16 0.93 11.61
12/22/2021 12:30:00 AM 3.1 37.58 0.464 4.09 0.86 11.36
12/22/2021 12:45:00 AM 3.1 37.58 0.463 4.06 0.97 11.33
12/22/2021 1:00:00 AM 3.09 37.562 0.464 3.97 1.11 11.31
12/22/2021 1:15:00 AM 3.05 37.49 0.465 4.12 1 11.22
12/22/2021 1:30:00 AM 3.04 37.472 0.465 4.35 1.37 11.31
12/22/2021 1:45:00 AM 2.99 37.382 0.465 4.6 1.12 11.35
12/22/2021 2:00:00 AM 2.94 37.292 0.465 4.87 0.82 11.2
12/22/2021 2:15:00 AM 2.89 37.202 0.465 5 1.05 11.04
12/22/2021 2:30:00 AM 2.85 37.13 0.466 5.26 0.92 11.45
12/22/2021 2:45:00 AM 2.79 37.022 0.466 5.36 1.08 11.56
12/22/2021 3:00:00 AM 2.75 36.95 0.466 5.42 1.05 11.35
12/22/2021 3:15:00 AM 2.7 36.86 0.466 5.37 1.4 11.44
12/22/2021 3:30:00 AM 2.66 36.788 0.466 5.67 0.89 11.59
12/22/2021 3:45:00 AM 2.61 36.698 0.466 5.65 1.19 11.44
12/22/2021 4:00:00 AM 2.58 36.644 0.467 5.62 1.03 11.67
12/22/2021 4:15:00 AM 2.55 36.59 0.467 5.59 1 11.84
12/22/2021 4:30:00 AM 2.53 36.554 0.467 5.75 0.93 11.64
12/22/2021 4:45:00 AM 2.51 36.518 0.467 5.77 0.94 11.82
12/22/2021 5:00:00 AM 2.49 36.482 0.467 5.72 0.84 11.62
12/22/2021 5:15:00 AM 2.48 36.464 0.467 5.69 1.24 11.64
12/22/2021 5:30:00 AM 2.47 36.446 0.45 5.7 1.03 11.87
12/22/2021 5:45:00 AM 2.46 36.428 0.467 5.77 0.99 11.96
12/22/2021 6:00:00 AM 2.46 36.428 0.467 5.84 0.88 11.9
12/22/2021 6:15:00 AM 2.46 36.428 0.467 5.83 1.26 11.69
12/22/2021 6:30:00 AM 2.5 36.5 0.467 5.87 0.98 10.97
12/22/2021 6:45:00 AM 2.52 36.536 0.467 5.95 0.93 11.49
12/22/2021 7:00:00 AM 2.54 36.572 0.467 5.94 1.19 11.4
12/22/2021 7:15:00 AM 2.58 36.644 0.467 5.95 1.3 11.87
12/22/2021 7:30:00 AM 2.6 36.68 0.467 5.94 1.33 11.77
12/22/2021 7:45:00 AM 2.62 36.716 0.466 5.95 1.04 11.86
12/22/2021 8:00:00 AM 2.64 36.752 0.467 5.98 0.92 11.86
12/22/2021 8:15:00 AM 2.68 36.824 0.466 6.05 1.05 11.91
12/22/2021 8:30:00 AM 2.73 36.914 0.466 5.96 1.47 12.04
12/22/2021 8:45:00 AM 2.76 36.968 0.466 5.9 1.38 11.92
12/22/2021 9:00:00 AM 2.79 37.022 0.466 5.83 0.98 12.24
12/22/2021 9:15:00 AM 2.81 37.058 0.466 5.68 1.57 12.27
12/22/2021 9:30:00 AM 2.86 37.148 0.465 5.58 1.03 12.15
12/22/2021 9:45:00 AM 2.91 37.238 0.465 5.41 1.49 12.27
12/22/2021 10:00:00 AM 2.98 37.364 0.465 5.31 1.08 12.4
12/22/2021 10:15:00 AM 3.08 37.544 0.464 5.1 1.21 12.34
12/22/2021 10:30:00 AM 3.21 37.778 0.464 5.89 1.11 12.36
12/22/2021 10:45:00 AM 3.3 37.94 0.464 5.94 1.06 12.21
12/22/2021 11:00:00 AM 3.4 38.12 0.463 5.82 0.94 12.35
12/22/2021 11:15:00 AM 3.5 38.3 0.463 5.74 1.08 12.36
12/22/2021 11:30:00 AM 3.64 38.552 0.463 5.51 1.18 12.44
12/22/2021 11:45:00 AM 3.74 38.732 0.463 5.26 1.03 12.34
12/22/2021 12:00:00 PM 3.86 38.948 0.462 4.89 1.05 12.12
12/22/2021 12:15:00 PM 4.03 39.254 0.46 4.83 1.04 11.86
12/22/2021 12:30:00 PM 4.11 39.398 0.45 4.6 0.91 12.3
12/22/2021 12:45:00 PM 4.21 39.578 0.461 4.4 1.25 11.64
12/22/2021 1:00:00 PM 4.29 39.722 0.461 4.19 0.98 12.11
12/22/2021 1:15:00 PM 4.39 39.902 0.461 3.79 0.98 12.14
12/22/2021 1:30:00 PM 4.52 40.136 0.461 4.25 0.93 12.2
12/22/2021 1:45:00 PM 4.67 40.406 0.46 4.5 1.08 12.07
12/22/2021 2:00:00 PM 4.75 40.55 0.461 5.04 1.15 11.98
12/22/2021 2:15:00 PM 4.72 40.496 0.461 5.76 1.33 11.72
12/22/2021 2:30:00 PM 4.69 40.442 0.461 5.89 1.75 11.98
12/22/2021 2:45:00 PM 4.61 40.298 0.461 6.02 1.15 12.09
12/22/2021 3:00:00 PM 4.49 40.082 0.461 6.2 1.03 12.32
12/22/2021 3:15:00 PM 4.44 39.992 0.461 6.13 1.2 12.41
12/22/2021 3:30:00 PM 4.28 39.704 0.409 6.28 1.06 11.96
12/22/2021 3:45:00 PM 4.1 39.38 0.442 6.47 0.98 11.85
12/22/2021 4:00:00 PM 3.91 39.038 0.454 6.24 1.09 11.58
12/22/2021 4:15:00 PM 3.81 38.858 0.456 6.15 0.91 11.79
12/22/2021 4:30:00 PM 3.65 38.57 0.455 6 1.25 11.97
12/22/2021 4:45:00 PM 3.5 38.3 0.437 6.09 0.99 11.86
12/22/2021 5:00:00 PM 3.36 38.048 0.462 6.11 1.21 11.78
12/22/2021 5:15:00 PM 3.25 37.85 0.462 6.02 1.15 11.55
12/22/2021 5:30:00 PM 3.13 37.634 0.463 5.92 1.19 11.58
12/22/2021 5:45:00 PM 3.03 37.454 0.463 5.8 1.51 11.33
12/22/2021 6:00:00 PM 2.97 37.346 0.463 5.65 0.99 11.15
12/22/2021 6:15:00 PM 2.9 37.22 0.458 5.59 1.39 10.67
12/22/2021 6:30:00 PM 2.83 37.094 0.462 5.56 1.02 11.11
12/22/2021 6:45:00 PM 2.79 37.022 0.463 5.57 1.28 10.89
12/22/2021 7:00:00 PM 2.75 36.95 0.463 4.83 0.93 11.12
12/22/2021 7:15:00 PM 2.71 36.878 0.463 5.05 0.98 11.24
12/22/2021 7:30:00 PM 2.68 36.824 0.463 5.08 0.99 11.11
12/22/2021 7:45:00 PM 2.64 36.752 0.463 5.04 1.21 10.95
12/22/2021 8:00:00 PM 2.62 36.716 0.463 4.91 1.02 11.06
12/22/2021 8:15:00 PM 2.58 36.644 0.464 4.74 1.19 10.98
12/22/2021 8:30:00 PM 2.56 36.608 0.464 4.59 1.62 11.03
12/22/2021 8:45:00 PM 2.53 36.554 0.464 4.41 1.17 11.06
12/22/2021 9:00:00 PM 2.5 36.5 0.464 4.29 1.43 11.05
12/22/2021 9:15:00 PM 2.47 36.446 0.464 4.47 1.31 10.95
12/22/2021 9:30:00 PM 2.47 36.446 0.464 4.25 1.28 10.65
12/22/2021 9:45:00 PM 2.47 36.446 0.464 4.19 1.6 11.05
12/22/2021 10:00:00 PM 2.48 36.464 0.464 4.12 1.02 10.61
12/22/2021 10:15:00 PM 2.46 36.428 0.463 4.12 1.4 11.16
12/22/2021 10:30:00 PM 2.44 36.392 0.464 4.26 1.1 11.09
12/22/2021 10:45:00 PM 2.42 36.356 0.463 4.2 1.21 11.03
12/22/2021 11:00:00 PM 2.4 36.32 0.463 4.24 1.66 11.2
12/22/2021 11:15:00 PM 2.37 36.266 0.463 4.29 1.07 11.54
12/22/2021 11:30:00 PM 2.34 36.212 0.463 4.39 10.83 11.45
12/22/2021 11:45:00 PM 2.33 36.194 0.463 4.35 1.86 11.42
12/23/2021 12:00:00 AM 2.31 36.158 0.463 4.39 1.58 11.28
12/23/2021 12:15:00 AM 2.28 36.104 0.463 4.58 13.66 11.51
12/23/2021 12:30:00 AM 2.26 36.068 0.461 4.54 1.18 11.17
12/23/2021 12:45:00 AM 2.24 36.032 0.463 4.54 1.03 11.45
12/23/2021 1:00:00 AM 2.24 36.032 0.464 4.5 1.04 11.73
12/23/2021 1:15:00 AM 2.22 35.996 0.464 4.47 0.86 11.53
12/23/2021 1:30:00 AM 2.2 35.96 0.465 4.46 1.14 10.99
12/23/2021 1:45:00 AM 2.19 35.942 0.465 4.46 1.16 11.25
12/23/2021 2:00:00 AM 2.19 35.942 0.465 4.44 1.36 11.29
12/23/2021 2:15:00 AM 2.17 35.906 0.465 4.42 1.08 11.31
12/23/2021 2:30:00 AM 2.15 35.87 0.465 4.43 1.19 11.09
12/23/2021 2:45:00 AM 2.14 35.852 0.465 4.45 1.71 11.66
12/23/2021 3:00:00 AM 2.14 35.852 0.465 4.29 1.13 11.18
12/23/2021 3:15:00 AM 2.14 35.852 0.465 4.37 1.63 10.9
12/23/2021 3:30:00 AM 2.15 35.87 0.465 4.51 22.74 10.97
12/23/2021 3:45:00 AM 2.16 35.888 0.465 4.51 1.42 10.41
12/23/2021 4:00:00 AM 2.17 35.906 0.465 4.59 1.05 11.22
12/23/2021 4:15:00 AM 2.17 35.906 0.465 4.68 1.25 11.46
12/23/2021 4:30:00 AM 2.16 35.888 0.465 4.69 1.12 11.26
12/23/2021 4:45:00 AM 2.14 35.852 0.465 4.88 1.37 10.66
12/23/2021 5:00:00 AM 2.14 35.852 0.465 5.1 1.29 11.11
12/23/2021 5:15:00 AM 2.13 35.834 0.465 5.22 1.53 11.21
12/23/2021 5:30:00 AM 2.12 35.816 0.465 5.31 1.03 11.26
12/23/2021 5:45:00 AM 2.11 35.798 0.465 5.34 1.13 11.5
12/23/2021 6:00:00 AM 2.12 35.816 0.465 5.37 2.28 11.73
12/23/2021 6:15:00 AM 2.12 35.816 0.466 5.05 1.49 11.72
12/23/2021 6:30:00 AM 2.12 35.816 0.466 5.01 1.09 11.45
12/23/2021 6:45:00 AM 2.11 35.798 0.466 4.99 1.43 11.23
12/23/2021 7:00:00 AM 2.12 35.816 0.466 4.83 1.69 11.36
12/23/2021 7:15:00 AM 2.13 35.834 0.466 5.08 1.33 11.26
12/23/2021 7:30:00 AM 2.12 35.816 0.467 5.05 1.39 11.27
12/23/2021 7:45:00 AM 2.12 35.816 0.467 5.11 1.19 11.64
12/23/2021 8:00:00 AM 2.13 35.834 0.467 5.05 1.54 11.66
12/23/2021 8:15:00 AM 2.13 35.834 0.467 4.9 1.29 11.72
12/23/2021 8:30:00 AM 2.12 35.816 0.467 4.89 0.96 11.69
12/23/2021 8:45:00 AM 2.13 35.834 0.467 4.92 1.23 12.08
12/23/2021 9:00:00 AM 2.16 35.888 0.466 4.88 1.26 12.27
12/23/2021 9:15:00 AM 2.2 35.96 0.466 4.91 1.19 12.33
12/23/2021 9:30:00 AM 2.25 36.05 0.466 4.78 1 12.23
12/23/2021 9:45:00 AM 2.3 36.14 0.466 4.65 1.25 12.38
12/23/2021 10:00:00 AM 2.35 36.23 0.465 4.42 1.09 11.98
12/23/2021 10:15:00 AM 2.41 36.338 0.465 4.37 1.42 11.79
12/23/2021 10:30:00 AM 2.49 36.482 0.465 4.31 1.7 11.95
12/23/2021 10:45:00 AM 2.57 36.626 0.464 4.31 1.41 11.85
12/23/2021 11:00:00 AM 2.67 36.806 0.464 4.25 0.95 12.06
12/23/2021 11:15:00 AM 2.77 36.986 0.463 4.03 1.44 11.66
12/23/2021 11:30:00 AM 2.88 37.184 0.463 3.52 1.14 11.75
12/23/2021 11:45:00 AM 2.94 37.292 0.463 3.98 1.35 11.94
12/23/2021 12:00:00 PM 3.02 37.436 0.463 4.49 1.32 11.99
12/23/2021 12:15:00 PM 3.11 37.598 0.463 3.85 1.43 12.34
12/23/2021 12:30:00 PM 3.14 37.652 0.463 3.98 1.29 12.45
12/23/2021 12:45:00 PM 3.18 37.724 0.462 3.7 1.18 12.34
12/23/2021 1:00:00 PM 3.17 37.706 0.462 4.12 0.84 12.36
12/23/2021 1:15:00 PM 3.17 37.706 0.462 3.84 1.36 12.57
12/23/2021 1:30:00 PM 3.16 37.688 0.463 3.98 1.07 12.54
12/23/2021 1:45:00 PM 3.13 37.634 0.462 3.68 1 12.77
12/23/2021 2:00:00 PM 3.09 37.562 0.462 3.8 0.94 12.7
12/23/2021 2:15:00 PM 3.06 37.508 0.462 3.75 1.21 12.53
12/23/2021 2:30:00 PM 3.05 37.49 0.462 3.14 1.16 12.37
12/23/2021 2:45:00 PM 3.01 37.418 0.462 2.56 1.09 12.49
12/23/2021 3:00:00 PM 2.96 37.328 0.462 1.91 1.19 12.51
12/23/2021 3:15:00 PM 2.91 37.238 0.462 2.14 0.98 12.22
12/23/2021 3:30:00 PM 2.84 37.112 0.463 2.28 1.4 11.85
12/23/2021 3:45:00 PM 2.83 37.094 0.462 2.24 1.12 12.13
12/23/2021 4:00:00 PM 2.78 37.004 0.463 2.02 1.02 12.03
12/23/2021 4:15:00 PM 2.73 36.914 0.463 2.21 1.19 12.3
12/23/2021 4:30:00 PM 2.65 36.77 0.463 2.62 1.17 12.3
12/23/2021 4:45:00 PM 2.58 36.644 0.463 3.25 1.12 12.34
12/23/2021 5:00:00 PM 2.5 36.5 0.463 3.43 1.38 12.07
12/23/2021 5:15:00 PM 2.42 36.356 0.463 4.33 1.28 12.11
12/23/2021 5:30:00 PM 2.36 36.248 0.463 4.59 1 12.09
12/23/2021 5:45:00 PM 2.29 36.122 0.463 4.59 13.35 12.1
12/23/2021 6:00:00 PM 2.23 36.014 0.463 4.57 1.06 11.75
12/23/2021 6:15:00 PM 2.18 35.924 0.463 4.18 1.22 11.69
12/23/2021 6:30:00 PM 2.14 35.852 0.463 3.96 1.17 11.41
12/23/2021 6:45:00 PM 2.11 35.798 0.463 3.99 1.41 11.03
12/23/2021 7:00:00 PM 2.08 35.744 0.463 3.95 1.2 10.68
12/23/2021 7:15:00 PM 2.06 35.708 0.463 3.83 1.07 10.9
12/23/2021 7:30:00 PM 2.05 35.69 0.458 3.69 1.15 9.73
12/23/2021 7:45:00 PM 2.03 35.654 0.463 3.63 1.12 10.4
12/23/2021 8:00:00 PM 2.01 35.618 0.463 3.82 1.16 10.69
12/23/2021 8:15:00 PM 2.01 35.618 0.463 4.1 1.09 11.69
12/23/2021 8:30:00 PM 2.01 35.618 0.463 4.32 1.12 11.6
12/23/2021 8:45:00 PM 2.01 35.618 0.463 4.27 1.1 11.52
12/23/2021 9:00:00 PM 2 35.6 0.462 4.44 1.05 11.65
12/23/2021 9:15:00 PM 2 35.6 0.462 4.51 1.37 11.68
12/23/2021 9:30:00 PM 2 35.6 0.462 4.62 1.31 11.82
12/23/2021 9:45:00 PM 1.99 35.582 0.462 4.7 1.23 11.32
12/23/2021 10:00:00 PM 1.98 35.564 0.462 4.73 1.26 11.38
12/23/2021 10:15:00 PM 1.97 35.546 0.462 4.66 1.44 11.17
12/23/2021 10:30:00 PM 1.98 35.564 0.462 4.64 1.04 11.29
12/23/2021 10:45:00 PM 2 35.6 0.462 4.53 1.07 11.57
12/23/2021 11:00:00 PM 2.01 35.618 0.462 4.51 1.41 11.21
12/23/2021 11:15:00 PM 2.02 35.636 0.463 4.49 1.33 11.42
12/23/2021 11:30:00 PM 2.03 35.654 0.462 3.88 1 11.51
12/23/2021 11:45:00 PM 2.03 35.654 0.463 4.25 1 11.87
12/24/2021 12:00:00 AM 2.04 35.672 0.463 4.45 1.59 11.58
12/24/2021 12:15:00 AM 2.06 35.708 0.463 4.46 1.36 11.68
12/24/2021 12:30:00 AM 2.07 35.726 0.463 4.26 1.29 11.16
12/24/2021 12:45:00 AM 2.08 35.744 0.463 4.3 1.26 10.53
12/24/2021 1:00:00 AM 2.09 35.762 0.463 4.3 1.49 10.74
12/24/2021 1:15:00 AM 2.1 35.78 0.463 4.05 1.22 11.12
12/24/2021 1:30:00 AM 2.09 35.762 0.463 4.12 1.1 10.92
12/24/2021 1:45:00 AM 2.1 35.78 0.455 4.07 1.15 9.93
12/24/2021 2:00:00 AM 2.1 35.78 0.394 4.07 1 10.6
12/24/2021 2:15:00 AM 2.1 35.78 0.463 4.05 1.16 10.86
12/24/2021 2:30:00 AM 2.11 35.798 0.464 4.06 1.02 10.66
12/24/2021 2:45:00 AM 2.11 35.798 0.464 4.12 1.08 11.07
12/24/2021 3:00:00 AM 2.11 35.798 0.464 3.95 1.26 11.42
12/24/2021 3:15:00 AM 2.12 35.816 0.464 3.93 1.19 11.13
12/24/2021 3:30:00 AM 2.12 35.816 0.464 4.01 1.45 11.14
12/24/2021 3:45:00 AM 2.12 35.816 0.463 4.1 1.36 10.65
12/24/2021 4:00:00 AM 2.12 35.816 0.46 4.11 1.3 10.95
12/24/2021 4:15:00 AM 2.13 35.834 0.464 4.07 1.75 11.35
12/24/2021 4:30:00 AM 2.13 35.834 0.446 4.08 1.43 11.15
12/24/2021 4:45:00 AM 2.13 35.834 0.43 4.16 1.26 11.34
12/24/2021 5:00:00 AM 2.15 35.87 0.464 4.07 1.43 11.47
12/24/2021 5:15:00 AM 2.15 35.87 0.432 4.09 1.21 11.52
12/24/2021 5:30:00 AM 2.16 35.888 0.432 4.07 1.23 11.47
12/24/2021 5:45:00 AM 2.16 35.888 0.464 4.07 1.24 11.67
12/24/2021 6:00:00 AM 2.14 35.852 0.452 4.17 1.28 11.37
12/24/2021 6:15:00 AM 2.11 35.798 0.421 4.57 1.13 11.43
12/24/2021 6:30:00 AM 2.08 35.744 0.444 5.1 1.08 11.57
12/24/2021 6:45:00 AM 2.06 35.708 0.457 5.42 1.1 11.58
12/24/2021 7:00:00 AM 2.03 35.654 0.465 5.54 1.12 11.66
12/24/2021 7:15:00 AM 2.02 35.636 0.465 5.67 1.2 11.78
12/24/2021 7:30:00 AM 1.99 35.582 0.465 5.6 1.27 11.48
12/24/2021 7:45:00 AM 1.97 35.546 0.465 5.64 1.59 11.75
12/24/2021 8:00:00 AM 1.95 35.51 0.466 5.73 1.22 11.55
12/24/2021 8:15:00 AM 1.94 35.492 0.466 5.59 1.44 11.59
12/24/2021 8:30:00 AM 1.95 35.51 0.466 5.54 1.29 11.54
12/24/2021 8:45:00 AM 1.96 35.528 0.466 5.34 1.23 11.22
12/24/2021 9:00:00 AM 1.99 35.582 0.465 5.21 1.1 11.43
12/24/2021 9:15:00 AM 2.02 35.636 0.465 4.82 1.02 11.37
12/24/2021 9:30:00 AM 2.07 35.726 0.465 4.42 1.38 11.24
12/24/2021 9:45:00 AM 2.12 35.816 0.465 4.32 1.75 11.9
12/24/2021 10:00:00 AM 2.18 35.924 0.465 4.36 1.3 11.92
12/24/2021 10:15:00 AM 2.24 36.032 0.465 4.35 1.36 11.68
12/24/2021 10:30:00 AM 2.31 36.158 0.465 4.29 1.37 11.87
12/24/2021 10:45:00 AM 2.4 36.32 0.464 4.28 1.39 12.07
12/24/2021 11:00:00 AM 2.51 36.518 0.464 4.11 1.22 12.18
12/24/2021 11:15:00 AM 2.65 36.77 0.464 4.02 1.16 12.32
12/24/2021 11:30:00 AM 2.8 37.04 0.463 3.91 1.41 12.67
12/24/2021 11:45:00 AM 3.02 37.436 0.463 3.73 1.24 11.43
12/24/2021 12:00:00 PM 3.15 37.67 0.463 3.49 1.31 11.45
12/24/2021 12:15:00 PM 3.38 38.084 0.462 3.56 1.02 10.92
12/24/2021 12:30:00 PM 3.56 38.408 0.462 3.58 1 10.73
12/24/2021 12:45:00 PM 3.7 38.66 0.462 4.02 1.04 11.65
12/24/2021 1:00:00 PM 3.84 38.912 0.461 4.36 1.12 11.99
12/24/2021 1:15:00 PM 3.96 39.128 0.462 4.57 1.07 11.46
12/24/2021 1:30:00 PM 4.03 39.254 0.462 4.96 1.28 12.28
12/24/2021 1:45:00 PM 4.1 39.38 0.462 5.06 0.97 12.04
12/24/2021 2:00:00 PM 4.14 39.452 0.462 5.18 1.45 11.81
12/24/2021 2:15:00 PM 4.22 39.596 0.461 5.49 1.14 11.93
12/24/2021 2:30:00 PM 4.18 39.524 0.462 5.64 1.35 12.12
12/24/2021 2:45:00 PM 4.14 39.452 0.462 5.69 1.24 12.06
12/24/2021 3:00:00 PM 4.02 39.236 0.462 5.71 1.31 11.52
12/24/2021 3:15:00 PM 3.93 39.074 0.462 5.42 1.11 12.06
12/24/2021 3:30:00 PM 3.86 38.948 0.462 5.26 1.32 11.73
12/24/2021 3:45:00 PM 3.71 38.678 0.463 4.97 1.15 11.81
12/24/2021 4:00:00 PM 3.65 38.57 0.463 4.9 1.24 11.49
12/24/2021 4:15:00 PM 3.54 38.372 0.463 4.68 1.35 11.63
12/24/2021 4:30:00 PM 3.46 38.228 0.463 4.63 1.48 11.13
12/24/2021 4:45:00 PM 3.38 38.084 0.464 4.57 1.1 11.37
12/24/2021 5:00:00 PM 3.31 37.958 0.464 4.57 1.33 11.28
12/24/2021 5:15:00 PM 3.24 37.832 0.465 4.63 1.8 10.96
12/24/2021 5:30:00 PM 3.19 37.742 0.465 4.62 1.3 10.87
12/24/2021 5:45:00 PM 3.13 37.634 0.465 3.19 1.26 10.9
12/24/2021 6:00:00 PM 3.09 37.562 0.466 2.88 1.42 11.01
12/24/2021 6:15:00 PM 3.06 37.508 0.466 2.78 1.18 10.9
12/24/2021 6:30:00 PM 3.03 37.454 0.466 2.65 1.24 10.88
12/24/2021 6:45:00 PM 3 37.4 0.466 2.66 1.1 10.81
12/24/2021 7:00:00 PM 3 37.4 0.466 2.25 1.09 10.35
12/24/2021 7:15:00 PM 2.98 37.364 0.466 2.56 3.42 10.1
12/24/2021 7:30:00 PM 2.98 37.364 0.466 2.58 1.46 10.26
12/24/2021 7:45:00 PM 2.97 37.346 0.466 2.79 1.23 9.76
12/24/2021 8:00:00 PM 2.97 37.346 0.466 2.48 1.39 9.42
12/24/2021 8:15:00 PM 2.97 37.346 0.466 2.67 1.23 9.61
12/24/2021 8:30:00 PM 2.98 37.364 0.466 2.48 1.47 9.64
12/24/2021 8:45:00 PM 2.99 37.382 0.467 2.4 1.23 9.6
12/24/2021 9:00:00 PM 3 37.4 0.467 2.44 1.46 9.03
12/24/2021 9:15:00 PM 3.01 37.418 0.467 2.3 1.07 9.33
12/24/2021 9:30:00 PM 3.02 37.436 0.467 2.51 1.19 9.84
12/24/2021 9:45:00 PM 3.03 37.454 0.467 2.53 1.15 10.08
12/24/2021 10:00:00 PM 3.05 37.49 0.467 2.62 1.68 10.2
12/24/2021 10:15:00 PM 3.07 37.526 0.467 2.63 1.18 10.21
12/24/2021 10:30:00 PM 3.09 37.562 0.464 2.57 1.71 10.25
12/24/2021 10:45:00 PM 3.11 37.598 0.465 2.85 1.25 10.08
12/24/2021 11:00:00 PM 3.12 37.616 0.467 2.95 1.37 9.7
12/24/2021 11:15:00 PM 3.14 37.652 0.467 2.96 2.4 10.01
12/24/2021 11:30:00 PM 3.15 37.67 0.467 3.01 1.28 10.41
12/24/2021 11:45:00 PM 3.16 37.688 0.467 3.18 1.36 9.95
12/25/2021 12:00:00 AM 3.17 37.706 0.467 3.26 1.39 10.2
12/25/2021 12:15:00 AM 3.17 37.706 0.468 3.05 1.4 10.16
12/25/2021 12:30:00 AM 3.18 37.724 0.468 3.2 1.83 9.53
12/25/2021 12:45:00 AM 3.2 37.76 0.468 3.31 1.37 10.1
12/25/2021 1:00:00 AM 3.21 37.778 0.468 3.22 2.4 9.97
12/25/2021 1:15:00 AM 3.22 37.796 0.468 3.08 1.18 9.97
12/25/2021 1:30:00 AM 3.23 37.814 0.468 2.93 1.8 10.06
12/25/2021 1:45:00 AM 3.24 37.832 0.468 2.84 1.5 10.11
12/25/2021 2:00:00 AM 3.26 37.868 0.442 2.89 1.62 10.31
12/25/2021 2:15:00 AM 3.27 37.886 0.468 2.58 4.35 10.27
12/25/2021 2:30:00 AM 3.28 37.904 0.468 3.01 1.18 9.94
12/25/2021 2:45:00 AM 3.28 37.904 0.468 2.82 1.8 9.93
12/25/2021 3:00:00 AM 3.29 37.922 0.468 3.26 1.27 9.92
12/25/2021 3:15:00 AM 3.31 37.958 0.468 2.85 1.54 8.42
12/25/2021 3:30:00 AM 3.32 37.976 0.468 3.18 1.51 9.53
12/25/2021 3:45:00 AM 3.32 37.976 0.469 3.16 1.42 9.76
12/25/2021 4:00:00 AM 3.33 37.994 0.469 2.83 1.29 8.73
12/25/2021 4:15:00 AM 3.35 38.03 0.469 3.15 2.99 9.74
12/25/2021 4:30:00 AM 3.36 38.048 0.469 2.98 1.38 9.8
12/25/2021 4:45:00 AM 3.37 38.066 0.469 3 1.56 9.84
12/25/2021 5:00:00 AM 3.39 38.102 0.469 3.15 1.19 10.03
12/25/2021 5:15:00 AM 3.41 38.138 0.469 3.14 1.38 10.16
12/25/2021 5:30:00 AM 3.43 38.174 0.469 3.23 1.43 10.2
12/25/2021 5:45:00 AM 3.45 38.21 0.469 3.23 1.18 9.84
12/25/2021 6:00:00 AM 3.47 38.246 0.469 3.27 1.06 9.74
12/25/2021 6:15:00 AM 3.49 38.282 0.47 3.36 1.42 9.78
12/25/2021 6:30:00 AM 3.51 38.318 0.47 3.47 1.52 10.02
12/25/2021 6:45:00 AM 3.54 38.372 0.47 3.47 1.39 10.05
12/25/2021 7:00:00 AM 3.56 38.408 0.47 3.5 1.42 10.15
12/25/2021 7:15:00 AM 3.59 38.462 0.47 3.5 1.37 10.18
12/25/2021 7:30:00 AM 3.61 38.498 0.47 3.53 1.4 10.19
12/25/2021 7:45:00 AM 3.63 38.534 0.47 3.68 1.15 10.03
12/25/2021 8:00:00 AM 3.66 38.588 0.47 3.72 1.69 10.24
12/25/2021 8:15:00 AM 3.68 38.624 0.442 3.75 1.43 10.5
12/25/2021 8:30:00 AM 3.71 38.678 0.446 3.68 1.21 10.29
12/25/2021 8:45:00 AM 3.75 38.75 0.452 3.67 1.64 10.23
12/25/2021 9:00:00 AM 3.8 38.84 0.421 3.65 1.73 10.25
12/25/2021 9:15:00 AM 3.86 38.948 0.413 3.7 1.28 10.4
12/25/2021 9:30:00 AM 3.92 39.056 0.419 3.66 3.03 10.73
12/25/2021 9:45:00 AM 3.99 39.182 0.431 3.59 1.31 10.63
12/25/2021 10:00:00 AM 4.03 39.254 0.467 3.65 1.41 10.55
12/25/2021 10:15:00 AM 4.06 39.308 0.468 3.64 2.43 10.64
12/25/2021 10:30:00 AM 4.1 39.38 0.467 3.72 1.15 10.65
12/25/2021 10:45:00 AM 4.15 39.47 0.468 3.61 1.38 10.82
12/25/2021 11:00:00 AM 4.2 39.56 0.468 3.66 1.51 10.94
12/25/2021 11:15:00 AM 4.24 39.632 0.468 3.57 1.37 10.62
12/25/2021 11:30:00 AM 4.28 39.704 0.467 3.46 1.28 10.82
12/25/2021 11:45:00 AM 4.29 39.722 0.46 3.44 1.33 10.73
12/25/2021 12:00:00 PM 4.31 39.758 0.464 3.59 1.47 10.88
12/25/2021 12:15:00 PM 4.36 39.848 0.461 3.7 1.18 10.76
12/25/2021 12:30:00 PM 4.46 40.028 0.457 3.63 1.33 10.88
12/25/2021 12:45:00 PM 4.53 40.154 0.458 3.59 1.79 10.93
12/25/2021 1:00:00 PM 4.55 40.19 0.459 3.65 1.4 10.55
12/25/2021 1:15:00 PM 4.58 40.244 0.459 3.72 1.44 10.76
12/25/2021 1:30:00 PM 4.64 40.352 0.461 3.6 1.09 10.73
12/25/2021 1:45:00 PM 4.64 40.352 0.46 3.7 1.37 10.46
12/25/2021 2:00:00 PM 4.64 40.352 0.46 3.84 1.56 10.64
12/25/2021 2:15:00 PM 4.65 40.37 0.463 3.95 1.35 10.56
12/25/2021 2:30:00 PM 4.65 40.37 0.464 3.96 1.18 9.99
12/25/2021 2:45:00 PM 4.64 40.352 0.461 3.95 1.24 10.27
12/25/2021 3:00:00 PM 4.63 40.334 0.462 3.99 1.54 10.09
12/25/2021 3:15:00 PM 4.62 40.316 0.464 3.98 1.29 10.06
12/25/2021 3:30:00 PM 4.61 40.298 0.464 4.06 1.26 9.82
12/25/2021 3:45:00 PM 4.6 40.28 0.463 4.08 1.41 9.7
12/25/2021 4:00:00 PM 4.58 40.244 0.463 4.13 1.58 9.94
12/25/2021 4:15:00 PM 4.57 40.226 0.466 4.24 1.48 9.88
12/25/2021 4:30:00 PM 4.57 40.226 0.465 3.83 1.24 9.42
12/25/2021 4:45:00 PM 4.57 40.226 0.459 3.85 1.56 9.57
12/25/2021 5:00:00 PM 4.6 40.28 0.457 3.83 1.62 9.41
12/25/2021 5:15:00 PM 4.6 40.28 0.462 3.77 1.65 9.06
12/25/2021 5:30:00 PM 4.59 40.262 0.399 3.87 1.76 8.98
12/25/2021 5:45:00 PM 4.59 40.262 0.408 3.92 2.45 9.19
12/25/2021 6:00:00 PM 4.6 40.28 0.391 4.01 1.55 9.08
12/25/2021 6:15:00 PM 4.59 40.262 0.396 3.97 2.4 8.99
12/25/2021 6:30:00 PM 4.58 40.244 0.405 4.03 1.74 8.94
12/25/2021 6:45:00 PM 4.58 40.244 0.38 4.05 2.29 8.75
12/25/2021 7:00:00 PM 4.58 40.244 0.461 4.07 2.07 8.58
12/25/2021 7:15:00 PM 4.58 40.244 0.37 4.06 1.86 8.49
12/25/2021 7:30:00 PM 4.58 40.244 0.404 4.13 2.08 8.03
12/25/2021 7:45:00 PM 4.57 40.226 0.455 4.16 1.74 8.69
12/25/2021 8:00:00 PM 4.58 40.244 0.437 4.19 1.89 8.51
12/25/2021 8:15:00 PM 4.57 40.226 0.423 4.34 2.06 8.71
12/25/2021 8:30:00 PM 4.58 40.244 0.423 4.29 1.92 8.73
12/25/2021 8:45:00 PM 4.59 40.262 0.39 4.12 1.6 8.85
12/25/2021 9:00:00 PM 4.58 40.244 0.409 4.21 1.38 8.64
12/25/2021 9:15:00 PM 4.59 40.262 0.424 4.3 1.76 9.08
12/25/2021 9:30:00 PM 4.59 40.262 0.411 4.4 1.56 8.17
12/25/2021 9:45:00 PM 4.58 40.244 0.446 4.37 2.09 9.35
12/25/2021 10:00:00 PM 4.58 40.244 0.464 4.51 1.46 9.99
12/25/2021 10:15:00 PM 4.6 40.28 0.408 4.55 1.56 8.94
12/25/2021 10:30:00 PM 4.62 40.316 0.438 4.47 1.76 8.83
12/25/2021 10:45:00 PM 4.63 40.334 0.473 4.54 1.54 8.37
12/25/2021 11:00:00 PM 4.64 40.352 0.473 4.56 1.36 8.6
12/25/2021 11:15:00 PM 4.65 40.37 0.474 4.47 1.57 9.71
12/25/2021 11:30:00 PM 4.65 40.37 0.474 3.96 1.65 8.79
12/25/2021 11:45:00 PM 4.66 40.388 0.474 3.83 1.4 8.51
12/26/2021 12:00:00 AM 4.65 40.37 0.474 4.29 1.45 8.66
12/26/2021 12:15:00 AM 4.64 40.352 0.474 4.77 1.6 8.43
12/26/2021 12:30:00 AM 4.63 40.334 0.474 4.73 1.72 8.16
12/26/2021 12:45:00 AM 4.62 40.316 0.474 4.57 1.48 7.88
12/26/2021 1:00:00 AM 4.62 40.316 0.474 4.27 1.44 6.16
12/26/2021 1:15:00 AM 4.62 40.316 0.475 4.22 1.43 7.3
12/26/2021 1:30:00 AM 4.63 40.334 0.475 4.33 1.42 7.33
12/26/2021 1:45:00 AM 4.63 40.334 0.475 4.45 1.53 8.13
12/26/2021 2:00:00 AM 4.63 40.334 0.474 4.53 1.86 9.39
12/26/2021 2:15:00 AM 4.63 40.334 0.474 4.6 1.47 8.7
12/26/2021 2:30:00 AM 4.62 40.316 0.475 4.61 1.83 9.34
12/26/2021 2:45:00 AM 4.61 40.298 0.475 4.74 1.43 9.52
12/26/2021 3:00:00 AM 4.6 40.28 0.475 4.99 1.9 9.82
12/26/2021 3:15:00 AM 4.58 40.244 0.475 5.26 2.11 9.07
12/26/2021 3:30:00 AM 4.56 40.208 0.475 5.38 2.54 8.67
12/26/2021 3:45:00 AM 4.53 40.154 0.475 5.5 1.37 9.04
12/26/2021 4:00:00 AM 4.51 40.118 0.475 5.56 1.75 9.67
12/26/2021 4:15:00 AM 4.49 40.082 0.475 5.61 1.82 9.44
12/26/2021 4:30:00 AM 4.48 40.064 0.475 5.82 1.74 9.28
12/26/2021 4:45:00 AM 4.46 40.028 0.475 5.89 1.48 9.34
12/26/2021 5:00:00 AM 4.45 40.01 0.475 5.93 1.59 9.13
12/26/2021 5:15:00 AM 4.43 39.974 0.475 5.8 1.42 10.15
12/26/2021 5:30:00 AM 4.42 39.956 0.475 5.68 1.71 9.76
12/26/2021 5:45:00 AM 4.42 39.956 0.475 5.48 1.71 9.7
12/26/2021 6:00:00 AM 4.41 39.938 0.475 5.38 1.62 10.38
12/26/2021 6:15:00 AM 4.4 39.92 0.475 5.51 1.77 9.37
12/26/2021 6:30:00 AM 4.41 39.938 0.475 5.44 1.76 9.25
12/26/2021 6:45:00 AM 4.41 39.938 0.475 5.47 1.61 9.26
12/26/2021 7:00:00 AM 4.41 39.938 0.475 5.48 1.74 9.11
12/26/2021 7:15:00 AM 4.41 39.938 0.472 5.43 1.52 8.78
12/26/2021 7:30:00 AM 4.43 39.974 0.475 5.13 1.99 8.84
12/26/2021 7:45:00 AM 4.45 40.01 0.475 5.08 2.06 9.34
12/26/2021 8:00:00 AM 4.47 40.046 0.475 5.25 1.72 8.9
12/26/2021 8:15:00 AM 4.48 40.064 0.475 5.09 1.32 8.86
12/26/2021 8:30:00 AM 4.51 40.118 0.475 4.55 1.61 8.74
12/26/2021 8:45:00 AM 4.54 40.172 0.475 4.94 1.83 8.9
12/26/2021 9:00:00 AM 4.59 40.262 0.475 4.77 1.38 8.88
12/26/2021 9:15:00 AM 4.65 40.37 0.475 4.75 3.57 8.96
12/26/2021 9:30:00 AM 4.7 40.46 0.474 4.7 1.56 8.83
12/26/2021 9:45:00 AM 4.76 40.568 0.474 4.93 1.84 8.68
12/26/2021 10:00:00 AM 4.83 40.694 0.474 4.94 1.54 9.1
12/26/2021 10:15:00 AM 4.89 40.802 0.474 4.96 1.5 8.42
12/26/2021 10:30:00 AM 4.99 40.982 0.473 4.98 1.51 8.82
12/26/2021 10:45:00 AM 5.07 41.126 0.473 4.88 1.72 8.95
12/26/2021 11:00:00 AM 5.18 41.324 0.473 4.58 1.39 8.62
12/26/2021 11:15:00 AM 5.3 41.54 0.472 4.4 1.62 8.89
12/26/2021 11:30:00 AM 5.46 41.828 0.472 4.33 1.87 9.11
12/26/2021 11:45:00 AM 5.62 42.116 0.471 4.01 1.33 9.18
12/26/2021 12:00:00 PM 5.82 42.476 0.471 3.52 1.64 9.4
12/26/2021 12:15:00 PM 6.03 42.854 0.471 3.73 1.84 9.16
12/26/2021 12:30:00 PM 6.2 43.16 0.471 3.92 2.14 9.43
12/26/2021 12:45:00 PM 6.4 43.52 0.47 4.48 1.42 9.03
12/26/2021 1:00:00 PM 6.57 43.826 0.47 4.95 1.52 8.9
12/26/2021 1:15:00 PM 6.7 44.06 0.47 5.79 1.33 8.61
12/26/2021 1:30:00 PM 6.8 44.24 0.47 6.42 1.44 8.73
12/26/2021 1:45:00 PM 6.87 44.366 0.47 6.81 1.67 8.18
12/26/2021 2:00:00 PM 6.92 44.456 0.47 7.24 1.58 7.91
12/26/2021 2:15:00 PM 6.93 44.474 0.47 7.46 1.4 8.02
12/26/2021 2:30:00 PM 6.93 44.474 0.471 7.67 1.49 7.99
12/26/2021 2:45:00 PM 6.88 44.384 0.471 7.72 1.45 8.14
12/26/2021 3:00:00 PM 6.79 44.222 0.471 7.79 2.63 8.12
12/26/2021 3:15:00 PM 6.65 43.97 0.471 7.85 1.58 7.84
12/26/2021 3:30:00 PM 6.45 43.61 0.471 7.93 1.53 7.66
12/26/2021 3:45:00 PM 6.37 43.466 0.471 7.89 1.55 7.7
12/26/2021 4:00:00 PM 6.2 43.16 0.471 7.72 1.67 7.48
12/26/2021 4:15:00 PM 6.12 43.016 0.47 7.52 1.35 7.48
12/26/2021 4:30:00 PM 5.98 42.764 0.471 7.29 1.73 7.45
12/26/2021 4:45:00 PM 5.88 42.584 0.471 7.21 1.38 7.32
12/26/2021 5:00:00 PM 5.78 42.404 0.471 7.09 2.66 7.45
12/26/2021 5:15:00 PM 5.69 42.242 0.471 6.96 1.79 7.46
12/26/2021 5:30:00 PM 5.61 42.098 0.471 6.86 1.67 6.94
12/26/2021 5:45:00 PM 5.53 41.954 0.47 6.79 1.66 6.92
12/26/2021 6:00:00 PM 5.46 41.828 0.471 6.73 1.51 7.1
12/26/2021 6:15:00 PM 5.42 41.756 0.471 6.65 1.83 6.79
12/26/2021 6:30:00 PM 5.36 41.648 0.471 6.58 1.74 7.1
12/26/2021 6:45:00 PM 5.32 41.576 0.471 6.57 2.27 7.08
12/26/2021 7:00:00 PM 5.29 41.522 0.471 6.54 2.18 7.25
12/26/2021 7:15:00 PM 5.27 41.486 0.471 6.54 1.77 7.4
12/26/2021 7:30:00 PM 5.25 41.45 0.471 6.59 1.91 6.69
12/26/2021 7:45:00 PM 5.23 41.414 0.471 6.57 2.11 6.99
12/26/2021 8:00:00 PM 5.2 41.36 0.471 6.49 1.9 6.98
12/26/2021 8:15:00 PM 5.19 41.342 0.471 6.41 1.97 7
12/26/2021 8:30:00 PM 5.17 41.306 0.471 6.44 1.8 6.9
12/26/2021 8:45:00 PM 5.15 41.27 0.471 6.4 2.25 6.52
12/26/2021 9:00:00 PM 5.12 41.216 0.471 6.47 2.39 6.91
12/26/2021 9:15:00 PM 5.1 41.18 0.471 6.43 2.24 6.89
12/26/2021 9:30:00 PM 5.07 41.126 0.471 6.37 2.18 6.85
12/26/2021 9:45:00 PM 5.05 41.09 0.471 6.39 3.38 6.85
12/26/2021 10:00:00 PM 5.02 41.036 0.471 6.37 3.68 6.61
12/26/2021 10:15:00 PM 4.99 40.982 0.469 6.32 3.35 6.8
12/26/2021 10:30:00 PM 4.97 40.946 0.464 6.08 3.29 6.78
12/26/2021 10:45:00 PM 4.95 40.91 0.472 5.99 3.32 6.92
12/26/2021 11:00:00 PM 4.93 40.874 0.472 5.87 3.33 6.77
12/26/2021 11:15:00 PM 4.9 40.82 0.472 5.92 3.59 6.45
12/26/2021 11:30:00 PM 4.89 40.802 0.472 5.88 3.62 6.23
12/26/2021 11:45:00 PM 4.89 40.802 0.387 5.81 4.01 6.45
12/27/2021 12:00:00 AM 4.87 40.766 0.473 6.07 4.06 6.07
12/27/2021 12:15:00 AM 4.87 40.766 0.472 6.03 5.52 6.44
12/27/2021 12:30:00 AM 4.83 40.694 0.473 6.07 3.77 5.83
12/27/2021 12:45:00 AM 4.82 40.676 0.473 5.93 2.24 6.62
12/27/2021 1:00:00 AM 4.81 40.658 0.473 6 2.12 6.56
12/27/2021 1:15:00 AM 4.78 40.604 0.473 6 2.02 6.46
12/27/2021 1:30:00 AM 4.76 40.568 0.473 6.01 2.05 6.53
12/27/2021 1:45:00 AM 4.74 40.532 0.473 5.99 1.9 6.73
12/27/2021 2:00:00 AM 4.74 40.532 0.473 5.97 3.17 6.37
12/27/2021 2:15:00 AM 4.73 40.514 0.473 6.02 3.26 6.09
12/27/2021 2:30:00 AM 4.73 40.514 0.473 6.12 3.65 5.38
12/27/2021 2:45:00 AM 4.74 40.532 0.474 6.18 2.28 5.72
12/27/2021 3:00:00 AM 4.75 40.55 0.474 6.08 4.22 5.78
12/27/2021 3:15:00 AM 4.75 40.55 0.474 6.05 4.26 5.51
12/27/2021 3:30:00 AM 4.76 40.568 0.474 5.94 6.09 6.28
12/27/2021 3:45:00 AM 4.75 40.55 0.474 5.86 5.23 5.67
12/27/2021 4:00:00 AM 4.77 40.586 0.474 5.65 4.66 6.65
12/27/2021 4:15:00 AM 4.78 40.604 0.474 5.5 4.13 6.72
12/27/2021 4:30:00 AM 4.81 40.658 0.474 5.37 5.1 5.98
12/27/2021 4:45:00 AM 4.83 40.694 0.474 5.29 4.36 6.3
12/27/2021 5:00:00 AM 4.85 40.73 0.474 5.31 4.95 5.94
12/27/2021 5:15:00 AM 4.86 40.748 0.474 5.15 5.46 6.3
12/27/2021 5:30:00 AM 4.89 40.802 0.472 5.22 5.09 6.3
12/27/2021 5:45:00 AM 4.9 40.82 0.474 5.4 5.72 5.99
12/27/2021 6:00:00 AM 4.92 40.856 0.475 5.14 4.88 5.8
12/27/2021 6:15:00 AM 4.96 40.928 0.474 4.96 4.46 5.98
12/27/2021 6:30:00 AM 4.97 40.946 0.474 5.57 5.9 6.32
12/27/2021 6:45:00 AM 5 41 0.474 5.56 4.19 6.13
12/27/2021 7:00:00 AM 5.02 41.036 0.472 5.51 5.31 6.24
12/27/2021 7:15:00 AM 5.04 41.072 0.474 5.42 3.89 5.61
12/27/2021 7:30:00 AM 5.05 41.09 0.474 5.42 4.77 5.59
12/27/2021 7:45:00 AM 5.06 41.108 0.474 4.63 5.16 6.08
12/27/2021 8:00:00 AM 5.07 41.126 0.474 5.12 5.06 5.79
12/27/2021 8:15:00 AM 5.08 41.144 0.474 5.02 3.9 5.74
12/27/2021 8:30:00 AM 5.11 41.198 0.474 5.09 3.28 5.52
12/27/2021 8:45:00 AM 5.14 41.252 0.473 5.04 3.92 5.16
12/27/2021 9:00:00 AM 5.16 41.288 0.473 5.2 3.99 5.01
12/27/2021 9:15:00 AM 5.18 41.324 0.473 5.2 3.98 5.51
12/27/2021 9:30:00 AM 5.18 41.324 0.473 5.17 3.71 5.6
12/27/2021 9:45:00 AM 5.18 41.324 0.472 5.28 3.87 6.02
12/27/2021 10:00:00 AM 5.01 41.018 0.472 5.3 4.21 5.61
12/27/2021 10:15:00 AM 4.58 40.244 0.467 5.19 4.74 5.49
12/27/2021 10:30:00 AM 4.35 39.83 0.468 4.99 3.13 5.85
12/27/2021 10:45:00 AM 4.18 39.524 0.465 4.51 4.1 6.31
12/27/2021 11:00:00 AM 4.1 39.38 0.466 4.52 3.84 5.86
12/27/2021 11:15:00 AM 4.13 39.434 0.466 4.59 3.85 6.04
12/27/2021 11:30:00 AM 3.93 39.074 0.466 4.72 4.62 5.99
12/27/2021 11:45:00 AM 3.84 38.912 0.464 4.54 3.86 6.13
12/27/2021 12:00:00 PM 3.74 38.732 0.463 4.34 2.64 6.23
12/27/2021 12:15:00 PM 3.82 38.876 0.462 4.29 3.78 6.21
12/27/2021 12:30:00 PM 3.95 39.11 0.463 4.13 3.32 6.54
12/27/2021 12:45:00 PM 4.11 39.398 0.461 4.3 3.71 6.47
12/27/2021 1:00:00 PM 4.21 39.578 0.46 4.45 4.03 6.49
12/27/2021 1:15:00 PM 4.32 39.776 0.46 4.4 4.02 5.81
12/27/2021 1:30:00 PM 4.46 40.028 0.464 4.63 3.98 6.5
12/27/2021 1:45:00 PM 4.58 40.244 0.465 4.61 4.63 6.51
12/27/2021 2:00:00 PM 4.65 40.37 0.466 4.75 3.63 6.78
12/27/2021 2:15:00 PM 4.74 40.532 0.466 4.76 4.15 6.29
12/27/2021 2:30:00 PM 4.78 40.604 0.466 4.81 3.65 6.19
12/27/2021 2:45:00 PM 4.84 40.712 0.466 4.91 3.17 5.95
12/27/2021 3:00:00 PM 4.84 40.712 0.467 4.71 4.04 5.85
12/27/2021 3:15:00 PM 4.84 40.712 0.467 4.58 3.63 5.43
12/27/2021 3:30:00 PM 4.82 40.676 0.461 4.51 3.52 5.67
12/27/2021 3:45:00 PM 4.8 40.64 0.46 4.64 4.27 5.65
12/27/2021 4:00:00 PM 4.78 40.604 0.464 4.57 5.15 5.12
12/27/2021 4:15:00 PM 4.75 40.55 0.464 4.6 3.2 5.96
12/27/2021 4:30:00 PM 4.73 40.514 0.465 4.61 2.89 7.13
12/27/2021 4:45:00 PM 4.68 40.424 0.465 4.62 4.04 6.06
12/27/2021 5:00:00 PM 4.65 40.37 0.463 4.6 3.62 5.21
12/27/2021 5:15:00 PM 4.63 40.334 0.456 4.65 3.18 6.43
12/27/2021 5:30:00 PM 4.6 40.28 0.471 4.76 2.9 8.03
12/27/2021 5:45:00 PM 4.58 40.244 0.463 4.58 2.99 7.25
12/27/2021 6:00:00 PM 4.56 40.208 0.472 4.5 3.23 6.63
12/27/2021 6:15:00 PM 4.53 40.154 0.463 4.44 2.92 7.53
12/27/2021 6:30:00 PM 4.49 40.082 0.461 4.63 3.04 5.97
12/27/2021 6:45:00 PM 4.47 40.046 0.465 4.57 2.79 5.28
12/27/2021 7:00:00 PM 4.45 40.01 0.427 4.43 3.8 5.7
12/27/2021 7:15:00 PM 4.42 39.956 0.471 4.15 3.26 5.88
12/27/2021 7:30:00 PM 4.4 39.92 0.453 3.79 2.76 5.51
12/27/2021 7:45:00 PM 4.38 39.884 0.414 3.88 3.73 4.68
12/27/2021 8:00:00 PM 4.36 39.848 0.467 4.05 3.7 5.26
12/27/2021 8:15:00 PM 4.35 39.83 0.469 3.87 3.67 4.97
12/27/2021 8:30:00 PM 4.33 39.794 0.42 3.9 4.04 5.03
12/27/2021 8:45:00 PM 4.32 39.776 0.468 3.93 3.68 5.01
12/27/2021 9:00:00 PM 4.31 39.758 0.436 3.96 3.71 4.91
12/27/2021 9:15:00 PM 4.29 39.722 0.463 3.94 3.69 4.65
12/27/2021 9:30:00 PM 4.28 39.704 0.468 3.91 4.09 4.82
12/27/2021 9:45:00 PM 4.26 39.668 0.467 3.82 3.01 5.24
12/27/2021 10:00:00 PM 4.25 39.65 0.468 3.63 3.73 5.13
12/27/2021 10:15:00 PM 4.25 39.65 0.468 3.79 3.53 4.79
12/27/2021 10:30:00 PM 4.24 39.632 0.468 4.28 2.89 5.22
12/27/2021 10:45:00 PM 4.22 39.596 0.468 4.38 3.28 5.01
12/27/2021 11:00:00 PM 4.19 39.542 0.468 4.39 3.71 5.1
12/27/2021 11:15:00 PM 4.18 39.524 0.468 4.21 3.35 5.75
12/27/2021 11:30:00 PM 4.18 39.524 0.468 4.07 3.55 8.03
12/27/2021 11:45:00 PM 4.17 39.506 0.468 4.19 3.35 5.94
12/28/2021 12:00:00 AM 4.18 39.524 0.468 4.21 2.89 5.18
12/28/2021 12:15:00 AM 4.16 39.488 0.468 4.59 4.44 5.37
12/28/2021 12:30:00 AM 4.15 39.47 0.468 4.74 4.5 5.72
12/28/2021 12:45:00 AM 4.14 39.452 0.468 4.66 4.1 5.64
12/28/2021 1:00:00 AM 4.14 39.452 0.468 4.62 4.04 5.51
12/28/2021 1:15:00 AM 4.13 39.434 0.469 4.54 3.58 7.2
12/28/2021 1:30:00 AM 4.14 39.452 0.469 4.42 2.63 7.56
12/28/2021 1:45:00 AM 4.13 39.434 0.469 4.55 192.1 6.38
12/28/2021 2:00:00 AM 4.12 39.416 0.469 4.53 3.33 6.01
12/28/2021 2:15:00 AM 4.1 39.38 0.469 4.5 6.29 5.95
12/28/2021 2:30:00 AM 4.08 39.344 0.469 4.45 3.08 6.22
12/28/2021 2:45:00 AM 4.06 39.308 0.469 4.6 9.47 5.69
12/28/2021 3:00:00 AM 4.04 39.272 0.469 4.59 3.03 5.52
12/28/2021 3:15:00 AM 4.02 39.236 0.469 4.72 15.6 5.53
12/28/2021 3:30:00 AM 4.01 39.218 0.469 4.98 2.12 5.89
12/28/2021 3:45:00 AM 3.99 39.182 0.468 5.01 3.21 6.01
12/28/2021 4:00:00 AM 3.97 39.146 0.468 4.86 3.38 6.06
12/28/2021 4:15:00 AM 3.95 39.11 0.468 4.63 6.32 5.79
12/28/2021 4:30:00 AM 3.93 39.074 0.468 4.91 5.8 5.98
12/28/2021 4:45:00 AM 3.92 39.056 0.468 4.85 4.1 5.86
12/28/2021 5:00:00 AM 3.91 39.038 0.468 5 3.44 6.13
12/28/2021 5:15:00 AM 3.89 39.002 0.467 4.69 4.51 5.88
12/28/2021 5:30:00 AM 3.88 38.984 0.467 5.22 3.56 5.61
12/28/2021 5:45:00 AM 3.88 38.984 0.467 5.04 3.53 5.55
12/28/2021 6:00:00 AM 3.87 38.966 0.467 5 3.65 6.01
12/28/2021 6:15:00 AM 3.86 38.948 0.467 4.86 2.91 5.86
12/28/2021 6:30:00 AM 3.85 38.93 0.466 4.79 7.07 6.03
12/28/2021 6:45:00 AM 3.85 38.93 0.466 4.81 3.38 5.69
12/28/2021 7:00:00 AM 3.84 38.912 0.466 4.77 3.6 6.04
12/28/2021 7:15:00 AM 3.83 38.894 0.466 4.72 3.7 6.05
12/28/2021 7:30:00 AM 3.81 38.858 0.466 4.69 4.33 5.4
12/28/2021 7:45:00 AM 3.8 38.84 0.465 4.71 2.78 5.93
12/28/2021 8:00:00 AM 3.8 38.84 0.465 4.73 2.9 6.06
12/28/2021 8:15:00 AM 3.78 38.804 0.465 5 1.37 6.01
12/28/2021 8:30:00 AM 3.77 38.786 0.465 5.02 1.36 6.23
12/28/2021 8:45:00 AM 3.78 38.804 0.464 5.07 1.26 6.15
12/28/2021 9:00:00 AM 3.8 38.84 0.464 4.95 1.39 5.04
12/28/2021 9:15:00 AM 3.8 38.84 0.464 4.81 1.15 5.62
12/28/2021 9:30:00 AM 3.81 38.858 0.463 4.82 1.2 5.13
12/28/2021 9:45:00 AM 3.86 38.948 0.463 4.72 1.17 6.53
12/28/2021 10:00:00 AM 3.94 39.092 0.462 4.6 1.36 5.91
12/28/2021 10:15:00 AM 3.99 39.182 0.462 4.52 1.22 6.1
12/28/2021 10:30:00 AM 4.05 39.29 0.462 4.54 1.29 6.01
12/28/2021 10:45:00 AM 4.11 39.398 0.461 4.27 1.13 6.35
12/28/2021 11:00:00 AM 4.14 39.452 0.461 4.37 1.41 6.49
12/28/2021 11:15:00 AM 4.18 39.524 0.461 4.56 1.26 6.16
12/28/2021 11:30:00 AM 4.2 39.56 0.461 4.79 1.15 6.08
12/28/2021 11:45:00 AM 4.23 39.614 0.46 4.72 4.18 6.59
12/28/2021 12:00:00 PM 4.25 39.65 0.46 4.76 1.31 6.2
12/28/2021 12:15:00 PM 4.26 39.668 0.46 4.68 1.01 6.46
12/28/2021 12:30:00 PM 4.27 39.686 0.46 4.57 1.12 6.69
12/28/2021 12:45:00 PM 4.29 39.722 0.459 4.45 1.33 6.35
12/28/2021 1:00:00 PM 4.3 39.74 0.459 4.29 1.28 6.37
12/28/2021 1:15:00 PM 4.31 39.758 0.459 4.27 1.35 6.42
12/28/2021 1:30:00 PM 4.31 39.758 0.459 4.2 1.34 6.1
12/28/2021 1:45:00 PM 4.3 39.74 0.459 4.15 1.49 5.85
12/28/2021 2:00:00 PM 4.29 39.722 0.458 4.11 1.48 5.97
12/28/2021 2:15:00 PM 4.29 39.722 0.458 4.09 1.34 5.8
12/28/2021 2:30:00 PM 4.29 39.722 0.458 4.08 1.21 6.25
12/28/2021 2:45:00 PM 4.28 39.704 0.458 4.05 1.48 6.33
12/28/2021 3:00:00 PM 4.27 39.686 0.458 4.03 1.33 6.64
12/28/2021 3:15:00 PM 4.26 39.668 0.458 4.04 1.47 6.77
12/28/2021 3:30:00 PM 4.26 39.668 0.458 3.98 1.87 6.42
12/28/2021 3:45:00 PM 4.25 39.65 0.458 3.94 1.5 6
12/28/2021 4:00:00 PM 4.24 39.632 0.458 3.88 1.38 5.23
12/28/2021 4:15:00 PM 4.23 39.614 0.458 3.79 1.41 4.92
12/28/2021 4:30:00 PM 4.22 39.596 0.458 3.98 1.9 4.72
12/28/2021 4:45:00 PM 4.21 39.578 0.458 4.09 1.23 4.51
12/28/2021 5:00:00 PM 4.2 39.56 0.458 4.07 1.51 4.53
12/28/2021 5:15:00 PM 4.19 39.542 0.458 3.88 1.52 4.41
12/28/2021 5:30:00 PM 4.19 39.542 0.458 3.88 1.86 4.47
12/28/2021 5:45:00 PM 4.18 39.524 0.458 3.97 1.55 4.71
12/28/2021 6:00:00 PM 4.17 39.506 0.458 3.98 1.44 4.36
12/28/2021 6:15:00 PM 4.16 39.488 0.458 4 1.6 4.48
12/28/2021 6:30:00 PM 4.16 39.488 0.458 3.99 1.66 4.37
12/28/2021 6:45:00 PM 4.16 39.488 0.458 3.98 1.76 4.46
12/28/2021 7:00:00 PM 4.15 39.47 0.458 3.89 1.81 4.26
12/28/2021 7:15:00 PM 4.15 39.47 0.458 3.99 2.19 4.12
12/28/2021 7:30:00 PM 4.15 39.47 0.437 3.95 1.47 4.11
12/28/2021 7:45:00 PM 4.15 39.47 0.459 4.09 1.87 4.06
12/28/2021 8:00:00 PM 4.16 39.488 0.458 4.08 1.74 4.03
12/28/2021 8:15:00 PM 4.16 39.488 0.459 4.1 1.38 4.02
12/28/2021 8:30:00 PM 4.17 39.506 0.457 4.14 1.54 4.26
12/28/2021 8:45:00 PM 4.17 39.506 0.459 4.09 1.56 3.83
12/28/2021 9:00:00 PM 4.18 39.524 0.46 4.08 1.61 4.06
12/28/2021 9:15:00 PM 4.18 39.524 0.46 4.24 1.54 3.62
12/28/2021 9:30:00 PM 4.18 39.524 0.46 4.35 1.63 4.1
12/28/2021 9:45:00 PM 4.18 39.524 0.46 4.35 1.44 3.43
12/28/2021 10:00:00 PM 4.19 39.542 0.46 4.35 1.61 3.46
12/28/2021 10:15:00 PM 4.2 39.56 0.46 4.46 1.75 3.61
12/28/2021 10:30:00 PM 4.2 39.56 0.46 4.45 1.61 3.65
12/28/2021 10:45:00 PM 4.21 39.578 0.46 4.53 1.5 3.62
12/28/2021 11:00:00 PM 4.21 39.578 0.461 4.54 1.76 3.62
12/28/2021 11:15:00 PM 4.21 39.578 0.461 4.44 1.57 3.96
12/28/2021 11:30:00 PM 4.21 39.578 0.461 4.44 1.65 3.74
12/28/2021 11:45:00 PM 4.22 39.596 0.461 4.48 1.53 3.67
12/29/2021 12:00:00 AM 4.22 39.596 0.46 4.43 1.61 3.55
12/29/2021 12:15:00 AM 4.23 39.614 0.461 4.45 1.44 3.87
12/29/2021 12:30:00 AM 4.23 39.614 0.461 4.41 1.46 3.67
12/29/2021 12:45:00 AM 4.23 39.614 0.461 4.41 1.51 3.44
12/29/2021 1:00:00 AM 4.23 39.614 0.46 4.38 1.77 3.72
12/29/2021 1:15:00 AM 4.23 39.614 0.46 4.46 1.75 3.62
12/29/2021 1:30:00 AM 4.23 39.614 0.459 4.44 1.69 3.21
12/29/2021 1:45:00 AM 4.23 39.614 0.458 4.41 1.58 3.41
12/29/2021 2:00:00 AM 4.24 39.632 0.458 4.4 1.67 3.22
12/29/2021 2:15:00 AM 4.25 39.65 0.459 4.5 1.71 3.27
12/29/2021 2:30:00 AM 4.26 39.668 0.46 4.49 2.14 3.31
12/29/2021 2:45:00 AM 4.27 39.686 0.46 4.43 1.64 3.63
12/29/2021 3:00:00 AM 4.28 39.704 0.46 4.7 1.72 3.49
12/29/2021 3:15:00 AM 4.29 39.722 0.46 4.73 1.8 3.17
12/29/2021 3:30:00 AM 4.3 39.74 0.46 4.72 1.8 3.31
12/29/2021 3:45:00 AM 4.31 39.758 0.461 4.74 2.07 3.31
12/29/2021 4:00:00 AM 4.31 39.758 0.461 4.76 1.65 3.38
12/29/2021 4:15:00 AM 4.32 39.776 0.461 4.79 1.56 3.91
12/29/2021 4:30:00 AM 4.33 39.794 0.461 4.82 1.88 3.88
12/29/2021 4:45:00 AM 4.34 39.812 0.461 4.78 1.94 3.18
12/29/2021 5:00:00 AM 4.35 39.83 0.461 4.79 1.93 3.59
12/29/2021 5:15:00 AM 4.36 39.848 0.461 4.88 1.67 3.96
12/29/2021 5:30:00 AM 4.37 39.866 0.461 4.91 1.6 3.8
12/29/2021 5:45:00 AM 4.38 39.884 0.461 4.91 1.64 3.91
12/29/2021 6:00:00 AM 4.39 39.902 0.461 4.88 1.82 3.9
12/29/2021 6:15:00 AM 4.4 39.92 0.46 4.86 1.74 3.78
12/29/2021 6:30:00 AM 4.41 39.938 0.461 4.85 1.51 3.84
12/29/2021 6:45:00 AM 4.42 39.956 0.46 4.87 1.59 4.04
12/29/2021 7:00:00 AM 4.43 39.974 0.46 4.92 1.65 4.04
12/29/2021 7:15:00 AM 4.44 39.992 0.46 4.86 1.49 3.81
12/29/2021 7:30:00 AM 4.44 39.992 0.46 4.84 1.52 3.59
12/29/2021 7:45:00 AM 4.45 40.01 0.46 4.89 1.8 3.14
12/29/2021 8:00:00 AM 4.46 40.028 0.46 4.88 1.58 3.48
12/29/2021 8:15:00 AM 4.47 40.046 0.459 4.89 51.67 3.47
12/29/2021 8:30:00 AM 4.49 40.082 0.459 4.82 2.35 3.73
12/29/2021 8:45:00 AM 4.51 40.118 0.459 4.76 1.71 3.75
12/29/2021 9:00:00 AM 4.53 40.154 0.458 4.69 1.64 3.94
12/29/2021 9:15:00 AM 4.55 40.19 0.458 4.62 2.73 3.72
12/29/2021 9:30:00 AM 4.58 40.244 0.459 4.5 1.51 3.73
12/29/2021 9:45:00 AM 4.6 40.28 0.457 4.51 1.62 3.82
12/29/2021 10:00:00 AM 4.61 40.298 0.457 4.53 1.6 3.83
12/29/2021 10:15:00 AM 4.65 40.37 0.457 4.46 1.7 3.76
12/29/2021 10:30:00 AM 4.71 40.478 0.456 4.38 1.59 4.04
12/29/2021 10:45:00 AM 4.78 40.604 0.457 4.06 1.86 3.98
12/29/2021 11:00:00 AM 4.84 40.712 0.456 4.03 1.67 3.71
12/29/2021 11:15:00 AM 4.93 40.874 0.456 3.92 1.9 4.28
12/29/2021 11:30:00 AM 5.05 41.09 0.456 3.79 1.72 4.14
12/29/2021 11:45:00 AM 5.16 41.288 0.458 3.74 1.42 3.82
12/29/2021 12:00:00 PM 5.27 41.486 0.458 3.77 1.6 4.13
12/29/2021 12:15:00 PM 5.42 41.756 0.457 3.69 1.56 3.85
12/29/2021 12:30:00 PM 5.57 42.026 0.442 3.81 1.72 3.66
12/29/2021 12:45:00 PM 5.71 42.278 0.443 3.97 1.6 3.63
12/29/2021 1:00:00 PM 5.86 42.548 0.444 4.09 2.58 3.54
12/29/2021 1:15:00 PM 5.96 42.728 0.45 4.53 1.94 3.47
12/29/2021 1:30:00 PM 6.05 42.89 0.453 4.98 1.66 3.01
12/29/2021 1:45:00 PM 6.13 43.034 0.453 5.53 1.75 2.76
12/29/2021 2:00:00 PM 6.15 43.07 0.453 5.73 2.03 2.87
12/29/2021 2:15:00 PM 6.16 43.088 0.454 5.78 1.64 2.98
12/29/2021 2:30:00 PM 6.08 42.944 0.454 5.9 1.89 3.14
12/29/2021 2:45:00 PM 5.98 42.764 0.454 6.19 2.02 3.26
12/29/2021 3:00:00 PM 5.91 42.638 0.454 6.15 1.58 3.17
12/29/2021 3:15:00 PM 5.83 42.494 0.454 6.07 1.62 3.12
12/29/2021 3:30:00 PM 5.73 42.314 0.455 6.02 1.69 3.14
12/29/2021 3:45:00 PM 5.64 42.152 0.454 6 1.65 3.09
12/29/2021 4:00:00 PM 5.55 41.99 0.455 5.87 1.79 2.9
12/29/2021 4:15:00 PM 5.46 41.828 0.453 5.4 1.95 2.96
12/29/2021 4:30:00 PM 5.4 41.72 0.454 5.59 1.76 3.03
12/29/2021 4:45:00 PM 5.34 41.612 0.454 5.15 1.54 2.97
12/29/2021 5:00:00 PM 5.3 41.54 0.454 4.91 1.66 2.91
12/29/2021 5:15:00 PM 5.26 41.468 0.455 4.62 1.76 2.95
12/29/2021 5:30:00 PM 5.24 41.432 0.456 4.24 1.85 2.82
12/29/2021 5:45:00 PM 5.22 41.396 0.429 4.02 2.42 3
12/29/2021 6:00:00 PM 5.21 41.378 0.456 3.79 2.2 2.8
12/29/2021 6:15:00 PM 5.2 41.36 0.458 3.55 1.86 2.67
12/29/2021 6:30:00 PM 5.19 41.342 0.403 3.36 2.15 2.79
12/29/2021 6:45:00 PM 5.19 41.342 0.353 3.32 2.22 2.68
12/29/2021 7:00:00 PM 5.2 41.36 0.455 3.54 1.99 2.62
12/29/2021 7:15:00 PM 5.2 41.36 0.433 3.68 2.92 2.54
12/29/2021 7:30:00 PM 5.21 41.378 0.397 3.35 2.23 2.34
12/29/2021 7:45:00 PM 5.21 41.378 0.452 3.4 2.03 2.58
12/29/2021 8:00:00 PM 5.23 41.414 0.449 3.34 1.93 2.56
12/29/2021 8:15:00 PM 5.24 41.432 0.461 3.42 2.06 2.4
12/29/2021 8:30:00 PM 5.25 41.45 0.461 3.64 2.3 2.56
12/29/2021 8:45:00 PM 5.27 41.486 0.461 3.68 2.61 2.52
12/29/2021 9:00:00 PM 5.29 41.522 0.458 3.78 2.34 2.42
12/29/2021 9:15:00 PM 5.31 41.558 0.456 3.82 2.35 2.51
12/29/2021 9:30:00 PM 5.32 41.576 0.462 3.92 2.2 2.43
12/29/2021 9:45:00 PM 5.34 41.612 0.431 3.64 2.26 2.53
12/29/2021 10:00:00 PM 5.36 41.648 0.455 3.51 2.28 2.48
12/29/2021 10:15:00 PM 5.38 41.684 0.458 3.48 2.66 2.4
12/29/2021 10:30:00 PM 5.4 41.72 0.425 3.45 2.04 2.4
12/29/2021 10:45:00 PM 5.42 41.756 0.448 3.73 2.45 2.34
12/29/2021 11:00:00 PM 5.44 41.792 0.46 3.95 2.48 2.36
12/29/2021 11:15:00 PM 5.47 41.846 0.445 4.18 2.11 2.28
12/29/2021 11:30:00 PM 5.5 41.9 0.461 4.12 2.15 2.36
12/29/2021 11:45:00 PM 5.52 41.936 0.46 4.18 2.14 2.17
12/30/2021 12:00:00 AM 5.55 41.99 0.353 4.24 2.69 2.2
12/30/2021 12:15:00 AM 5.59 42.062 0.462 4.36 3.1 2.26
12/30/2021 12:30:00 AM 5.62 42.116 0.461 4.42 3 2.22
12/30/2021 12:45:00 AM 5.65 42.17 0.462 4.46 2.38 2.41
12/30/2021 1:00:00 AM 5.67 42.206 0.461 4.48 2.3 2.38
12/30/2021 1:15:00 AM 5.71 42.278 0.461 4.54 2.12 2.18
12/30/2021 1:30:00 AM 5.75 42.35 0.46 4.59 2.24 2.35
12/30/2021 1:45:00 AM 5.79 42.422 0.46 4.73 2.5 2.33
12/30/2021 2:00:00 AM 5.82 42.476 0.459 4.77 2.18 2.31
12/30/2021 2:15:00 AM 5.85 42.53 0.459 4.79 2.38 2.29
12/30/2021 2:30:00 AM 5.87 42.566 0.459 4.85 2.33 2.04
12/30/2021 2:45:00 AM 5.9 42.62 0.459 4.89 2.42 4.14
12/30/2021 3:00:00 AM 5.92 42.656 0.458 4.91 2.42 6.28
12/30/2021 3:15:00 AM 5.95 42.71 0.458 5.06 2.49 3.29
12/30/2021 3:30:00 AM 5.97 42.746 0.457 5.05 3.16 2.97
12/30/2021 3:45:00 AM 5.99 42.782 0.457 5.04 3.38 2.65
12/30/2021 4:00:00 AM 6 42.8 0.456 5.12 3.03 2.43
12/30/2021 4:15:00 AM 6.02 42.836 0.456 5.14 2.93 2.31
12/30/2021 4:30:00 AM 6.04 42.872 0.455 5.14 2.27 2.07
12/30/2021 4:45:00 AM 6.05 42.89 0.455 5.14 2.55 2.22
12/30/2021 5:00:00 AM 6.05 42.89 0.444 5.2 2.61 2.38
12/30/2021 5:15:00 AM 6.07 42.926 0.45 5.2 2.6 2.5
12/30/2021 5:30:00 AM 6.08 42.944 0.444 5.22 2.31 2.4
12/30/2021 5:45:00 AM 6.08 42.944 0.444 5.18 2.35 2.47
12/30/2021 6:00:00 AM 6.08 42.944 0.426 5.18 2.77 2.37
12/30/2021 6:15:00 AM 6.09 42.962 0.442 5.17 2.53 2.43
12/30/2021 6:30:00 AM 6.09 42.962 0.398 5.19 2.37 2.56
12/30/2021 6:45:00 AM 6.09 42.962 0.443 5.19 2.52 2.52
12/30/2021 7:00:00 AM 6.1 42.98 0.445 5.2 2.36 2.53
12/30/2021 7:15:00 AM 6.1 42.98 0.446 5.2 2.58 2.45
12/30/2021 7:30:00 AM 6.1 42.98 0.433 5.19 3.73 2.46
12/30/2021 7:45:00 AM 6.1 42.98 0.44 5.19 3.26 2.52
12/30/2021 8:00:00 AM 6.1 42.98 0.447 5.18 2.42 2.72
12/30/2021 8:15:00 AM 6.1 42.98 0.447 4.94 2.61 2.5
12/30/2021 8:30:00 AM 6.11 42.998 0.446 4.85 2.95 2.46
12/30/2021 8:45:00 AM 6.12 43.016 0.445 5.07 2.73 2.48
12/30/2021 9:00:00 AM 6.13 43.034 0.444 5.2 2.76 2.66
12/30/2021 9:15:00 AM 6.13 43.034 0.444 5.19 2.5 2.8
12/30/2021 9:30:00 AM 6.15 43.07 0.443 5.12 2.24 2.5
12/30/2021 9:45:00 AM 6.16 43.088 0.443 5.11 2.82 2.83
12/30/2021 10:00:00 AM 6.17 43.106 0.442 5.17 2.82 2.55
12/30/2021 10:15:00 AM 6.19 43.142 0.442 5.18 2.69 2.51
12/30/2021 10:30:00 AM 6.2 43.16 0.441 5.16 2.47 2.35
12/30/2021 10:45:00 AM 6.23 43.214 0.443 5.14 2.82 2.29
12/30/2021 11:00:00 AM 6.25 43.25 0.445 5.01 2.81 2.21
12/30/2021 11:15:00 AM 6.28 43.304 0.444 5.05 2.99 2.04
12/30/2021 11:30:00 AM 6.3 43.34 0.44 4.59 2.7 2.12
12/30/2021 11:45:00 AM 6.33 43.394 0.44 4.6 2.84 2.12
12/30/2021 12:00:00 PM 6.37 43.466 0.44 4.54 3.26 2.12
12/30/2021 12:15:00 PM 6.39 43.502 0.424 4.57 2.92 2.06
12/30/2021 12:30:00 PM 6.41 43.538 0.434 4.69 2.97 1.98
12/30/2021 12:45:00 PM 6.43 43.574 0.442 4.73 3.03 2
12/30/2021 1:00:00 PM 6.46 43.628 0.44 4.73 3.16 2.11
12/30/2021 1:15:00 PM 6.48 43.664 0.44 4.7 2.9 2.01
12/30/2021 1:30:00 PM 6.5 43.7 0.436 4.59 3.46 1.89
12/30/2021 1:45:00 PM 6.51 43.718 0.436 4.63 3.1 2.06
12/30/2021 2:00:00 PM 6.52 43.736 0.436 4.6 2.87 1.96
12/30/2021 2:15:00 PM 6.54 43.772 0.436 4.49 3.5 1.99
12/30/2021 2:30:00 PM 6.56 43.808 0.435 4.61 2.49 2.01
12/30/2021 2:45:00 PM 6.58 43.844 0.435 4.66 3.03 2.14
12/30/2021 3:00:00 PM 6.58 43.844 0.435 4.7 2.45 2
12/30/2021 3:15:00 PM 6.57 43.826 0.435 4.62 2.77 1.87
12/30/2021 3:30:00 PM 6.57 43.826 0.435 4.67 2.89 1.92
12/30/2021 3:45:00 PM 6.58 43.844 0.435 4.65 3 1.92
12/30/2021 4:00:00 PM 6.57 43.826 0.435 4.67 3.31 1.8
12/30/2021 4:15:00 PM 6.57 43.826 0.434 4.7 3.03 1.79
12/30/2021 4:30:00 PM 6.57 43.826 0.434 4.73 2.94 1.95
12/30/2021 4:45:00 PM 6.56 43.808 0.434 4.74 3.15 1.84
12/30/2021 5:00:00 PM 6.55 43.79 0.434 4.77 3.36 1.83
12/30/2021 5:15:00 PM 6.55 43.79 0.426 4.74 2.92 1.67
12/30/2021 5:30:00 PM 6.54 43.772 0.432 4.74 3.05 1.6
12/30/2021 5:45:00 PM 6.54 43.772 0.426 4.85 3.6 1.63
12/30/2021 6:00:00 PM 6.53 43.754 0.372 4.81 3.3 1.58
12/30/2021 6:15:00 PM 6.53 43.754 0.434 4.89 3.3 1.54
12/30/2021 6:30:00 PM 6.53 43.754 0.434 4.9 3.26 1.61
12/30/2021 6:45:00 PM 6.54 43.772 0.433 4.93 3.26 1.6
12/30/2021 7:00:00 PM 6.54 43.772 0.434 4.97 3.73 1.51
12/30/2021 7:15:00 PM 6.55 43.79 0.434 5 3.14 2.27
12/30/2021 7:30:00 PM 6.55 43.79 0.434 5.04 3.55 1.99
12/30/2021 7:45:00 PM 6.56 43.808 0.434 4.96 4.05 1.7
12/30/2021 8:00:00 PM 6.57 43.826 0.434 4.97 4.01 1.55
12/30/2021 8:15:00 PM 6.58 43.844 0.434 5.03 3.39 2.81
12/30/2021 8:30:00 PM 6.58 43.844 0.434 5.09 3.42 2.13
12/30/2021 8:45:00 PM 6.59 43.862 0.434 5.16 4.08 1.64
12/30/2021 9:00:00 PM 6.6 43.88 0.434 5.2 3.43 1.55
12/30/2021 9:15:00 PM 6.61 43.898 0.434 5.23 3.72 1.77
12/30/2021 9:30:00 PM 6.62 43.916 0.434 5.25 3.29 1.8
12/30/2021 9:45:00 PM 6.63 43.934 0.434 5.25 3.46 1.6
12/30/2021 10:00:00 PM 6.65 43.97 0.434 5.13 3.47 1.9
12/30/2021 10:15:00 PM 6.66 43.988 0.434 5.18 3.29 1.85
12/30/2021 10:30:00 PM 6.67 44.006 0.434 5.19 4.06 1.68
12/30/2021 10:45:00 PM 6.68 44.024 0.434 5.21 3.46 1.44
12/30/2021 11:00:00 PM 6.69 44.042 0.434 5.25 3.58 1.4
12/30/2021 11:15:00 PM 6.7 44.06 0.434 5.2 3.55 1.39
12/30/2021 11:30:00 PM 6.72 44.096 0.434 5.23 3.86 1.36
12/30/2021 11:45:00 PM 6.73 44.114 0.434 5.29 3.83 1.37
12/31/2021 12:00:00 AM 6.74 44.132 0.434 5.32 3.88 1.41
12/31/2021 12:15:00 AM 6.76 44.168 0.434 5.31 4.42 1.42
12/31/2021 12:30:00 AM 6.78 44.204 0.434 5.31 4.74 2.16
12/31/2021 12:45:00 AM 6.79 44.222 0.434 5.27 4.35 2.87
12/31/2021 1:00:00 AM 6.81 44.258 0.434 5.34 3.64 1.49
12/31/2021 1:15:00 AM 6.82 44.276 0.434 5.36 4.98 1.51
12/31/2021 1:30:00 AM 6.82 44.276 0.434 5.39 4.34 1.4
12/31/2021 1:45:00 AM 6.83 44.294 0.434 5.41 3.86 1.52
12/31/2021 2:00:00 AM 6.84 44.312 0.434 5.45 3.83 1.45
12/31/2021 2:15:00 AM 6.86 44.348 0.434 5.46 4.23 1.45
12/31/2021 2:30:00 AM 6.87 44.366 0.434 5.23 4.44 1.37
12/31/2021 2:45:00 AM 6.89 44.402 0.433 5.23 4.38 1.46
12/31/2021 3:00:00 AM 6.9 44.42 0.433 5.23 4.18 1.42
12/31/2021 3:15:00 AM 6.92 44.456 0.433 5.29 4.54 1.37
12/31/2021 3:30:00 AM 6.94 44.492 0.433 5.36 3.67 1.29
12/31/2021 3:45:00 AM 6.95 44.51 0.433 5.52 5.21 1.36
12/31/2021 4:00:00 AM 6.98 44.564 0.433 5.49 4.02 1.9
12/31/2021 4:15:00 AM 7 44.6 0.433 5.48 3.87 2.98
12/31/2021 4:30:00 AM 7.01 44.618 0.433 5.73 4.3 1.54
12/31/2021 4:45:00 AM 7.03 44.654 0.433 5.81 4.54 1.53
12/31/2021 5:00:00 AM 7.04 44.672 0.433 5.83 4.42 1.53
12/31/2021 5:15:00 AM 7.06 44.708 0.433 5.81 4.65 1.53
12/31/2021 5:30:00 AM 7.07 44.726 0.433 5.83 4.39 2.06
12/31/2021 5:45:00 AM 7.08 44.744 0.433 5.84 4.35 1.69
12/31/2021 6:00:00 AM 7.09 44.762 0.431 5.85 4.76 1.56
12/31/2021 6:15:00 AM 7.1 44.78 0.424 5.85 4.42 1.5
12/31/2021 6:30:00 AM 7.11 44.798 0.383 5.87 4.8 1.42
12/31/2021 6:45:00 AM 7.12 44.816 0.426 5.89 5.31 1.54
12/31/2021 7:00:00 AM 7.13 44.834 0.433 5.89 5.2 1.47
12/31/2021 7:15:00 AM 7.13 44.834 0.423 5.87 4.3 1.41
12/31/2021 7:30:00 AM 7.14 44.852 0.427 5.86 4.7 1.43
12/31/2021 7:45:00 AM 7.15 44.87 0.428 5.89 4.64 1.49
12/31/2021 8:00:00 AM 7.15 44.87 0.421 5.87 4.89 1.49
12/31/2021 8:15:00 AM 7.17 44.906 0.42 5.88 4.45 1.57
12/31/2021 8:30:00 AM 7.18 44.924 0.419 5.9 4.54 1.38
12/31/2021 8:45:00 AM 7.2 44.96 0.418 5.89 4.97 1.44
12/31/2021 9:00:00 AM 7.21 44.978 0.418 5.8 5.02 1.36
12/31/2021 9:15:00 AM 7.23 45.014 0.416 5.81 4.49 1.37
12/31/2021 9:30:00 AM 7.25 45.05 0.417 5.85 4.43 1.38
12/31/2021 9:45:00 AM 7.26 45.068 0.419 5.83 3.94 1.43
12/31/2021 10:00:00 AM 7.28 45.104 0.418 5.88 4.94 1.43
12/31/2021 10:15:00 AM 7.3 45.14 0.419 5.87 5.61 1.41
12/31/2021 10:30:00 AM 7.31 45.158 0.426 5.81 5.55 1.39
12/31/2021 10:45:00 AM 7.33 45.194 0.404 5.85 5.38 1.38
12/31/2021 11:00:00 AM 7.35 45.23 0.405 5.74 37.23 1.39
12/31/2021 11:15:00 AM 7.38 45.284 0.414 5.71 5.1 1.44
12/31/2021 11:30:00 AM 7.41 45.338 0.423 5.74 5.55 1.43
12/31/2021 11:45:00 AM 7.46 45.428 0.422 5.62 3.73 1.33
12/31/2021 12:00:00 PM 7.49 45.482 0.429 5.51 3.73 1.35
12/31/2021 12:15:00 PM 7.52 45.536 0.429 5.52 4.33 1.38
12/31/2021 12:30:00 PM 7.54 45.572 0.429 5.54 4.19 1.36
12/31/2021 12:45:00 PM 7.57 45.626 0.429 5.53 6.72 1.29
12/31/2021 1:00:00 PM 7.63 45.734 0.429 5.52 4.17 1.41
12/31/2021 1:15:00 PM 7.64 45.752 0.429 5.46 4.07 1.32
12/31/2021 1:30:00 PM 7.66 45.788 0.429 5.47 6.39 1.37
12/31/2021 1:45:00 PM 7.7 45.86 0.429 5.48 3.54 1.36
12/31/2021 2:00:00 PM 7.71 45.878 0.429 5.41 3.66 1.32
12/31/2021 2:15:00 PM 7.73 45.914 0.429 5.43 3.33 1.48
12/31/2021 2:30:00 PM 7.75 45.95 0.428 5.47 9.18 1.48
12/31/2021 2:45:00 PM 7.76 45.968 0.42 5.49 4.35 1.4
12/31/2021 3:00:00 PM 7.78 46.004 0.36 5.47 3.84 1.41
12/31/2021 3:15:00 PM 7.78 46.004 0.413 5.49 3.98 1.51
12/31/2021 3:30:00 PM 7.79 46.022 0.409 5.48 19.21 1.46
12/31/2021 3:45:00 PM 7.79 46.022 0.409 5.52 2.25 1.36
12/31/2021 4:00:00 PM 7.77 45.986 0.392 5.55 2.2 1.33
12/31/2021 4:15:00 PM 7.76 45.968 0.335 5.56 2.63 1.35
12/31/2021 4:30:00 PM 7.74 45.932 0.393 5.59 2.38 1.41
12/31/2021 4:45:00 PM 7.71 45.878 0.373 5.57 2.33 1.43
12/31/2021 5:00:00 PM 7.69 45.842 0.351 5.62 2.36 1.41
12/31/2021 5:15:00 PM 7.67 45.806 0.354 5.65 2.38 1.38
12/31/2021 5:30:00 PM 7.66 45.788 0.43 5.66 2.73 1.42
12/31/2021 5:45:00 PM 7.64 45.752 0.423 5.68 2.34 1.32
12/31/2021 6:00:00 PM 7.62 45.716 0.43 5.68 2.63 1.31
12/31/2021 6:15:00 PM 7.62 45.716 0.379 5.71 2.73 1.3
12/31/2021 6:30:00 PM 7.62 45.716 0.371 5.73 2.41 1.21
12/31/2021 6:45:00 PM 7.62 45.716 0.429 5.77 2.49 1.16
12/31/2021 7:00:00 PM 7.62 45.716 0.406 5.8 2.67 1.26
12/31/2021 7:15:00 PM 7.63 45.734 0.346 5.77 3.45 1.11
12/31/2021 7:30:00 PM 7.64 45.752 0.335 5.8 2.54 1.08
12/31/2021 7:45:00 PM 7.64 45.752 0.354 5.8 2.78 1.13
12/31/2021 8:00:00 PM 7.65 45.77 0.355 5.83 2.62 1.08
12/31/2021 8:15:00 PM 7.66 45.788 0.356 5.84 2.69 1.07
12/31/2021 8:30:00 PM 7.67 45.806 0.364 5.84 2.34 1.1
12/31/2021 8:45:00 PM 7.67 45.806 0.347 5.84 2.78 1.14
12/31/2021 9:00:00 PM 7.69 45.842 0.345 5.88 2.84 1.09
12/31/2021 9:15:00 PM 7.7 45.86 0.34 5.84 2.68 1.19
12/31/2021 9:30:00 PM 7.71 45.878 0.386 5.84 2.54 0.99
12/31/2021 9:45:00 PM 7.73 45.914 0.434 5.79 2.52 0.99
12/31/2021 10:00:00 PM 7.73 45.914 0.363 5.86 2.29 1.06
12/31/2021 10:15:00 PM 7.75 45.95 0.43 5.67 2.29 1.12
12/31/2021 10:30:00 PM 7.76 45.968 0.433 5.58 2.66 1.18
12/31/2021 10:45:00 PM 7.76 45.968 0.433 5.45 2.55 1.11
12/31/2021 11:00:00 PM 7.77 45.986 0.43 5.27 2.54 1.41
12/31/2021 11:15:00 PM 7.78 46.004 0.433 5.03 2.67 1.1
12/31/2021 11:30:00 PM 7.79 46.022 0.432 4.97 2.54 1.14
12/31/2021 11:45:00 PM 7.8 46.04 0.434 4.98 2.32 1.08
1/1/2022 12:00:00 AM 7.82 46.076 0.43 5 2.64 1.04
1/1/2022 12:15:00 AM 7.83 46.094 0.434 4.93 2.43 0.99
1/1/2022 12:30:00 AM 7.84 46.112 0.433 4.92 2.26 1.23
1/1/2022 12:45:00 AM 7.86 46.148 0.432 4.92 2.57 1.27
1/1/2022 1:00:00 AM 7.88 46.184 0.433 5.1 2.83 1.34
1/1/2022 1:15:00 AM 7.89 46.202 0.432 5.31 2.65 1.56
1/1/2022 1:30:00 AM 7.91 46.238 0.433 5.38 2.85 2.88
1/1/2022 1:45:00 AM 7.92 46.256 0.433 5.41 2.3 5.94
1/1/2022 2:00:00 AM 7.94 46.292 0.434 5.54 2.68 5.59
1/1/2022 2:15:00 AM 7.95 46.31 0.434 5.63 2.59 2.23
1/1/2022 2:30:00 AM 7.97 46.346 0.435 5.57 2.51 2
1/1/2022 2:45:00 AM 7.98 46.364 0.432 5.62 2.84 2.22
1/1/2022 3:00:00 AM 8 46.4 0.433 5.6 3.37 2.33
1/1/2022 3:15:00 AM 8.01 46.418 0.434 5.7 2.54 2.06
1/1/2022 3:30:00 AM 8.02 46.436 0.333 5.76 2.9 1.75
1/1/2022 3:45:00 AM 8.03 46.454 0.356 5.97 3.29 2.46
1/1/2022 4:00:00 AM 8.04 46.472 0.327 6.03 2.58 2.29
1/1/2022 4:15:00 AM 8.05 46.49 0.367 6.04 2.82 2.9
1/1/2022 4:30:00 AM 8.06 46.508 0.411 6.06 3.29 6.12
1/1/2022 4:45:00 AM 8.07 46.526 0.43 6.07 2.85 3.07
1/1/2022 5:00:00 AM 8.08 46.544 0.426 6.09 3.55 2.27
1/1/2022 5:15:00 AM 8.09 46.562 0.421 6.09 2.6 2
1/1/2022 5:30:00 AM 8.09 46.562 0.427 6.12 2.98 2.21
1/1/2022 5:45:00 AM 8.1 46.58 0.432 6.13 3.12 1.9
1/1/2022 6:00:00 AM 8.1 46.58 0.43 6.14 2.93 2.18
1/1/2022 6:15:00 AM 8.11 46.598 0.43 6.14 3.45 2.43
1/1/2022 6:30:00 AM 8.12 46.616 0.43 6.14 2.76 2.33
1/1/2022 6:45:00 AM 8.12 46.616 0.434 6.14 2.77 2.26
1/1/2022 7:00:00 AM 8.13 46.634 0.433 6.16 3.15 1.87
1/1/2022 7:15:00 AM 8.13 46.634 0.382 6.17 3.03 2.06
1/1/2022 7:30:00 AM 8.13 46.634 0.431 6.18 3.47 2.01
1/1/2022 7:45:00 AM 8.14 46.652 0.392 6.19 2.87 2.14
1/1/2022 8:00:00 AM 8.14 46.652 0.433 6.21 2.82 1.81
1/1/2022 8:15:00 AM 8.14 46.652 0.433 6.22 2.36 1.87
1/1/2022 8:30:00 AM 8.15 46.67 0.432 6.21 2.41 1.69
1/1/2022 8:45:00 AM 8.16 46.688 0.432 6.26 2.69 1.97
1/1/2022 9:00:00 AM 8.18 46.724 0.432 6.26 2.65 1.84
1/1/2022 9:15:00 AM 8.19 46.742 0.432 6.29 2.96 1.85
1/1/2022 9:30:00 AM 8.2 46.76 0.432 6.27 2.84 1.94
1/1/2022 9:45:00 AM 8.22 46.796 0.431 6.25 2.56 1.63
1/1/2022 10:00:00 AM 8.24 46.832 0.431 6.25 2.24 1.88
1/1/2022 10:15:00 AM 8.27 46.886 0.43 6.24 2.52 2
1/1/2022 10:30:00 AM 8.29 46.922 0.43 6.21 2.82 1.86
1/1/2022 10:45:00 AM 8.31 46.958 0.43 6.2 2.9 1.72
1/1/2022 11:00:00 AM 8.33 46.994 0.43 6.22 2.4 1.67
1/1/2022 11:15:00 AM 8.36 47.048 0.429 6.19 3.53 1.91
1/1/2022 11:30:00 AM 8.39 47.102 0.429 6.19 2.68 1.72
1/1/2022 11:45:00 AM 8.42 47.156 0.429 6.15 2.8 1.84
1/1/2022 12:00:00 PM 8.46 47.228 0.428 6.13 2.42 1.77
1/1/2022 12:15:00 PM 8.48 47.264 0.428 6.14 2.89 1.71
1/1/2022 12:30:00 PM 8.52 47.336 0.427 6.15 2.7 1.62
1/1/2022 12:45:00 PM 8.54 47.372 0.425 6.15 2.88 1.87
1/1/2022 1:00:00 PM 8.57 47.426 0.426 6.14 2.66 1.86
1/1/2022 1:15:00 PM 8.61 47.498 0.426 6.12 3.04 1.83
1/1/2022 1:30:00 PM 8.64 47.552 0.426 6.1 2.73 1.82
1/1/2022 1:45:00 PM 8.66 47.588 0.425 6.1 2.99 1.82
1/1/2022 2:00:00 PM 8.67 47.606 0.425 6.1 2.7 1.64
1/1/2022 2:15:00 PM 8.67 47.606 0.425 6.09 2.71 1.71
1/1/2022 2:30:00 PM 8.68 47.624 0.425 6.14 2.71 1.75
1/1/2022 2:45:00 PM 8.68 47.624 0.386 6.13 2.5 1.61
1/1/2022 3:00:00 PM 8.68 47.624 0.385 6.14 2.47 1.59
1/1/2022 3:15:00 PM 8.67 47.606 0.373 6.15 2.34 1.64
1/1/2022 3:30:00 PM 8.67 47.606 0.373 6.17 2.8 1.51
1/1/2022 3:45:00 PM 8.68 47.624 0.378 6.18 7.09 1.73
1/1/2022 4:00:00 PM 8.68 47.624 0.377 6.15 6.1 1.67
1/1/2022 4:15:00 PM 8.67 47.606 0.377 6.13 2.6 1.52
1/1/2022 4:30:00 PM 8.67 47.606 0.376 6.12 2.84 1.44
1/1/2022 4:45:00 PM 8.67 47.606 0.371 6.16 2.85 1.29
1/1/2022 5:00:00 PM 8.68 47.624 0.372 6.16 3.55 1.37
1/1/2022 5:15:00 PM 8.68 47.624 0.421 6.17 4.4 1.26
1/1/2022 5:30:00 PM 8.68 47.624 0.416 6.19 5.57 1.37
1/1/2022 5:45:00 PM 8.69 47.642 0.417 6.17 3.56 1.23
1/1/2022 6:00:00 PM 8.7 47.66 0.421 6.18 2.84 1.33
1/1/2022 6:15:00 PM 8.7 47.66 0.414 6.22 2.84 1.22
1/1/2022 6:30:00 PM 8.71 47.678 0.36 6.23 3.53 1.34
1/1/2022 6:45:00 PM 8.73 47.714 0.352 6.23 3.27 1.35
1/1/2022 7:00:00 PM 8.76 47.768 0.35 6.22 4.33 1.18
1/1/2022 7:15:00 PM 8.77 47.786 0.411 6.24 3.97 1.29
1/1/2022 7:30:00 PM 8.79 47.822 0.365 6.29 6.17 1.26
1/1/2022 7:45:00 PM 8.81 47.858 0.319 6.3 6.02 1.33
1/1/2022 8:00:00 PM 8.83 47.894 0.396 6.33 5.55 1.28
1/1/2022 8:15:00 PM 8.85 47.93 0.403 6.34 8.75 1.31
1/1/2022 8:30:00 PM 8.86 47.948 0.402 6.25 7.54 1.26
1/1/2022 8:45:00 PM 8.86 47.948 0.401 6.28 6.85 1.27
1/1/2022 9:00:00 PM 8.86 47.948 0.401 6.31 8.45 1.21
1/1/2022 9:15:00 PM 8.87 47.966 0.401 6.34 11.85 1.13
1/1/2022 9:30:00 PM 8.87 47.966 0.402 6.34 9.02 1.26
1/1/2022 9:45:00 PM 8.88 47.984 0.403 6.38 8.91 1.22
1/1/2022 10:00:00 PM 8.88 47.984 0.405 6.38 9.45 1.11
1/1/2022 10:15:00 PM 8.87 47.966 0.406 6.39 7.4 0.85
1/1/2022 10:30:00 PM 8.88 47.984 0.408 6.42 7.15 1.13
1/1/2022 10:45:00 PM 8.89 48.002 0.409 6.43 6.8 1.09
1/1/2022 11:00:00 PM 8.91 48.038 0.411 6.43 7.13 1.15
1/1/2022 11:15:00 PM 8.92 48.056 0.412 6.64 7.24 1.2
1/1/2022 11:30:00 PM 8.93 48.074 0.413 6.66 8.82 1.06
1/1/2022 11:45:00 PM 8.96 48.128 0.415 6.59 5.93 1.1
1/2/2022 12:00:00 AM 8.98 48.164 0.414 6.67 6.87 0.98
1/2/2022 12:15:00 AM 9 48.2 0.416 6.67 6.87 1.04
1/2/2022 12:30:00 AM 9.02 48.236 0.416 6.7 5.64 1.17
1/2/2022 12:45:00 AM 9.04 48.272 0.413 6.7 5.43 1.12
1/2/2022 1:00:00 AM 9.07 48.326 0.414 6.71 5.92 1.47
1/2/2022 1:15:00 AM 9.08 48.344 0.416 6.72 5.27 1.28
1/2/2022 1:30:00 AM 9.1 48.38 0.415 6.71 7.16 1.57
1/2/2022 1:45:00 AM 9.12 48.416 0.415 6.72 6.19 1.57
1/2/2022 2:00:00 AM 9.14 48.452 0.414 6.72 7.41 1.55
1/2/2022 2:15:00 AM 9.16 48.488 0.413 6.72 6.47 1.87
1/2/2022 2:30:00 AM 9.18 48.524 0.413 6.73 9.08 1.77
1/2/2022 2:45:00 AM 9.2 48.56 0.412 6.73 16.56 2.27
1/2/2022 3:00:00 AM 9.21 48.578 0.411 6.74 12.29 2.65
1/2/2022 3:15:00 AM 9.22 48.596 0.409 6.75 8.02 2.91
1/2/2022 3:30:00 AM 9.23 48.614 0.408 6.75 6.76 3.13
1/2/2022 3:45:00 AM 9.24 48.632 0.407 6.73 11.9 2.83
1/2/2022 4:00:00 AM 9.24 48.632 0.406 6.74 20.67 2.85
1/2/2022 4:15:00 AM 9.25 48.65 0.405 6.73 7.85 2.79
1/2/2022 4:30:00 AM 9.25 48.65 0.404 6.73 8.98 2.89
1/2/2022 4:45:00 AM 9.26 48.668 0.402 6.73 8.04 2.8
1/2/2022 5:00:00 AM 9.26 48.668 0.4 6.72 10.18 3
1/2/2022 5:15:00 AM 9.27 48.686 0.399 6.71 7.48 3.65
1/2/2022 5:30:00 AM 9.27 48.686 0.398 6.66 7.64 4.35
1/2/2022 5:45:00 AM 9.28 48.704 0.396 6.66 22.13 4.72
1/2/2022 6:00:00 AM 9.28 48.704 0.393 6.63 8.89 4.97
1/2/2022 6:15:00 AM 9.28 48.704 0.391 6.61 9.56 4.99
1/2/2022 6:30:00 AM 9.28 48.704 0.388 6.61 9.06 4.66
1/2/2022 6:45:00 AM 9.27 48.686 0.385 6.62 12.07 4.75
1/2/2022 7:00:00 AM 9.27 48.686 0.384 6.61 18.96 4.5
1/2/2022 7:15:00 AM 9.26 48.668 0.382 6.61 11.39 4.49
1/2/2022 7:30:00 AM 9.25 48.65 0.381 6.61 15.37 4.54
1/2/2022 7:45:00 AM 9.25 48.65 0.381 6.6 12.62 4.85
1/2/2022 8:00:00 AM 9.25 48.65 0.38 6.59 19.65 4.67
1/2/2022 8:15:00 AM 9.26 48.668 0.38 6.59 12.57 5.02
1/2/2022 8:30:00 AM 9.26 48.668 0.38 6.58 15.42 5.2
1/2/2022 8:45:00 AM 9.27 48.686 0.379 6.57 13.79 4.88
1/2/2022 9:00:00 AM 9.27 48.686 0.379 6.57 21.08 5.02
1/2/2022 9:15:00 AM 9.28 48.704 0.377 6.59 15.1 5.05
1/2/2022 9:30:00 AM 9.28 48.704 0.376 6.58 10.19 5.02
1/2/2022 9:45:00 AM 9.28 48.704 0.374 6.57 12.23 5.17
1/2/2022 10:00:00 AM 9.28 48.704 0.372 6.58 10.21 5.08
1/2/2022 10:15:00 AM 9.29 48.722 0.371 6.58 10.92 4.49
1/2/2022 10:30:00 AM 9.31 48.758 0.369 6.58 10.67 4.24
1/2/2022 10:45:00 AM 9.33 48.794 0.367 6.56 9.81 4.81
1/2/2022 11:00:00 AM 9.33 48.794 0.364 6.55 31.31 4.76
1/2/2022 11:15:00 AM 9.33 48.794 0.361 6.55 9.82 5.14
1/2/2022 11:30:00 AM 9.32 48.776 0.359 6.56 12.26 4.9
1/2/2022 11:45:00 AM 9.35 48.83 0.356 6.57 11.58 4.78
1/2/2022 12:00:00 PM 9.39 48.902 0.354 6.56 17.01 4.67
1/2/2022 12:15:00 PM 9.45 49.01 0.352 6.56 13.61 4.73
1/2/2022 12:30:00 PM 9.5 49.1 0.351 6.56 13.03 4.41
1/2/2022 12:45:00 PM 9.51 49.118 0.349 6.56 13.14 4.33
1/2/2022 1:00:00 PM 9.52 49.136 0.348 6.57 14.58 4.54
1/2/2022 1:15:00 PM 9.53 49.154 0.347 6.58 38.32 4.18
1/2/2022 1:30:00 PM 9.54 49.172 0.346 6.58 20.26 4.12
1/2/2022 1:45:00 PM 9.53 49.154 0.344 6.59 15.74 4.42
1/2/2022 2:00:00 PM 9.55 49.19 0.343 6.58 13.99 4.92
1/2/2022 2:15:00 PM 9.56 49.208 0.342 6.58 19.57 4.33
1/2/2022 2:30:00 PM 9.58 49.244 0.341 6.58 13.87 4.84
1/2/2022 2:45:00 PM 9.6 49.28 0.34 6.59 12.99 4.83
1/2/2022 3:00:00 PM 9.61 49.298 0.338 6.59 12.62 4.68
1/2/2022 3:15:00 PM 9.63 49.334 0.337 6.59 14.88 4.86
1/2/2022 3:30:00 PM 9.64 49.352 0.336 6.61 15.3 5.17
1/2/2022 3:45:00 PM 9.65 49.37 0.335 6.6 17.49 5.22
1/2/2022 4:00:00 PM 9.65 49.37 0.333 6.59 17.91 5.16
1/2/2022 4:15:00 PM 9.65 49.37 0.331 6.61 18.12 5.29
1/2/2022 4:30:00 PM 9.65 49.37 0.33 6.59 17.98 4.87
1/2/2022 4:45:00 PM 9.64 49.352 0.328 6.6 17.46 4.99
1/2/2022 5:00:00 PM 9.62 49.316 0.326 6.6 23.61 5.11
1/2/2022 5:15:00 PM 9.59 49.262 0.324 6.58 25.23 5.18
1/2/2022 5:30:00 PM 9.57 49.226 0.323 6.57 21.28 4.82
1/2/2022 5:45:00 PM 9.56 49.208 0.321 6.57 22.29 4.27
1/2/2022 6:00:00 PM 9.56 49.208 0.32 6.56 24.1 4.23
1/2/2022 6:15:00 PM 9.55 49.19 0.319 6.56 24.9 4.19
1/2/2022 6:30:00 PM 9.54 49.172 0.318 6.55 22.57 3.71
1/2/2022 6:45:00 PM 9.52 49.136 0.317 6.55 22.77 3.59
1/2/2022 7:00:00 PM 9.5 49.1 0.316 6.51 23.59 3.13
1/2/2022 7:15:00 PM 9.47 49.046 0.316 6.55 21.34 3.2
1/2/2022 7:30:00 PM 9.45 49.01 0.315 6.54 32.89 3.44
1/2/2022 7:45:00 PM 9.41 48.938 0.315 6.56 31.24 3.59
1/2/2022 8:00:00 PM 9.39 48.902 0.315 6.57 24.06 4.53
1/2/2022 8:15:00 PM 9.36 48.848 0.314 6.56 21.67 4.46
1/2/2022 8:30:00 PM 9.33 48.794 0.314 6.57 21.03 4.6
1/2/2022 8:45:00 PM 9.3 48.74 0.313 6.57 21.09 4.36
1/2/2022 9:00:00 PM 9.27 48.686 0.312 6.58 25.69 4.02
1/2/2022 9:15:00 PM 9.23 48.614 0.311 6.58 26.17 4.63
1/2/2022 9:30:00 PM 9.2 48.56 0.31 6.54 30.69 4.33
1/2/2022 9:45:00 PM 9.17 48.506 0.309 6.55 27.99 4.42
1/2/2022 10:00:00 PM 9.14 48.452 0.308 6.54 22.46 4.75
1/2/2022 10:15:00 PM 9.11 48.398 0.308 6.55 22.58 4.57
1/2/2022 10:30:00 PM 9.07 48.326 0.307 6.55 20.78 4.43
1/2/2022 10:45:00 PM 9.04 48.272 0.307 6.54 23.19 4.41
1/2/2022 11:00:00 PM 9.01 48.218 0.306 6.56 22.82 4.13
1/2/2022 11:15:00 PM 8.98 48.164 0.305 6.56 21.7 4.13
1/2/2022 11:30:00 PM 8.95 48.11 0.305 6.55 25.11 4.58
1/2/2022 11:45:00 PM 8.93 48.074 0.305 6.55 24.23 4.3
1/3/2022 12:00:00 AM 8.9 48.02 0.304 6.56 23.73 4.44
1/3/2022 12:15:00 AM 8.87 47.966 0.304 6.55 25.9 4.2
1/3/2022 12:30:00 AM 8.85 47.93 0.304 6.55 25.35 3.99
1/3/2022 12:45:00 AM 8.83 47.894 0.304 6.54 23.5 4.21
1/3/2022 1:00:00 AM 8.8 47.84 0.303 6.54 22.79 4.33
1/3/2022 1:15:00 AM 8.79 47.822 0.303 6.55 26.19 4.45
1/3/2022 1:30:00 AM 8.77 47.786 0.303 6.53 25.36 4.47
1/3/2022 1:45:00 AM 8.74 47.732 0.303 6.54 25.26 3.64
1/3/2022 2:00:00 AM 8.72 47.696 0.303 6.53 27.45 2.91
1/3/2022 2:15:00 AM 8.7 47.66 0.303 6.53 27.54 2.86
1/3/2022 2:30:00 AM 8.68 47.624 0.302 6.53 26.9 2.77
1/3/2022 2:45:00 AM 8.66 47.588 0.302 6.53 25.43 2.81
1/3/2022 3:00:00 AM 8.64 47.552 0.302 6.53 23.18 3.08
1/3/2022 3:15:00 AM 8.62 47.516 0.302 6.52 29.73 3.34
1/3/2022 3:30:00 AM 8.6 47.48 0.302 6.5 42.9 3.28
1/3/2022 3:45:00 AM 8.58 47.444 0.302 6.51 22.62 3.59
1/3/2022 4:00:00 AM 8.56 47.408 0.301 6.51 29.37 3.76
1/3/2022 4:15:00 AM 8.54 47.372 0.301 6.5 26.41 3.85
1/3/2022 4:30:00 AM 8.51 47.318 0.301 6.51 29.54 3.93
1/3/2022 4:45:00 AM 8.5 47.3 0.3 6.51 28.81 3.91
1/3/2022 5:00:00 AM 8.47 47.246 0.3 6.5 23.27 3.8
1/3/2022 5:15:00 AM 8.43 47.174 0.292 6.51 28.15 3.86
1/3/2022 5:30:00 AM 8.41 47.138 0.298 6.51 24.29 3.99
1/3/2022 5:45:00 AM 8.37 47.066 0.297 6.51 24.98 4.15
1/3/2022 6:00:00 AM 8.34 47.012 0.296 6.51 22.77 4.17
1/3/2022 6:15:00 AM 8.31 46.958 0.296 6.52 21.58 3.96
1/3/2022 6:30:00 AM 8.28 46.904 0.295 6.51 22.89 4.09
1/3/2022 6:45:00 AM 8.23 46.814 0.294 6.5 22.51 4
1/3/2022 7:00:00 AM 8.19 46.742 0.293 6.5 26.41 4.13
1/3/2022 7:15:00 AM 8.16 46.688 0.292 6.52 21.76 3.92
1/3/2022 7:30:00 AM 8.12 46.616 0.291 6.51 25.47 3.98
1/3/2022 7:45:00 AM 8.09 46.562 0.29 6.5 25.18 3.98
1/3/2022 8:00:00 AM 8.05 46.49 0.289 6.5 22.77 3.87
1/3/2022 8:15:00 AM 8.02 46.436 0.288 6.49 22.32 3.41
1/3/2022 8:30:00 AM 7.98 46.364 0.287 6.5 24.59 3.5
1/3/2022 8:45:00 AM 7.93 46.274 0.286 6.49 22.69 3.28
1/3/2022 9:00:00 AM 7.9 46.22 0.285 6.49 21.81 3.41
1/3/2022 9:15:00 AM 7.87 46.166 0.285 6.48 26.11 3.44
1/3/2022 9:30:00 AM 7.81 46.058 0.284 6.49 23.26 3.35
1/3/2022 9:45:00 AM 7.78 46.004 0.284 6.47 23.32 3.34
1/3/2022 10:00:00 AM 7.74 45.932 0.283 6.49 23.7 2.97
1/3/2022 10:15:00 AM 7.7 45.86 0.283 6.49 22.85 2.88
1/3/2022 10:30:00 AM 7.66 45.788 0.282 6.48 23.97 2.94
1/3/2022 10:45:00 AM 7.61 45.698 0.282 6.49 19.72 2.88
1/3/2022 11:00:00 AM 7.56 45.608 0.282 6.5 22.26 2.47
1/3/2022 11:15:00 AM 7.52 45.536 0.282 6.49 20.17 2.26
1/3/2022 11:30:00 AM 7.49 45.482 0.281 6.48 20.37 2.71
1/3/2022 11:45:00 AM 7.44 45.392 0.281 6.48 21.48 2.63
1/3/2022 12:00:00 PM 7.4 45.32 0.281 6.48 22.31 2.34
1/3/2022 12:15:00 PM 7.36 45.248 0.281 6.49 21.43 2.01
1/3/2022 12:30:00 PM 7.33 45.194 0.281 6.48 26.58 1.98
1/3/2022 12:45:00 PM 7.29 45.122 0.28 6.46 24.46 2.39
1/3/2022 1:00:00 PM 7.27 45.086 0.28 6.46 27.19 2.37
1/3/2022 1:15:00 PM 7.24 45.032 0.28 6.45 22.89 2.96
1/3/2022 1:30:00 PM 7.23 45.014 0.28 6.45 21.1 3.16
1/3/2022 1:45:00 PM 7.21 44.978 0.28 6.44 23.68 2.75
1/3/2022 2:00:00 PM 7.21 44.978 0.28 6.44 26.07 2.91
1/3/2022 2:15:00 PM 7.18 44.924 0.279 6.44 24.36 3.15
1/3/2022 2:30:00 PM 7.14 44.852 0.279 6.44 25.08 3.26
1/3/2022 2:45:00 PM 7.11 44.798 0.279 6.47 27.29 3.05
1/3/2022 3:00:00 PM 7.1 44.78 0.278 6.44 25.27 3.38
1/3/2022 3:15:00 PM 7.08 44.744 0.278 6.45 24 3.5
1/3/2022 3:30:00 PM 7.03 44.654 0.278 6.46 22.29 3.46
1/3/2022 3:45:00 PM 6.97 44.546 0.278 6.45 22.23 3.62
1/3/2022 4:00:00 PM 6.9 44.42 0.277 6.45 21.58 3.69
1/3/2022 4:15:00 PM 6.84 44.312 0.277 6.45 23.52 3.72
1/3/2022 4:30:00 PM 6.78 44.204 0.277 6.44 22.09 3.72
1/3/2022 4:45:00 PM 6.72 44.096 0.277 6.43 23.38 3.75
1/3/2022 5:00:00 PM 6.66 43.988 0.276 6.44 22.24 3.61
1/3/2022 5:15:00 PM 6.6 43.88 0.276 6.42 20.91 3.62
1/3/2022 5:30:00 PM 6.56 43.808 0.276 6.42 22.51 3.62
1/3/2022 5:45:00 PM 6.52 43.736 0.275 6.41 23.07 3.48
1/3/2022 6:00:00 PM 6.48 43.664 0.275 6.41 21.89 3.44
1/3/2022 6:15:00 PM 6.44 43.592 0.275 6.42 20.79 3.12
1/3/2022 6:30:00 PM 6.4 43.52 0.274 6.42 25.97 2.98
1/3/2022 6:45:00 PM 6.37 43.466 0.274 6.42 24.29 2.98
1/3/2022 7:00:00 PM 6.32 43.376 0.273 6.43 25.25 3.13
1/3/2022 7:15:00 PM 6.28 43.304 0.273 6.43 25.71 2.86
1/3/2022 7:30:00 PM 6.25 43.25 0.273 6.42 26.5 3.02
1/3/2022 7:45:00 PM 6.21 43.178 0.273 6.42 24.96 2.86
1/3/2022 8:00:00 PM 6.17 43.106 0.272 6.42 28.03 2.8
1/3/2022 8:15:00 PM 6.13 43.034 0.272 6.43 26.89 2.78
1/3/2022 8:30:00 PM 6.09 42.962 0.272 6.42 25.37 2.53
1/3/2022 8:45:00 PM 6.05 42.89 0.271 6.39 25.67 2.42
1/3/2022 9:00:00 PM 6.02 42.836 0.271 6.39 25.5 2.5
1/3/2022 9:15:00 PM 5.98 42.764 0.271 6.42 29.78 2.62
1/3/2022 9:30:00 PM 5.93 42.674 0.271 6.42 30.45 2.4
1/3/2022 9:45:00 PM 5.89 42.602 0.271 6.42 31.51 2.13
1/3/2022 10:00:00 PM 5.83 42.494 0.271 6.42 27.19 2.16
1/3/2022 10:15:00 PM 5.78 42.404 0.27 6.42 27.81 2.05
1/3/2022 10:30:00 PM 5.75 42.35 0.27 6.41 29.66 1.97
1/3/2022 10:45:00 PM 5.69 42.242 0.27 6.42 33.95 2.01
1/3/2022 11:00:00 PM 5.63 42.134 0.27 6.41 26.01 2.01
1/3/2022 11:15:00 PM 5.58 42.044 0.27 6.42 29.82 1.99
1/3/2022 11:30:00 PM 5.54 41.972 0.27 6.4 28.62 2.01
1/3/2022 11:45:00 PM 5.48 41.864 0.27 6.39 24.84 1.95
1/4/2022 12:00:00 AM 5.44 41.792 0.27 6.36 28.76 1.95
1/4/2022 12:15:00 AM 5.39 41.702 0.27 6.36 31.37 1.83
1/4/2022 12:30:00 AM 5.34 41.612 0.27 6.38 33.57 1.96
1/4/2022 12:45:00 AM 5.31 41.558 0.27 6.38 25.32 1.77
1/4/2022 1:00:00 AM 5.26 41.468 0.27 6.39 33.52 1.81
1/4/2022 1:15:00 AM 5.21 41.378 0.27 6.39 31.3 1.93
1/4/2022 1:30:00 AM 5.16 41.288 0.27 6.38 30.18 1.93
1/4/2022 1:45:00 AM 5.11 41.198 0.27 6.37 30.94 1.91
1/4/2022 2:00:00 AM 5.06 41.108 0.271 6.37 31.1 1.97
1/4/2022 2:15:00 AM 5.01 41.018 0.271 6.38 46.49 1.98
1/4/2022 2:30:00 AM 4.96 40.928 0.271 6.37 31.89 1.75
1/4/2022 2:45:00 AM 4.9 40.82 0.272 6.36 31.25 1.72
1/4/2022 3:00:00 AM 4.85 40.73 0.272 6.33 38.37 1.76
1/4/2022 3:15:00 AM 4.8 40.64 0.272 6.31 26.81 1.92
1/4/2022 3:30:00 AM 4.75 40.55 0.272 6.32 31.62 2.11
1/4/2022 3:45:00 AM 4.7 40.46 0.272 6.31 31.95 2.03
1/4/2022 4:00:00 AM 4.66 40.388 0.272 6.32 28.97 1.81
1/4/2022 4:15:00 AM 4.62 40.316 0.273 6.35 31.76 1.75
1/4/2022 4:30:00 AM 4.57 40.226 0.273 6.34 31.87 1.86
1/4/2022 4:45:00 AM 4.52 40.136 0.273 6.33 28.48 1.8
1/4/2022 5:00:00 AM 4.48 40.064 0.273 6.33 26.38 1.76
1/4/2022 5:15:00 AM 4.43 39.974 0.273 6.32 30.74 1.79
1/4/2022 5:30:00 AM 4.39 39.902 0.274 6.32 34.78 1.8
1/4/2022 5:45:00 AM 4.35 39.83 0.274 6.33 35.16 1.73
1/4/2022 6:00:00 AM 4.31 39.758 0.275 6.32 33.23 1.89
1/4/2022 6:15:00 AM 4.27 39.686 0.275 6.3 30.01 2
1/4/2022 6:30:00 AM 4.23 39.614 0.275 6.3 35.39 1.98
1/4/2022 6:45:00 AM 4.19 39.542 0.275 6.27 30.03 1.78
1/4/2022 7:00:00 AM 4.14 39.452 0.275 6.26 31.77 1.93
1/4/2022 7:15:00 AM 4.11 39.398 0.275 6.27 29.27 1.9
1/4/2022 7:30:00 AM 4.07 39.326 0.276 6.27 32.18 1.81
1/4/2022 7:45:00 AM 4.03 39.254 0.276 6.26 32.2 1.62
1/4/2022 8:00:00 AM 4 39.2 0.276 6.27 33.45 1.83
1/4/2022 8:15:00 AM 3.97 39.146 0.276 6.26 33.52 1.49
1/4/2022 8:30:00 AM 3.95 39.11 0.277 6.28 26.21 1.64
1/4/2022 8:45:00 AM 3.93 39.074 0.277 6.28 25.94 1.53
1/4/2022 9:00:00 AM 3.91 39.038 0.277 6.28 27.45 1.64
1/4/2022 9:15:00 AM 3.91 39.038 0.277 6.27 34.02 1.66
1/4/2022 9:30:00 AM 3.91 39.038 0.277 6.26 31.38 1.58
1/4/2022 9:45:00 AM 3.9 39.02 0.278 6.26 27.41 1.65
1/4/2022 10:00:00 AM 3.9 39.02 0.278 6.25